<?xml version="1.0" encoding="UTF-8" standalone="no" ?>
<gpx xmlns="http://www.topografix.com/GPX/1/1" xmlns:xsi="http://www.w3.org/2001/XMLSchema-instance" xsi:schemaLocation="http://www.topografix.com/GPX/1/1 http://www.topografix.com/GPX/1/1/gpx.xsd" version="1.1" creator="VisuGPX - https://www.visugpx.com">
  <metadata>
    <name>Tricotage Pravouta </name>
    <desc><![CDATA[

]]></desc>
  </metadata>
  <trk>
    <name><![CDATA[Tricotage Pravouta ]]></name>
    <extensions>
      <line xmlns="http://www.topografix.com/GPX/gpx_style/0/2">
        <color>0000FF</color>
        <width>4</width>
      </line>
    </extensions>
    <trkseg>
      <trkpt lat="45.29155" lon="5.84798">
        <ele>823.43798828125</ele>
        <time>2017-01-20T08:25:46Z</time>
      </trkpt>
      <trkpt lat="45.2914" lon="5.8479">
        <ele>935.43798828125</ele>
        <time>2017-01-20T08:25:47Z</time>
      </trkpt>
      <trkpt lat="45.29132" lon="5.84789">
        <ele>981.43798828125</ele>
        <time>2017-01-20T08:25:49Z</time>
      </trkpt>
      <trkpt lat="45.29126" lon="5.84781">
        <ele>998.43798828125</ele>
        <time>2017-01-20T08:25:56Z</time>
      </trkpt>
      <trkpt lat="45.2912" lon="5.84774">
        <ele>1003.4379882812</ele>
        <time>2017-01-20T08:26:04Z</time>
      </trkpt>
      <trkpt lat="45.29119" lon="5.84763">
        <ele>1002.4379882812</ele>
        <time>2017-01-20T08:27:20Z</time>
      </trkpt>
      <trkpt lat="45.29113" lon="5.84756">
        <ele>1003.4379882812</ele>
        <time>2017-01-20T08:27:27Z</time>
      </trkpt>
      <trkpt lat="45.29107" lon="5.84747">
        <ele>1004.4379882812</ele>
        <time>2017-01-20T08:27:33Z</time>
      </trkpt>
      <trkpt lat="45.29115" lon="5.84741">
        <ele>1006.4379882812</ele>
        <time>2017-01-20T08:27:46Z</time>
      </trkpt>
      <trkpt lat="45.29122" lon="5.84746">
        <ele>1001.4379882812</ele>
        <time>2017-01-20T08:27:51Z</time>
      </trkpt>
      <trkpt lat="45.29129" lon="5.84743">
        <ele>999.43798828125</ele>
        <time>2017-01-20T08:27:57Z</time>
      </trkpt>
      <trkpt lat="45.29137" lon="5.84739">
        <ele>1000.4379882812</ele>
        <time>2017-01-20T08:28:02Z</time>
      </trkpt>
      <trkpt lat="45.29144" lon="5.84739">
        <ele>998.43798828125</ele>
        <time>2017-01-20T08:28:08Z</time>
      </trkpt>
      <trkpt lat="45.29153" lon="5.84742">
        <ele>996.43798828125</ele>
        <time>2017-01-20T08:28:14Z</time>
      </trkpt>
      <trkpt lat="45.29154" lon="5.84752">
        <ele>996.43798828125</ele>
        <time>2017-01-20T08:28:22Z</time>
      </trkpt>
      <trkpt lat="45.2915" lon="5.84761">
        <ele>997.43798828125</ele>
        <time>2017-01-20T08:28:28Z</time>
      </trkpt>
      <trkpt lat="45.29148" lon="5.84772">
        <ele>999.43798828125</ele>
        <time>2017-01-20T08:28:34Z</time>
      </trkpt>
      <trkpt lat="45.29146" lon="5.84783">
        <ele>997.43798828125</ele>
        <time>2017-01-20T08:28:39Z</time>
      </trkpt>
      <trkpt lat="45.29145" lon="5.84793">
        <ele>1000.4379882812</ele>
        <time>2017-01-20T08:28:45Z</time>
      </trkpt>
      <trkpt lat="45.29144" lon="5.84803">
        <ele>999.43798828125</ele>
        <time>2017-01-20T08:28:50Z</time>
      </trkpt>
      <trkpt lat="45.29141" lon="5.84814">
        <ele>1000.4379882812</ele>
        <time>2017-01-20T08:28:56Z</time>
      </trkpt>
      <trkpt lat="45.29149" lon="5.84809">
        <ele>1003.4379882812</ele>
        <time>2017-01-20T08:29:25Z</time>
      </trkpt>
      <trkpt lat="45.29154" lon="5.84802">
        <ele>1006.4379882812</ele>
        <time>2017-01-20T08:29:33Z</time>
      </trkpt>
      <trkpt lat="45.2916" lon="5.84796">
        <ele>1007.4379882812</ele>
        <time>2017-01-20T08:29:46Z</time>
      </trkpt>
      <trkpt lat="45.29166" lon="5.8479">
        <ele>1007.4379882812</ele>
        <time>2017-01-20T08:29:53Z</time>
      </trkpt>
      <trkpt lat="45.29173" lon="5.84783">
        <ele>1010.4379882812</ele>
        <time>2017-01-20T08:30:05Z</time>
      </trkpt>
      <trkpt lat="45.29179" lon="5.84777">
        <ele>1014.4379882812</ele>
        <time>2017-01-20T08:30:18Z</time>
      </trkpt>
      <trkpt lat="45.29185" lon="5.84771">
        <ele>1016.4379882812</ele>
        <time>2017-01-20T08:30:24Z</time>
      </trkpt>
      <trkpt lat="45.29191" lon="5.84777">
        <ele>1019.4379882812</ele>
        <time>2017-01-20T08:30:32Z</time>
      </trkpt>
      <trkpt lat="45.29199" lon="5.84778">
        <ele>1019.4379882812</ele>
        <time>2017-01-20T08:30:39Z</time>
      </trkpt>
      <trkpt lat="45.29211" lon="5.84768">
        <ele>1025.4379882812</ele>
        <time>2017-01-20T08:30:54Z</time>
      </trkpt>
      <trkpt lat="45.29214" lon="5.84757">
        <ele>1024.4379882812</ele>
        <time>2017-01-20T08:31:04Z</time>
      </trkpt>
      <trkpt lat="45.2922" lon="5.8475">
        <ele>1025.4379882812</ele>
        <time>2017-01-20T08:31:14Z</time>
      </trkpt>
      <trkpt lat="45.29226" lon="5.84743">
        <ele>1029.4379882812</ele>
        <time>2017-01-20T08:31:27Z</time>
      </trkpt>
      <trkpt lat="45.29231" lon="5.84735">
        <ele>1031.4379882812</ele>
        <time>2017-01-20T08:31:39Z</time>
      </trkpt>
      <trkpt lat="45.29236" lon="5.84724">
        <ele>1034.4379882812</ele>
        <time>2017-01-20T08:31:50Z</time>
      </trkpt>
      <trkpt lat="45.29238" lon="5.84714">
        <ele>1038.4379882812</ele>
        <time>2017-01-20T08:32:01Z</time>
      </trkpt>
      <trkpt lat="45.29242" lon="5.84704">
        <ele>1041.4379882812</ele>
        <time>2017-01-20T08:32:14Z</time>
      </trkpt>
      <trkpt lat="45.29244" lon="5.84694">
        <ele>1043.4379882812</ele>
        <time>2017-01-20T08:32:24Z</time>
      </trkpt>
      <trkpt lat="45.29249" lon="5.847">
        <ele>1045.4379882812</ele>
        <time>2017-01-20T08:32:32Z</time>
      </trkpt>
      <trkpt lat="45.29256" lon="5.84695">
        <ele>1043.4379882812</ele>
        <time>2017-01-20T08:32:41Z</time>
      </trkpt>
      <trkpt lat="45.29262" lon="5.84704">
        <ele>1043.4379882812</ele>
        <time>2017-01-20T08:32:48Z</time>
      </trkpt>
      <trkpt lat="45.29266" lon="5.84712">
        <ele>1043.4379882812</ele>
        <time>2017-01-20T08:32:53Z</time>
      </trkpt>
      <trkpt lat="45.29274" lon="5.84715">
        <ele>1047.4379882812</ele>
        <time>2017-01-20T08:33:03Z</time>
      </trkpt>
      <trkpt lat="45.29281" lon="5.84719">
        <ele>1049.4379882812</ele>
        <time>2017-01-20T08:33:18Z</time>
      </trkpt>
      <trkpt lat="45.29287" lon="5.84725">
        <ele>1047.4379882812</ele>
        <time>2017-01-20T08:35:27Z</time>
      </trkpt>
      <trkpt lat="45.29294" lon="5.84731">
        <ele>1050.4379882812</ele>
        <time>2017-01-20T08:35:34Z</time>
      </trkpt>
      <trkpt lat="45.29301" lon="5.84736">
        <ele>1055.4379882812</ele>
        <time>2017-01-20T08:35:41Z</time>
      </trkpt>
      <trkpt lat="45.29309" lon="5.84733">
        <ele>1057.4379882812</ele>
        <time>2017-01-20T08:35:50Z</time>
      </trkpt>
      <trkpt lat="45.29316" lon="5.84731">
        <ele>1061.4379882812</ele>
        <time>2017-01-20T08:36:00Z</time>
      </trkpt>
      <trkpt lat="45.29323" lon="5.84732">
        <ele>1063.4379882812</ele>
        <time>2017-01-20T08:36:11Z</time>
      </trkpt>
      <trkpt lat="45.2933" lon="5.84729">
        <ele>1064.4379882812</ele>
        <time>2017-01-20T08:36:23Z</time>
      </trkpt>
      <trkpt lat="45.29337" lon="5.84729">
        <ele>1067.4379882812</ele>
        <time>2017-01-20T08:36:34Z</time>
      </trkpt>
      <trkpt lat="45.29345" lon="5.8473">
        <ele>1067.4379882812</ele>
        <time>2017-01-20T08:36:48Z</time>
      </trkpt>
      <trkpt lat="45.29352" lon="5.8473">
        <ele>1070.4379882812</ele>
        <time>2017-01-20T08:36:56Z</time>
      </trkpt>
      <trkpt lat="45.29357" lon="5.84723">
        <ele>1076.4379882812</ele>
        <time>2017-01-20T08:38:20Z</time>
      </trkpt>
      <trkpt lat="45.29364" lon="5.84719">
        <ele>1081.4379882812</ele>
        <time>2017-01-20T08:38:33Z</time>
      </trkpt>
      <trkpt lat="45.29372" lon="5.84714">
        <ele>1082.4379882812</ele>
        <time>2017-01-20T08:38:42Z</time>
      </trkpt>
      <trkpt lat="45.2938" lon="5.8471">
        <ele>1085.4379882812</ele>
        <time>2017-01-20T08:38:52Z</time>
      </trkpt>
      <trkpt lat="45.29385" lon="5.84702">
        <ele>1087.4379882812</ele>
        <time>2017-01-20T08:39:26Z</time>
      </trkpt>
      <trkpt lat="45.29393" lon="5.84702">
        <ele>1087.4379882812</ele>
        <time>2017-01-20T08:40:03Z</time>
      </trkpt>
      <trkpt lat="45.29399" lon="5.84709">
        <ele>1093.4379882812</ele>
        <time>2017-01-20T08:40:15Z</time>
      </trkpt>
      <trkpt lat="45.29406" lon="5.84713">
        <ele>1090.4379882812</ele>
        <time>2017-01-20T08:40:26Z</time>
      </trkpt>
      <trkpt lat="45.29413" lon="5.84715">
        <ele>1093.4379882812</ele>
        <time>2017-01-20T08:40:33Z</time>
      </trkpt>
      <trkpt lat="45.29422" lon="5.84715">
        <ele>1098.4379882812</ele>
        <time>2017-01-20T08:40:43Z</time>
      </trkpt>
      <trkpt lat="45.29429" lon="5.84715">
        <ele>1099.4379882812</ele>
        <time>2017-01-20T08:40:53Z</time>
      </trkpt>
      <trkpt lat="45.29436" lon="5.8472">
        <ele>1104.4379882812</ele>
        <time>2017-01-20T08:41:08Z</time>
      </trkpt>
      <trkpt lat="45.29445" lon="5.8472">
        <ele>1105.4379882812</ele>
        <time>2017-01-20T08:41:20Z</time>
      </trkpt>
      <trkpt lat="45.29451" lon="5.84725">
        <ele>1106.4379882812</ele>
        <time>2017-01-20T08:41:34Z</time>
      </trkpt>
      <trkpt lat="45.29458" lon="5.84732">
        <ele>1114.4379882812</ele>
        <time>2017-01-20T08:41:44Z</time>
      </trkpt>
      <trkpt lat="45.29465" lon="5.84735">
        <ele>1117.4379882812</ele>
        <time>2017-01-20T08:41:58Z</time>
      </trkpt>
      <trkpt lat="45.29473" lon="5.84736">
        <ele>1113.4379882812</ele>
        <time>2017-01-20T08:42:06Z</time>
      </trkpt>
      <trkpt lat="45.29481" lon="5.84737">
        <ele>1118.4379882812</ele>
        <time>2017-01-20T08:42:20Z</time>
      </trkpt>
      <trkpt lat="45.29475" lon="5.84723">
        <ele>1125.4379882812</ele>
        <time>2017-01-20T08:42:30Z</time>
      </trkpt>
      <trkpt lat="45.29482" lon="5.84726">
        <ele>1126.4379882812</ele>
        <time>2017-01-20T08:42:50Z</time>
      </trkpt>
      <trkpt lat="45.29491" lon="5.84729">
        <ele>1130.4379882812</ele>
        <time>2017-01-20T08:43:01Z</time>
      </trkpt>
      <trkpt lat="45.29499" lon="5.84731">
        <ele>1131.4379882812</ele>
        <time>2017-01-20T08:43:14Z</time>
      </trkpt>
      <trkpt lat="45.29506" lon="5.84735">
        <ele>1137.4379882812</ele>
        <time>2017-01-20T08:43:19Z</time>
      </trkpt>
      <trkpt lat="45.29513" lon="5.8474">
        <ele>1141.4379882812</ele>
        <time>2017-01-20T08:43:28Z</time>
      </trkpt>
      <trkpt lat="45.29519" lon="5.84748">
        <ele>1140.4379882812</ele>
        <time>2017-01-20T08:43:37Z</time>
      </trkpt>
      <trkpt lat="45.29525" lon="5.84752">
        <ele>1135.4379882812</ele>
        <time>2017-01-20T08:44:22Z</time>
      </trkpt>
      <trkpt lat="45.29532" lon="5.84755">
        <ele>1133.4379882812</ele>
        <time>2017-01-20T08:44:28Z</time>
      </trkpt>
      <trkpt lat="45.2954" lon="5.84751">
        <ele>1133.4379882812</ele>
        <time>2017-01-20T08:44:33Z</time>
      </trkpt>
      <trkpt lat="45.29555" lon="5.84744">
        <ele>1136.4379882812</ele>
        <time>2017-01-20T08:44:46Z</time>
      </trkpt>
      <trkpt lat="45.29561" lon="5.84738">
        <ele>1138.4379882812</ele>
        <time>2017-01-20T08:44:54Z</time>
      </trkpt>
      <trkpt lat="45.29566" lon="5.8473">
        <ele>1135.4379882812</ele>
        <time>2017-01-20T08:45:06Z</time>
      </trkpt>
      <trkpt lat="45.29574" lon="5.84726">
        <ele>1137.4379882812</ele>
        <time>2017-01-20T08:45:15Z</time>
      </trkpt>
      <trkpt lat="45.29581" lon="5.84719">
        <ele>1140.4389648438</ele>
        <time>2017-01-20T08:45:22Z</time>
      </trkpt>
      <trkpt lat="45.2959" lon="5.84715">
        <ele>1145.4389648438</ele>
        <time>2017-01-20T08:45:35Z</time>
      </trkpt>
      <trkpt lat="45.29597" lon="5.84712">
        <ele>1146.4389648438</ele>
        <time>2017-01-20T08:45:43Z</time>
      </trkpt>
      <trkpt lat="45.29605" lon="5.84709">
        <ele>1147.4389648438</ele>
        <time>2017-01-20T08:45:58Z</time>
      </trkpt>
      <trkpt lat="45.29612" lon="5.84707">
        <ele>1155.4389648438</ele>
        <time>2017-01-20T08:46:06Z</time>
      </trkpt>
      <trkpt lat="45.2962" lon="5.84704">
        <ele>1152.4389648438</ele>
        <time>2017-01-20T08:46:17Z</time>
      </trkpt>
      <trkpt lat="45.29627" lon="5.84699">
        <ele>1150.4389648438</ele>
        <time>2017-01-20T08:46:27Z</time>
      </trkpt>
      <trkpt lat="45.29634" lon="5.84695">
        <ele>1157.4389648438</ele>
        <time>2017-01-20T08:46:42Z</time>
      </trkpt>
      <trkpt lat="45.29641" lon="5.84692">
        <ele>1157.4389648438</ele>
        <time>2017-01-20T08:46:52Z</time>
      </trkpt>
      <trkpt lat="45.29648" lon="5.84688">
        <ele>1156.4389648438</ele>
        <time>2017-01-20T08:47:00Z</time>
      </trkpt>
      <trkpt lat="45.29646" lon="5.84676">
        <ele>1168.4389648438</ele>
        <time>2017-01-20T08:47:18Z</time>
      </trkpt>
      <trkpt lat="45.29644" lon="5.84665">
        <ele>1175.4389648438</ele>
        <time>2017-01-20T08:47:26Z</time>
      </trkpt>
      <trkpt lat="45.29652" lon="5.84664">
        <ele>1176.4389648438</ele>
        <time>2017-01-20T08:47:38Z</time>
      </trkpt>
      <trkpt lat="45.2966" lon="5.84659">
        <ele>1175.4389648438</ele>
        <time>2017-01-20T08:47:43Z</time>
      </trkpt>
      <trkpt lat="45.29668" lon="5.84658">
        <ele>1177.4389648438</ele>
        <time>2017-01-20T08:47:51Z</time>
      </trkpt>
      <trkpt lat="45.29675" lon="5.84656">
        <ele>1180.4389648438</ele>
        <time>2017-01-20T08:48:07Z</time>
      </trkpt>
      <trkpt lat="45.29683" lon="5.84657">
        <ele>1179.4389648438</ele>
        <time>2017-01-20T08:48:17Z</time>
      </trkpt>
      <trkpt lat="45.29692" lon="5.84656">
        <ele>1180.4389648438</ele>
        <time>2017-01-20T08:48:26Z</time>
      </trkpt>
      <trkpt lat="45.29699" lon="5.84661">
        <ele>1182.4389648438</ele>
        <time>2017-01-20T08:48:33Z</time>
      </trkpt>
      <trkpt lat="45.29706" lon="5.84668">
        <ele>1189.4389648438</ele>
        <time>2017-01-20T08:48:42Z</time>
      </trkpt>
      <trkpt lat="45.29714" lon="5.84671">
        <ele>1187.4389648438</ele>
        <time>2017-01-20T08:48:49Z</time>
      </trkpt>
      <trkpt lat="45.29722" lon="5.84676">
        <ele>1197.4389648438</ele>
        <time>2017-01-20T08:49:04Z</time>
      </trkpt>
      <trkpt lat="45.2973" lon="5.84678">
        <ele>1133.4389648438</ele>
        <time>2017-01-20T08:49:14Z</time>
      </trkpt>
      <trkpt lat="45.29738" lon="5.84682">
        <ele>1171.4389648438</ele>
        <time>2017-01-20T08:49:22Z</time>
      </trkpt>
      <trkpt lat="45.2974" lon="5.84672">
        <ele>1206.4389648438</ele>
        <time>2017-01-20T08:49:38Z</time>
      </trkpt>
      <trkpt lat="45.29745" lon="5.8466">
        <ele>1215.4389648438</ele>
        <time>2017-01-20T08:50:15Z</time>
      </trkpt>
      <trkpt lat="45.2975" lon="5.84653">
        <ele>1215.4389648438</ele>
        <time>2017-01-20T08:50:20Z</time>
      </trkpt>
      <trkpt lat="45.29755" lon="5.84644">
        <ele>1222.4389648438</ele>
        <time>2017-01-20T08:50:29Z</time>
      </trkpt>
      <trkpt lat="45.2976" lon="5.84636">
        <ele>1222.4389648438</ele>
        <time>2017-01-20T08:50:34Z</time>
      </trkpt>
      <trkpt lat="45.29759" lon="5.84626">
        <ele>1220.4389648438</ele>
        <time>2017-01-20T08:50:46Z</time>
      </trkpt>
      <trkpt lat="45.2975" lon="5.84621">
        <ele>1226.4389648438</ele>
        <time>2017-01-20T08:50:57Z</time>
      </trkpt>
      <trkpt lat="45.29744" lon="5.84617">
        <ele>1225.4389648438</ele>
        <time>2017-01-20T08:51:02Z</time>
      </trkpt>
      <trkpt lat="45.29729" lon="5.84609">
        <ele>1229.4389648438</ele>
        <time>2017-01-20T08:51:10Z</time>
      </trkpt>
      <trkpt lat="45.29714" lon="5.84601">
        <ele>1226.4389648438</ele>
        <time>2017-01-20T08:51:21Z</time>
      </trkpt>
      <trkpt lat="45.29697" lon="5.84593">
        <ele>1225.4389648438</ele>
        <time>2017-01-20T08:51:30Z</time>
      </trkpt>
      <trkpt lat="45.29682" lon="5.84586">
        <ele>1224.4389648438</ele>
        <time>2017-01-20T08:51:39Z</time>
      </trkpt>
      <trkpt lat="45.29675" lon="5.84583">
        <ele>1223.4389648438</ele>
        <time>2017-01-20T08:51:45Z</time>
      </trkpt>
      <trkpt lat="45.29669" lon="5.84575">
        <ele>1219.4379882812</ele>
        <time>2017-01-20T08:51:51Z</time>
      </trkpt>
      <trkpt lat="45.29663" lon="5.8457">
        <ele>1216.4379882812</ele>
        <time>2017-01-20T08:51:59Z</time>
      </trkpt>
      <trkpt lat="45.29655" lon="5.84564">
        <ele>1217.4379882812</ele>
        <time>2017-01-20T08:52:06Z</time>
      </trkpt>
      <trkpt lat="45.29653" lon="5.84553">
        <ele>1221.4379882812</ele>
        <time>2017-01-20T08:52:16Z</time>
      </trkpt>
      <trkpt lat="45.2966" lon="5.84556">
        <ele>1224.4379882812</ele>
        <time>2017-01-20T08:52:34Z</time>
      </trkpt>
      <trkpt lat="45.29666" lon="5.84552">
        <ele>1225.4379882812</ele>
        <time>2017-01-20T08:52:59Z</time>
      </trkpt>
      <trkpt lat="45.29672" lon="5.84545">
        <ele>1229.4379882812</ele>
        <time>2017-01-20T08:53:11Z</time>
      </trkpt>
      <trkpt lat="45.29678" lon="5.84538">
        <ele>1231.4379882812</ele>
        <time>2017-01-20T08:53:16Z</time>
      </trkpt>
      <trkpt lat="45.29686" lon="5.84536">
        <ele>1234.4379882812</ele>
        <time>2017-01-20T08:53:23Z</time>
      </trkpt>
      <trkpt lat="45.29693" lon="5.84539">
        <ele>1234.4379882812</ele>
        <time>2017-01-20T08:53:30Z</time>
      </trkpt>
      <trkpt lat="45.29702" lon="5.84539">
        <ele>1236.4389648438</ele>
        <time>2017-01-20T08:53:41Z</time>
      </trkpt>
      <trkpt lat="45.29711" lon="5.84537">
        <ele>1237.4389648438</ele>
        <time>2017-01-20T08:53:49Z</time>
      </trkpt>
      <trkpt lat="45.29719" lon="5.84537">
        <ele>1236.4389648438</ele>
        <time>2017-01-20T08:53:56Z</time>
      </trkpt>
      <trkpt lat="45.29727" lon="5.84535">
        <ele>1241.4389648438</ele>
        <time>2017-01-20T08:54:11Z</time>
      </trkpt>
      <trkpt lat="45.29735" lon="5.84527">
        <ele>1240.4389648438</ele>
        <time>2017-01-20T08:54:30Z</time>
      </trkpt>
      <trkpt lat="45.29741" lon="5.84522">
        <ele>1240.4389648438</ele>
        <time>2017-01-20T08:54:35Z</time>
      </trkpt>
      <trkpt lat="45.29748" lon="5.84518">
        <ele>1246.4389648438</ele>
        <time>2017-01-20T08:54:43Z</time>
      </trkpt>
      <trkpt lat="45.29755" lon="5.84515">
        <ele>1249.4389648438</ele>
        <time>2017-01-20T08:54:52Z</time>
      </trkpt>
      <trkpt lat="45.29762" lon="5.84518">
        <ele>1259.4389648438</ele>
        <time>2017-01-20T08:55:12Z</time>
      </trkpt>
      <trkpt lat="45.29769" lon="5.84523">
        <ele>1259.4389648438</ele>
        <time>2017-01-20T08:55:20Z</time>
      </trkpt>
      <trkpt lat="45.29777" lon="5.84526">
        <ele>1257.4389648438</ele>
        <time>2017-01-20T08:55:27Z</time>
      </trkpt>
      <trkpt lat="45.29785" lon="5.84526">
        <ele>1261.4389648438</ele>
        <time>2017-01-20T08:55:37Z</time>
      </trkpt>
      <trkpt lat="45.29794" lon="5.84528">
        <ele>1266.4389648438</ele>
        <time>2017-01-20T08:56:07Z</time>
      </trkpt>
      <trkpt lat="45.29801" lon="5.84527">
        <ele>1269.4389648438</ele>
        <time>2017-01-20T08:56:16Z</time>
      </trkpt>
      <trkpt lat="45.29808" lon="5.84524">
        <ele>1274.4389648438</ele>
        <time>2017-01-20T08:56:23Z</time>
      </trkpt>
      <trkpt lat="45.29815" lon="5.84521">
        <ele>1273.4389648438</ele>
        <time>2017-01-20T08:56:41Z</time>
      </trkpt>
      <trkpt lat="45.29822" lon="5.84517">
        <ele>1281.4389648438</ele>
        <time>2017-01-20T08:56:58Z</time>
      </trkpt>
      <trkpt lat="45.2983" lon="5.84519">
        <ele>1285.4389648438</ele>
        <time>2017-01-20T08:57:06Z</time>
      </trkpt>
      <trkpt lat="45.29837" lon="5.84515">
        <ele>1284.4389648438</ele>
        <time>2017-01-20T08:57:22Z</time>
      </trkpt>
      <trkpt lat="45.29845" lon="5.84513">
        <ele>1288.4389648438</ele>
        <time>2017-01-20T08:57:48Z</time>
      </trkpt>
      <trkpt lat="45.29852" lon="5.84514">
        <ele>1289.4389648438</ele>
        <time>2017-01-20T08:58:10Z</time>
      </trkpt>
      <trkpt lat="45.29859" lon="5.84512">
        <ele>1291.4389648438</ele>
        <time>2017-01-20T08:58:23Z</time>
      </trkpt>
      <trkpt lat="45.29867" lon="5.84508">
        <ele>1298.4389648438</ele>
        <time>2017-01-20T08:58:38Z</time>
      </trkpt>
      <trkpt lat="45.29874" lon="5.84504">
        <ele>1301.4389648438</ele>
        <time>2017-01-20T08:58:48Z</time>
      </trkpt>
      <trkpt lat="45.29882" lon="5.84503">
        <ele>1302.4389648438</ele>
        <time>2017-01-20T08:59:05Z</time>
      </trkpt>
      <trkpt lat="45.29889" lon="5.84502">
        <ele>1310.4389648438</ele>
        <time>2017-01-20T08:59:29Z</time>
      </trkpt>
      <trkpt lat="45.29897" lon="5.84503">
        <ele>1314.4389648438</ele>
        <time>2017-01-20T08:59:47Z</time>
      </trkpt>
      <trkpt lat="45.29905" lon="5.84499">
        <ele>1318.4389648438</ele>
        <time>2017-01-20T08:59:52Z</time>
      </trkpt>
      <trkpt lat="45.29911" lon="5.84504">
        <ele>1323.4389648438</ele>
        <time>2017-01-20T09:00:22Z</time>
      </trkpt>
      <trkpt lat="45.29918" lon="5.84507">
        <ele>1322.4389648438</ele>
        <time>2017-01-20T09:00:27Z</time>
      </trkpt>
      <trkpt lat="45.29925" lon="5.84511">
        <ele>1322.4389648438</ele>
        <time>2017-01-20T09:00:48Z</time>
      </trkpt>
      <trkpt lat="45.29932" lon="5.8451">
        <ele>1322.4389648438</ele>
        <time>2017-01-20T09:00:57Z</time>
      </trkpt>
      <trkpt lat="45.29939" lon="5.84513">
        <ele>1332.4389648438</ele>
        <time>2017-01-20T09:01:15Z</time>
      </trkpt>
      <trkpt lat="45.29946" lon="5.84517">
        <ele>1337.4389648438</ele>
        <time>2017-01-20T09:04:12Z</time>
      </trkpt>
      <trkpt lat="45.29954" lon="5.8452">
        <ele>1340.4389648438</ele>
        <time>2017-01-20T09:04:21Z</time>
      </trkpt>
      <trkpt lat="45.29961" lon="5.8452">
        <ele>1343.4389648438</ele>
        <time>2017-01-20T09:04:35Z</time>
      </trkpt>
      <trkpt lat="45.29968" lon="5.8452">
        <ele>1344.4389648438</ele>
        <time>2017-01-20T09:04:42Z</time>
      </trkpt>
      <trkpt lat="45.29976" lon="5.84519">
        <ele>1347.4389648438</ele>
        <time>2017-01-20T09:04:50Z</time>
      </trkpt>
      <trkpt lat="45.29984" lon="5.84518">
        <ele>1349.4389648438</ele>
        <time>2017-01-20T09:05:11Z</time>
      </trkpt>
      <trkpt lat="45.29993" lon="5.8452">
        <ele>1351.4389648438</ele>
        <time>2017-01-20T09:05:20Z</time>
      </trkpt>
      <trkpt lat="45.3" lon="5.84523">
        <ele>1354.4389648438</ele>
        <time>2017-01-20T09:05:28Z</time>
      </trkpt>
      <trkpt lat="45.30007" lon="5.84522">
        <ele>1352.4389648438</ele>
        <time>2017-01-20T09:05:42Z</time>
      </trkpt>
      <trkpt lat="45.30015" lon="5.84521">
        <ele>1353.4389648438</ele>
        <time>2017-01-20T09:05:51Z</time>
      </trkpt>
      <trkpt lat="45.30023" lon="5.84518">
        <ele>1354.4389648438</ele>
        <time>2017-01-20T09:05:59Z</time>
      </trkpt>
      <trkpt lat="45.3003" lon="5.84514">
        <ele>1358.4389648438</ele>
        <time>2017-01-20T09:06:11Z</time>
      </trkpt>
      <trkpt lat="45.30037" lon="5.84517">
        <ele>1361.4389648438</ele>
        <time>2017-01-20T09:06:25Z</time>
      </trkpt>
      <trkpt lat="45.30045" lon="5.84517">
        <ele>1366.4389648438</ele>
        <time>2017-01-20T09:06:35Z</time>
      </trkpt>
      <trkpt lat="45.30054" lon="5.84517">
        <ele>1366.4389648438</ele>
        <time>2017-01-20T09:06:41Z</time>
      </trkpt>
      <trkpt lat="45.30061" lon="5.84519">
        <ele>1367.4389648438</ele>
        <time>2017-01-20T09:06:49Z</time>
      </trkpt>
      <trkpt lat="45.30067" lon="5.84512">
        <ele>1371.4389648438</ele>
        <time>2017-01-20T09:07:02Z</time>
      </trkpt>
      <trkpt lat="45.30074" lon="5.84511">
        <ele>1371.4389648438</ele>
        <time>2017-01-20T09:07:13Z</time>
      </trkpt>
      <trkpt lat="45.30083" lon="5.8451">
        <ele>1377.4389648438</ele>
        <time>2017-01-20T09:07:21Z</time>
      </trkpt>
      <trkpt lat="45.3009" lon="5.84509">
        <ele>1382.4389648438</ele>
        <time>2017-01-20T09:07:33Z</time>
      </trkpt>
      <trkpt lat="45.30098" lon="5.84512">
        <ele>1385.4389648438</ele>
        <time>2017-01-20T09:07:42Z</time>
      </trkpt>
      <trkpt lat="45.30105" lon="5.84515">
        <ele>1388.4389648438</ele>
        <time>2017-01-20T09:08:00Z</time>
      </trkpt>
      <trkpt lat="45.30113" lon="5.84518">
        <ele>1389.4389648438</ele>
        <time>2017-01-20T09:08:26Z</time>
      </trkpt>
      <trkpt lat="45.30121" lon="5.84518">
        <ele>1389.4389648438</ele>
        <time>2017-01-20T09:08:31Z</time>
      </trkpt>
      <trkpt lat="45.30129" lon="5.84521">
        <ele>1393.4389648438</ele>
        <time>2017-01-20T09:08:55Z</time>
      </trkpt>
      <trkpt lat="45.30145" lon="5.84524">
        <ele>1398.4389648438</ele>
        <time>2017-01-20T09:09:04Z</time>
      </trkpt>
      <trkpt lat="45.30152" lon="5.84528">
        <ele>1400.4389648438</ele>
        <time>2017-01-20T09:09:11Z</time>
      </trkpt>
      <trkpt lat="45.30159" lon="5.84534">
        <ele>1403.4389648438</ele>
        <time>2017-01-20T09:09:27Z</time>
      </trkpt>
      <trkpt lat="45.30167" lon="5.8454">
        <ele>1405.4389648438</ele>
        <time>2017-01-20T09:09:34Z</time>
      </trkpt>
      <trkpt lat="45.30175" lon="5.84543">
        <ele>1411.4399414062</ele>
        <time>2017-01-20T09:09:47Z</time>
      </trkpt>
      <trkpt lat="45.30184" lon="5.84547">
        <ele>1414.4399414062</ele>
        <time>2017-01-20T09:10:00Z</time>
      </trkpt>
      <trkpt lat="45.30191" lon="5.8455">
        <ele>1417.4399414062</ele>
        <time>2017-01-20T09:10:13Z</time>
      </trkpt>
      <trkpt lat="45.30196" lon="5.84558">
        <ele>1421.4399414062</ele>
        <time>2017-01-20T09:10:22Z</time>
      </trkpt>
      <trkpt lat="45.30204" lon="5.84561">
        <ele>1423.4399414062</ele>
        <time>2017-01-20T09:10:35Z</time>
      </trkpt>
      <trkpt lat="45.30211" lon="5.84558">
        <ele>1428.4399414062</ele>
        <time>2017-01-20T09:10:46Z</time>
      </trkpt>
      <trkpt lat="45.30218" lon="5.84552">
        <ele>1436.4399414062</ele>
        <time>2017-01-20T09:11:08Z</time>
      </trkpt>
      <trkpt lat="45.30225" lon="5.84556">
        <ele>1437.4399414062</ele>
        <time>2017-01-20T09:11:23Z</time>
      </trkpt>
      <trkpt lat="45.30233" lon="5.84556">
        <ele>1436.4399414062</ele>
        <time>2017-01-20T09:11:34Z</time>
      </trkpt>
      <trkpt lat="45.30239" lon="5.84551">
        <ele>1437.4399414062</ele>
        <time>2017-01-20T09:12:03Z</time>
      </trkpt>
      <trkpt lat="45.30246" lon="5.84544">
        <ele>1433.4399414062</ele>
        <time>2017-01-20T09:12:12Z</time>
      </trkpt>
      <trkpt lat="45.30253" lon="5.84537">
        <ele>1435.4399414062</ele>
        <time>2017-01-20T09:12:17Z</time>
      </trkpt>
      <trkpt lat="45.30259" lon="5.8453">
        <ele>1436.4399414062</ele>
        <time>2017-01-20T09:12:26Z</time>
      </trkpt>
      <trkpt lat="45.30267" lon="5.84528">
        <ele>1441.4399414062</ele>
        <time>2017-01-20T09:12:38Z</time>
      </trkpt>
      <trkpt lat="45.30274" lon="5.84528">
        <ele>1442.4399414062</ele>
        <time>2017-01-20T09:12:47Z</time>
      </trkpt>
      <trkpt lat="45.30281" lon="5.84526">
        <ele>1445.4399414062</ele>
        <time>2017-01-20T09:13:16Z</time>
      </trkpt>
      <trkpt lat="45.30289" lon="5.84522">
        <ele>1445.4399414062</ele>
        <time>2017-01-20T09:13:25Z</time>
      </trkpt>
      <trkpt lat="45.30296" lon="5.84519">
        <ele>1448.4399414062</ele>
        <time>2017-01-20T09:13:33Z</time>
      </trkpt>
      <trkpt lat="45.30304" lon="5.84521">
        <ele>1452.4399414062</ele>
        <time>2017-01-20T09:13:40Z</time>
      </trkpt>
      <trkpt lat="45.30311" lon="5.8452">
        <ele>1458.4399414062</ele>
        <time>2017-01-20T09:13:47Z</time>
      </trkpt>
      <trkpt lat="45.30319" lon="5.84519">
        <ele>1459.4399414062</ele>
        <time>2017-01-20T09:13:57Z</time>
      </trkpt>
      <trkpt lat="45.30326" lon="5.84518">
        <ele>1464.4399414062</ele>
        <time>2017-01-20T09:14:04Z</time>
      </trkpt>
      <trkpt lat="45.30336" lon="5.84519">
        <ele>1465.4399414062</ele>
        <time>2017-01-20T09:14:14Z</time>
      </trkpt>
      <trkpt lat="45.30344" lon="5.84517">
        <ele>1467.4399414062</ele>
        <time>2017-01-20T09:14:23Z</time>
      </trkpt>
      <trkpt lat="45.30351" lon="5.84515">
        <ele>1469.4399414062</ele>
        <time>2017-01-20T09:14:32Z</time>
      </trkpt>
      <trkpt lat="45.30359" lon="5.84514">
        <ele>1473.4399414062</ele>
        <time>2017-01-20T09:14:42Z</time>
      </trkpt>
      <trkpt lat="45.30367" lon="5.84515">
        <ele>1475.4399414062</ele>
        <time>2017-01-20T09:14:48Z</time>
      </trkpt>
      <trkpt lat="45.30376" lon="5.84512">
        <ele>1473.4399414062</ele>
        <time>2017-01-20T09:14:56Z</time>
      </trkpt>
      <trkpt lat="45.30383" lon="5.84514">
        <ele>1469.4399414062</ele>
        <time>2017-01-20T09:15:08Z</time>
      </trkpt>
      <trkpt lat="45.30391" lon="5.84515">
        <ele>1475.4399414062</ele>
        <time>2017-01-20T09:15:21Z</time>
      </trkpt>
      <trkpt lat="45.30398" lon="5.84514">
        <ele>1479.4399414062</ele>
        <time>2017-01-20T09:15:29Z</time>
      </trkpt>
      <trkpt lat="45.30406" lon="5.84513">
        <ele>1483.4399414062</ele>
        <time>2017-01-20T09:15:36Z</time>
      </trkpt>
      <trkpt lat="45.30413" lon="5.84514">
        <ele>1488.4399414062</ele>
        <time>2017-01-20T09:15:43Z</time>
      </trkpt>
      <trkpt lat="45.3042" lon="5.84513">
        <ele>1485.4399414062</ele>
        <time>2017-01-20T09:15:51Z</time>
      </trkpt>
      <trkpt lat="45.30429" lon="5.84512">
        <ele>1487.4399414062</ele>
        <time>2017-01-20T09:15:58Z</time>
      </trkpt>
      <trkpt lat="45.30438" lon="5.84511">
        <ele>1488.4399414062</ele>
        <time>2017-01-20T09:16:14Z</time>
      </trkpt>
      <trkpt lat="45.30445" lon="5.84506">
        <ele>1496.4399414062</ele>
        <time>2017-01-20T09:16:26Z</time>
      </trkpt>
      <trkpt lat="45.30448" lon="5.84516">
        <ele>1494.4399414062</ele>
        <time>2017-01-20T09:16:36Z</time>
      </trkpt>
      <trkpt lat="45.30443" lon="5.84524">
        <ele>1494.4399414062</ele>
        <time>2017-01-20T09:16:42Z</time>
      </trkpt>
      <trkpt lat="45.30439" lon="5.84535">
        <ele>1494.4399414062</ele>
        <time>2017-01-20T09:16:50Z</time>
      </trkpt>
      <trkpt lat="45.30436" lon="5.84545">
        <ele>1494.4399414062</ele>
        <time>2017-01-20T09:17:00Z</time>
      </trkpt>
      <trkpt lat="45.30444" lon="5.84543">
        <ele>1499.4399414062</ele>
        <time>2017-01-20T09:17:12Z</time>
      </trkpt>
      <trkpt lat="45.30452" lon="5.84543">
        <ele>1505.4399414062</ele>
        <time>2017-01-20T09:17:24Z</time>
      </trkpt>
      <trkpt lat="45.3046" lon="5.84543">
        <ele>1506.4399414062</ele>
        <time>2017-01-20T09:17:30Z</time>
      </trkpt>
      <trkpt lat="45.30468" lon="5.84543">
        <ele>1510.4399414062</ele>
        <time>2017-01-20T09:17:41Z</time>
      </trkpt>
      <trkpt lat="45.30475" lon="5.8454">
        <ele>1512.4399414062</ele>
        <time>2017-01-20T09:17:50Z</time>
      </trkpt>
      <trkpt lat="45.30471" lon="5.84549">
        <ele>1517.4399414062</ele>
        <time>2017-01-20T09:18:02Z</time>
      </trkpt>
      <trkpt lat="45.30472" lon="5.84561">
        <ele>1516.4399414062</ele>
        <time>2017-01-20T09:18:20Z</time>
      </trkpt>
      <trkpt lat="45.30472" lon="5.84572">
        <ele>1518.4399414062</ele>
        <time>2017-01-20T09:18:33Z</time>
      </trkpt>
      <trkpt lat="45.30479" lon="5.84576">
        <ele>1523.4399414062</ele>
        <time>2017-01-20T09:18:44Z</time>
      </trkpt>
      <trkpt lat="45.30486" lon="5.84574">
        <ele>1524.4399414062</ele>
        <time>2017-01-20T09:18:50Z</time>
      </trkpt>
      <trkpt lat="45.30494" lon="5.84574">
        <ele>1524.4399414062</ele>
        <time>2017-01-20T09:18:59Z</time>
      </trkpt>
      <trkpt lat="45.30501" lon="5.84574">
        <ele>1527.4399414062</ele>
        <time>2017-01-20T09:19:11Z</time>
      </trkpt>
      <trkpt lat="45.30509" lon="5.84573">
        <ele>1531.4399414062</ele>
        <time>2017-01-20T09:19:26Z</time>
      </trkpt>
      <trkpt lat="45.30516" lon="5.84573">
        <ele>1528.4399414062</ele>
        <time>2017-01-20T09:19:34Z</time>
      </trkpt>
      <trkpt lat="45.30524" lon="5.84571">
        <ele>1536.4399414062</ele>
        <time>2017-01-20T09:19:43Z</time>
      </trkpt>
      <trkpt lat="45.30532" lon="5.84569">
        <ele>1537.4399414062</ele>
        <time>2017-01-20T09:19:48Z</time>
      </trkpt>
      <trkpt lat="45.30539" lon="5.84573">
        <ele>1541.4399414062</ele>
        <time>2017-01-20T09:19:58Z</time>
      </trkpt>
      <trkpt lat="45.30547" lon="5.84575">
        <ele>1541.4399414062</ele>
        <time>2017-01-20T09:20:06Z</time>
      </trkpt>
      <trkpt lat="45.30555" lon="5.84575">
        <ele>1546.4399414062</ele>
        <time>2017-01-20T09:20:18Z</time>
      </trkpt>
      <trkpt lat="45.30563" lon="5.84576">
        <ele>1549.4399414062</ele>
        <time>2017-01-20T09:20:27Z</time>
      </trkpt>
      <trkpt lat="45.30571" lon="5.84576">
        <ele>1548.4399414062</ele>
        <time>2017-01-20T09:20:36Z</time>
      </trkpt>
      <trkpt lat="45.30579" lon="5.84576">
        <ele>1551.4399414062</ele>
        <time>2017-01-20T09:20:43Z</time>
      </trkpt>
      <trkpt lat="45.30586" lon="5.84578">
        <ele>1554.4399414062</ele>
        <time>2017-01-20T09:20:52Z</time>
      </trkpt>
      <trkpt lat="45.30594" lon="5.84581">
        <ele>1556.4399414062</ele>
        <time>2017-01-20T09:21:05Z</time>
      </trkpt>
      <trkpt lat="45.306" lon="5.84588">
        <ele>1560.4399414062</ele>
        <time>2017-01-20T09:21:14Z</time>
      </trkpt>
      <trkpt lat="45.30595" lon="5.84596">
        <ele>1557.4399414062</ele>
        <time>2017-01-20T09:21:22Z</time>
      </trkpt>
      <trkpt lat="45.30592" lon="5.84607">
        <ele>1558.4399414062</ele>
        <time>2017-01-20T09:21:31Z</time>
      </trkpt>
      <trkpt lat="45.30587" lon="5.84615">
        <ele>1561.4399414062</ele>
        <time>2017-01-20T09:21:39Z</time>
      </trkpt>
      <trkpt lat="45.30581" lon="5.84622">
        <ele>1563.4399414062</ele>
        <time>2017-01-20T09:21:46Z</time>
      </trkpt>
      <trkpt lat="45.30576" lon="5.84631">
        <ele>1564.4399414062</ele>
        <time>2017-01-20T09:21:53Z</time>
      </trkpt>
      <trkpt lat="45.30571" lon="5.84639">
        <ele>1566.4399414062</ele>
        <time>2017-01-20T09:22:03Z</time>
      </trkpt>
      <trkpt lat="45.30566" lon="5.84648">
        <ele>1569.4399414062</ele>
        <time>2017-01-20T09:22:12Z</time>
      </trkpt>
      <trkpt lat="45.30561" lon="5.84655">
        <ele>1572.4399414062</ele>
        <time>2017-01-20T09:22:20Z</time>
      </trkpt>
      <trkpt lat="45.30568" lon="5.84661">
        <ele>1577.4399414062</ele>
        <time>2017-01-20T09:22:38Z</time>
      </trkpt>
      <trkpt lat="45.30576" lon="5.84661">
        <ele>1577.4399414062</ele>
        <time>2017-01-20T09:22:46Z</time>
      </trkpt>
      <trkpt lat="45.30584" lon="5.84663">
        <ele>1582.4410400391</ele>
        <time>2017-01-20T09:22:55Z</time>
      </trkpt>
      <trkpt lat="45.30592" lon="5.84663">
        <ele>1579.4410400391</ele>
        <time>2017-01-20T09:23:03Z</time>
      </trkpt>
      <trkpt lat="45.30599" lon="5.84664">
        <ele>1584.4410400391</ele>
        <time>2017-01-20T09:23:11Z</time>
      </trkpt>
      <trkpt lat="45.30607" lon="5.84665">
        <ele>1583.4410400391</ele>
        <time>2017-01-20T09:23:19Z</time>
      </trkpt>
      <trkpt lat="45.30615" lon="5.84667">
        <ele>1585.4410400391</ele>
        <time>2017-01-20T09:23:26Z</time>
      </trkpt>
      <trkpt lat="45.30615" lon="5.84678">
        <ele>1588.4410400391</ele>
        <time>2017-01-20T09:23:41Z</time>
      </trkpt>
      <trkpt lat="45.30609" lon="5.84685">
        <ele>1588.4410400391</ele>
        <time>2017-01-20T09:23:51Z</time>
      </trkpt>
      <trkpt lat="45.30604" lon="5.84691">
        <ele>1592.4410400391</ele>
        <time>2017-01-20T09:23:56Z</time>
      </trkpt>
      <trkpt lat="45.306" lon="5.84701">
        <ele>1591.4410400391</ele>
        <time>2017-01-20T09:24:07Z</time>
      </trkpt>
      <trkpt lat="45.30608" lon="5.84701">
        <ele>1595.4410400391</ele>
        <time>2017-01-20T09:24:19Z</time>
      </trkpt>
      <trkpt lat="45.30616" lon="5.84701">
        <ele>1599.4410400391</ele>
        <time>2017-01-20T09:24:30Z</time>
      </trkpt>
      <trkpt lat="45.30623" lon="5.84704">
        <ele>1601.4410400391</ele>
        <time>2017-01-20T09:24:41Z</time>
      </trkpt>
      <trkpt lat="45.30622" lon="5.84715">
        <ele>1602.4410400391</ele>
        <time>2017-01-20T09:24:55Z</time>
      </trkpt>
      <trkpt lat="45.30616" lon="5.84723">
        <ele>1607.4410400391</ele>
        <time>2017-01-20T09:25:03Z</time>
      </trkpt>
      <trkpt lat="45.30611" lon="5.84731">
        <ele>1608.4410400391</ele>
        <time>2017-01-20T09:25:13Z</time>
      </trkpt>
      <trkpt lat="45.30616" lon="5.8474">
        <ele>1611.4410400391</ele>
        <time>2017-01-20T09:25:37Z</time>
      </trkpt>
      <trkpt lat="45.30623" lon="5.8474">
        <ele>1612.4410400391</ele>
        <time>2017-01-20T09:25:45Z</time>
      </trkpt>
      <trkpt lat="45.30631" lon="5.84742">
        <ele>1611.4410400391</ele>
        <time>2017-01-20T09:25:52Z</time>
      </trkpt>
      <trkpt lat="45.30639" lon="5.84744">
        <ele>1615.4410400391</ele>
        <time>2017-01-20T09:25:59Z</time>
      </trkpt>
      <trkpt lat="45.30646" lon="5.84744">
        <ele>1622.4410400391</ele>
        <time>2017-01-20T09:26:11Z</time>
      </trkpt>
      <trkpt lat="45.30654" lon="5.84744">
        <ele>1620.4410400391</ele>
        <time>2017-01-20T09:26:19Z</time>
      </trkpt>
      <trkpt lat="45.30662" lon="5.84745">
        <ele>1623.4410400391</ele>
        <time>2017-01-20T09:26:30Z</time>
      </trkpt>
      <trkpt lat="45.30658" lon="5.84755">
        <ele>1629.4410400391</ele>
        <time>2017-01-20T09:26:46Z</time>
      </trkpt>
      <trkpt lat="45.30654" lon="5.84765">
        <ele>1633.4410400391</ele>
        <time>2017-01-20T09:26:57Z</time>
      </trkpt>
      <trkpt lat="45.30661" lon="5.8477">
        <ele>1635.4410400391</ele>
        <time>2017-01-20T09:27:12Z</time>
      </trkpt>
      <trkpt lat="45.30668" lon="5.8477">
        <ele>1637.4410400391</ele>
        <time>2017-01-20T09:27:20Z</time>
      </trkpt>
      <trkpt lat="45.30676" lon="5.84771">
        <ele>1640.4410400391</ele>
        <time>2017-01-20T09:27:34Z</time>
      </trkpt>
      <trkpt lat="45.30684" lon="5.84769">
        <ele>1644.4410400391</ele>
        <time>2017-01-20T09:27:43Z</time>
      </trkpt>
      <trkpt lat="45.30691" lon="5.84767">
        <ele>1646.4410400391</ele>
        <time>2017-01-20T09:27:55Z</time>
      </trkpt>
      <trkpt lat="45.30698" lon="5.84769">
        <ele>1646.4410400391</ele>
        <time>2017-01-20T09:28:03Z</time>
      </trkpt>
      <trkpt lat="45.30696" lon="5.8478">
        <ele>1648.4410400391</ele>
        <time>2017-01-20T09:28:13Z</time>
      </trkpt>
      <trkpt lat="45.30693" lon="5.84789">
        <ele>1648.4410400391</ele>
        <time>2017-01-20T09:28:22Z</time>
      </trkpt>
      <trkpt lat="45.30688" lon="5.84798">
        <ele>1650.4410400391</ele>
        <time>2017-01-20T09:28:30Z</time>
      </trkpt>
      <trkpt lat="45.30695" lon="5.84803">
        <ele>1655.4410400391</ele>
        <time>2017-01-20T09:28:50Z</time>
      </trkpt>
      <trkpt lat="45.30703" lon="5.84805">
        <ele>1656.4410400391</ele>
        <time>2017-01-20T09:29:00Z</time>
      </trkpt>
      <trkpt lat="45.3071" lon="5.84804">
        <ele>1662.4410400391</ele>
        <time>2017-01-20T09:29:09Z</time>
      </trkpt>
      <trkpt lat="45.30718" lon="5.84806">
        <ele>1665.4410400391</ele>
        <time>2017-01-20T09:29:22Z</time>
      </trkpt>
      <trkpt lat="45.30726" lon="5.84807">
        <ele>1669.4410400391</ele>
        <time>2017-01-20T09:29:34Z</time>
      </trkpt>
      <trkpt lat="45.30734" lon="5.84807">
        <ele>1672.4410400391</ele>
        <time>2017-01-20T09:29:43Z</time>
      </trkpt>
      <trkpt lat="45.30741" lon="5.84807">
        <ele>1674.4410400391</ele>
        <time>2017-01-20T09:29:53Z</time>
      </trkpt>
      <trkpt lat="45.30748" lon="5.84811">
        <ele>1676.4410400391</ele>
        <time>2017-01-20T09:29:59Z</time>
      </trkpt>
      <trkpt lat="45.30749" lon="5.84821">
        <ele>1668.4410400391</ele>
        <time>2017-01-20T09:30:21Z</time>
      </trkpt>
      <trkpt lat="45.30743" lon="5.84828">
        <ele>1677.4410400391</ele>
        <time>2017-01-20T09:30:28Z</time>
      </trkpt>
      <trkpt lat="45.30738" lon="5.84837">
        <ele>1680.4410400391</ele>
        <time>2017-01-20T09:30:36Z</time>
      </trkpt>
      <trkpt lat="45.30745" lon="5.84842">
        <ele>1681.4410400391</ele>
        <time>2017-01-20T09:30:51Z</time>
      </trkpt>
      <trkpt lat="45.30753" lon="5.84839">
        <ele>1688.4410400391</ele>
        <time>2017-01-20T09:31:02Z</time>
      </trkpt>
      <trkpt lat="45.3076" lon="5.84837">
        <ele>1688.4410400391</ele>
        <time>2017-01-20T09:31:10Z</time>
      </trkpt>
      <trkpt lat="45.30768" lon="5.84839">
        <ele>1689.4410400391</ele>
        <time>2017-01-20T09:31:25Z</time>
      </trkpt>
      <trkpt lat="45.30776" lon="5.8484">
        <ele>1693.4410400391</ele>
        <time>2017-01-20T09:32:24Z</time>
      </trkpt>
      <trkpt lat="45.30783" lon="5.84837">
        <ele>1696.4410400391</ele>
        <time>2017-01-20T09:32:33Z</time>
      </trkpt>
      <trkpt lat="45.3079" lon="5.84836">
        <ele>1699.4410400391</ele>
        <time>2017-01-20T09:32:42Z</time>
      </trkpt>
      <trkpt lat="45.30797" lon="5.84841">
        <ele>1701.4410400391</ele>
        <time>2017-01-20T09:32:58Z</time>
      </trkpt>
      <trkpt lat="45.30805" lon="5.84842">
        <ele>1703.4410400391</ele>
        <time>2017-01-20T09:33:06Z</time>
      </trkpt>
      <trkpt lat="45.30812" lon="5.8484">
        <ele>1707.4410400391</ele>
        <time>2017-01-20T09:33:14Z</time>
      </trkpt>
      <trkpt lat="45.3082" lon="5.84836">
        <ele>1708.4410400391</ele>
        <time>2017-01-20T09:33:37Z</time>
      </trkpt>
      <trkpt lat="45.30827" lon="5.84836">
        <ele>1711.4410400391</ele>
        <time>2017-01-20T09:33:44Z</time>
      </trkpt>
      <trkpt lat="45.30835" lon="5.84835">
        <ele>1713.4410400391</ele>
        <time>2017-01-20T09:33:51Z</time>
      </trkpt>
      <trkpt lat="45.30843" lon="5.84834">
        <ele>1713.4410400391</ele>
        <time>2017-01-20T09:34:00Z</time>
      </trkpt>
      <trkpt lat="45.30851" lon="5.84836">
        <ele>1715.4410400391</ele>
        <time>2017-01-20T09:34:09Z</time>
      </trkpt>
      <trkpt lat="45.30858" lon="5.84836">
        <ele>1642.4410400391</ele>
        <time>2017-01-20T09:34:19Z</time>
      </trkpt>
      <trkpt lat="45.30866" lon="5.84834">
        <ele>1712.4410400391</ele>
        <time>2017-01-20T09:34:29Z</time>
      </trkpt>
      <trkpt lat="45.30874" lon="5.84835">
        <ele>1723.4410400391</ele>
        <time>2017-01-20T09:34:39Z</time>
      </trkpt>
      <trkpt lat="45.30882" lon="5.84834">
        <ele>1726.4410400391</ele>
        <time>2017-01-20T09:34:48Z</time>
      </trkpt>
      <trkpt lat="45.3089" lon="5.84833">
        <ele>1728.4410400391</ele>
        <time>2017-01-20T09:34:56Z</time>
      </trkpt>
      <trkpt lat="45.30897" lon="5.84833">
        <ele>1730.4410400391</ele>
        <time>2017-01-20T09:35:05Z</time>
      </trkpt>
      <trkpt lat="45.30905" lon="5.84833">
        <ele>1734.4410400391</ele>
        <time>2017-01-20T09:35:20Z</time>
      </trkpt>
      <trkpt lat="45.30912" lon="5.84834">
        <ele>1734.4410400391</ele>
        <time>2017-01-20T09:35:28Z</time>
      </trkpt>
      <trkpt lat="45.3092" lon="5.84837">
        <ele>1736.4410400391</ele>
        <time>2017-01-20T09:35:39Z</time>
      </trkpt>
      <trkpt lat="45.30927" lon="5.84836">
        <ele>1741.4410400391</ele>
        <time>2017-01-20T09:35:47Z</time>
      </trkpt>
      <trkpt lat="45.30927" lon="5.84846">
        <ele>1746.4410400391</ele>
        <time>2017-01-20T09:36:09Z</time>
      </trkpt>
      <trkpt lat="45.30922" lon="5.84854">
        <ele>1748.4410400391</ele>
        <time>2017-01-20T09:36:18Z</time>
      </trkpt>
      <trkpt lat="45.30917" lon="5.84864">
        <ele>1747.4410400391</ele>
        <time>2017-01-20T09:36:27Z</time>
      </trkpt>
      <trkpt lat="45.30912" lon="5.84872">
        <ele>1749.4410400391</ele>
        <time>2017-01-20T09:36:38Z</time>
      </trkpt>
      <trkpt lat="45.30906" lon="5.84881">
        <ele>1749.4410400391</ele>
        <time>2017-01-20T09:36:52Z</time>
      </trkpt>
      <trkpt lat="45.30902" lon="5.84889">
        <ele>1754.4410400391</ele>
        <time>2017-01-20T09:37:00Z</time>
      </trkpt>
      <trkpt lat="45.30899" lon="5.84899">
        <ele>1759.4410400391</ele>
        <time>2017-01-20T09:37:12Z</time>
      </trkpt>
      <trkpt lat="45.30907" lon="5.849">
        <ele>1746.4410400391</ele>
        <time>2017-01-20T09:37:31Z</time>
      </trkpt>
      <trkpt lat="45.30915" lon="5.849">
        <ele>1767.4420166016</ele>
        <time>2017-01-20T09:37:43Z</time>
      </trkpt>
      <trkpt lat="45.30923" lon="5.84902">
        <ele>1770.4420166016</ele>
        <time>2017-01-20T09:37:56Z</time>
      </trkpt>
      <trkpt lat="45.3093" lon="5.84901">
        <ele>1772.4420166016</ele>
        <time>2017-01-20T09:38:08Z</time>
      </trkpt>
      <trkpt lat="45.30938" lon="5.849">
        <ele>1774.4420166016</ele>
        <time>2017-01-20T09:38:24Z</time>
      </trkpt>
      <trkpt lat="45.30945" lon="5.84898">
        <ele>1780.4420166016</ele>
        <time>2017-01-20T09:38:32Z</time>
      </trkpt>
      <trkpt lat="45.30952" lon="5.84895">
        <ele>1783.4420166016</ele>
        <time>2017-01-20T09:38:41Z</time>
      </trkpt>
      <trkpt lat="45.30959" lon="5.84893">
        <ele>1786.4420166016</ele>
        <time>2017-01-20T09:38:53Z</time>
      </trkpt>
      <trkpt lat="45.30967" lon="5.84893">
        <ele>1785.4420166016</ele>
        <time>2017-01-20T09:39:02Z</time>
      </trkpt>
      <trkpt lat="45.30976" lon="5.84894">
        <ele>1788.4420166016</ele>
        <time>2017-01-20T09:39:11Z</time>
      </trkpt>
      <trkpt lat="45.30983" lon="5.84896">
        <ele>1791.4420166016</ele>
        <time>2017-01-20T09:39:34Z</time>
      </trkpt>
      <trkpt lat="45.30991" lon="5.84901">
        <ele>1792.4420166016</ele>
        <time>2017-01-20T09:39:42Z</time>
      </trkpt>
      <trkpt lat="45.30998" lon="5.84905">
        <ele>1795.4420166016</ele>
        <time>2017-01-20T09:40:11Z</time>
      </trkpt>
      <trkpt lat="45.31006" lon="5.84907">
        <ele>1797.4420166016</ele>
        <time>2017-01-20T09:40:21Z</time>
      </trkpt>
      <trkpt lat="45.31013" lon="5.84909">
        <ele>1795.4420166016</ele>
        <time>2017-01-20T09:46:39Z</time>
      </trkpt>
      <trkpt lat="45.3102" lon="5.84907">
        <ele>1797.4420166016</ele>
        <time>2017-01-20T09:46:51Z</time>
      </trkpt>
      <trkpt lat="45.31028" lon="5.84903">
        <ele>1796.4420166016</ele>
        <time>2017-01-20T09:46:58Z</time>
      </trkpt>
      <trkpt lat="45.31035" lon="5.849">
        <ele>1795.4420166016</ele>
        <time>2017-01-20T09:47:06Z</time>
      </trkpt>
      <trkpt lat="45.31042" lon="5.84893">
        <ele>1794.4420166016</ele>
        <time>2017-01-20T09:47:11Z</time>
      </trkpt>
      <trkpt lat="45.31038" lon="5.84859">
        <ele>1781.4420166016</ele>
        <time>2017-01-20T09:47:18Z</time>
      </trkpt>
      <trkpt lat="45.31029" lon="5.84847">
        <ele>1774.4420166016</ele>
        <time>2017-01-20T09:47:24Z</time>
      </trkpt>
      <trkpt lat="45.31021" lon="5.84824">
        <ele>1761.4420166016</ele>
        <time>2017-01-20T09:47:29Z</time>
      </trkpt>
      <trkpt lat="45.31023" lon="5.84814">
        <ele>1757.4420166016</ele>
        <time>2017-01-20T09:47:42Z</time>
      </trkpt>
      <trkpt lat="45.31017" lon="5.84804">
        <ele>1750.4420166016</ele>
        <time>2017-01-20T09:47:52Z</time>
      </trkpt>
      <trkpt lat="45.31008" lon="5.84763">
        <ele>1734.4420166016</ele>
        <time>2017-01-20T09:47:58Z</time>
      </trkpt>
      <trkpt lat="45.31" lon="5.84732">
        <ele>1717.4410400391</ele>
        <time>2017-01-20T09:48:12Z</time>
      </trkpt>
      <trkpt lat="45.31001" lon="5.84722">
        <ele>1715.4410400391</ele>
        <time>2017-01-20T09:48:32Z</time>
      </trkpt>
      <trkpt lat="45.31003" lon="5.84711">
        <ele>1710.4410400391</ele>
        <time>2017-01-20T09:48:52Z</time>
      </trkpt>
      <trkpt lat="45.3101" lon="5.84707">
        <ele>1708.4410400391</ele>
        <time>2017-01-20T09:48:59Z</time>
      </trkpt>
      <trkpt lat="45.31017" lon="5.84702">
        <ele>1708.4410400391</ele>
        <time>2017-01-20T09:49:16Z</time>
      </trkpt>
      <trkpt lat="45.31023" lon="5.84683">
        <ele>1696.4410400391</ele>
        <time>2017-01-20T09:49:31Z</time>
      </trkpt>
      <trkpt lat="45.31028" lon="5.84668">
        <ele>1686.4410400391</ele>
        <time>2017-01-20T09:49:36Z</time>
      </trkpt>
      <trkpt lat="45.31022" lon="5.84655">
        <ele>1681.4410400391</ele>
        <time>2017-01-20T09:49:40Z</time>
      </trkpt>
      <trkpt lat="45.31027" lon="5.84632">
        <ele>1672.4410400391</ele>
        <time>2017-01-20T09:49:47Z</time>
      </trkpt>
      <trkpt lat="45.31022" lon="5.84622">
        <ele>1691.4410400391</ele>
        <time>2017-01-20T09:49:51Z</time>
      </trkpt>
      <trkpt lat="45.31021" lon="5.84597">
        <ele>1673.4410400391</ele>
        <time>2017-01-20T09:49:57Z</time>
      </trkpt>
      <trkpt lat="45.31027" lon="5.84593">
        <ele>1678.4410400391</ele>
        <time>2017-01-20T09:50:03Z</time>
      </trkpt>
      <trkpt lat="45.31023" lon="5.84582">
        <ele>1655.4410400391</ele>
        <time>2017-01-20T09:50:16Z</time>
      </trkpt>
      <trkpt lat="45.31014" lon="5.84558">
        <ele>1647.4410400391</ele>
        <time>2017-01-20T09:50:22Z</time>
      </trkpt>
      <trkpt lat="45.31006" lon="5.84537">
        <ele>1638.4410400391</ele>
        <time>2017-01-20T09:50:28Z</time>
      </trkpt>
      <trkpt lat="45.31011" lon="5.84525">
        <ele>1631.4410400391</ele>
        <time>2017-01-20T09:50:31Z</time>
      </trkpt>
      <trkpt lat="45.31018" lon="5.84502">
        <ele>1618.4410400391</ele>
        <time>2017-01-20T09:50:40Z</time>
      </trkpt>
      <trkpt lat="45.31012" lon="5.84486">
        <ele>1609.4410400391</ele>
        <time>2017-01-20T09:50:51Z</time>
      </trkpt>
      <trkpt lat="45.31009" lon="5.84475">
        <ele>1608.4410400391</ele>
        <time>2017-01-20T09:51:20Z</time>
      </trkpt>
      <trkpt lat="45.30998" lon="5.84458">
        <ele>1600.4410400391</ele>
        <time>2017-01-20T09:51:28Z</time>
      </trkpt>
      <trkpt lat="45.30991" lon="5.84457">
        <ele>1599.4410400391</ele>
        <time>2017-01-20T09:51:40Z</time>
      </trkpt>
      <trkpt lat="45.30983" lon="5.84457">
        <ele>1597.4410400391</ele>
        <time>2017-01-20T09:51:43Z</time>
      </trkpt>
      <trkpt lat="45.30975" lon="5.84441">
        <ele>1595.4410400391</ele>
        <time>2017-01-20T09:51:48Z</time>
      </trkpt>
      <trkpt lat="45.30969" lon="5.84397">
        <ele>1592.4410400391</ele>
        <time>2017-01-20T09:51:54Z</time>
      </trkpt>
      <trkpt lat="45.30964" lon="5.84386">
        <ele>1589.4410400391</ele>
        <time>2017-01-20T09:51:56Z</time>
      </trkpt>
      <trkpt lat="45.30964" lon="5.84355">
        <ele>1579.4410400391</ele>
        <time>2017-01-20T09:52:03Z</time>
      </trkpt>
      <trkpt lat="45.30967" lon="5.84343">
        <ele>1574.4410400391</ele>
        <time>2017-01-20T09:52:34Z</time>
      </trkpt>
      <trkpt lat="45.30962" lon="5.84327">
        <ele>1567.4410400391</ele>
        <time>2017-01-20T09:52:36Z</time>
      </trkpt>
      <trkpt lat="45.30956" lon="5.84277">
        <ele>1557.4410400391</ele>
        <time>2017-01-20T09:52:42Z</time>
      </trkpt>
      <trkpt lat="45.30949" lon="5.8423">
        <ele>1549.4410400391</ele>
        <time>2017-01-20T09:52:47Z</time>
      </trkpt>
      <trkpt lat="45.3093" lon="5.84197">
        <ele>1540.4410400391</ele>
        <time>2017-01-20T09:52:53Z</time>
      </trkpt>
      <trkpt lat="45.30912" lon="5.84186">
        <ele>1531.4410400391</ele>
        <time>2017-01-20T09:52:57Z</time>
      </trkpt>
      <trkpt lat="45.30892" lon="5.8416">
        <ele>1520.4399414062</ele>
        <time>2017-01-20T09:53:03Z</time>
      </trkpt>
      <trkpt lat="45.30888" lon="5.84132">
        <ele>1505.4399414062</ele>
        <time>2017-01-20T09:58:13Z</time>
      </trkpt>
      <trkpt lat="45.30891" lon="5.84122">
        <ele>1504.4399414062</ele>
        <time>2017-01-20T09:58:23Z</time>
      </trkpt>
      <trkpt lat="45.30893" lon="5.84112">
        <ele>1508.4399414062</ele>
        <time>2017-01-20T09:58:34Z</time>
      </trkpt>
      <trkpt lat="45.30896" lon="5.84102">
        <ele>1505.4399414062</ele>
        <time>2017-01-20T09:58:45Z</time>
      </trkpt>
      <trkpt lat="45.30895" lon="5.8409">
        <ele>1508.4399414062</ele>
        <time>2017-01-20T09:58:52Z</time>
      </trkpt>
      <trkpt lat="45.30897" lon="5.84079">
        <ele>1511.4399414062</ele>
        <time>2017-01-20T09:59:10Z</time>
      </trkpt>
      <trkpt lat="45.30899" lon="5.84069">
        <ele>1508.4399414062</ele>
        <time>2017-01-20T09:59:16Z</time>
      </trkpt>
      <trkpt lat="45.309" lon="5.84059">
        <ele>1513.4399414062</ele>
        <time>2017-01-20T09:59:26Z</time>
      </trkpt>
      <trkpt lat="45.30905" lon="5.84051">
        <ele>1512.4399414062</ele>
        <time>2017-01-20T09:59:32Z</time>
      </trkpt>
      <trkpt lat="45.30913" lon="5.84046">
        <ele>1511.4399414062</ele>
        <time>2017-01-20T09:59:42Z</time>
      </trkpt>
      <trkpt lat="45.30918" lon="5.84038">
        <ele>1514.4399414062</ele>
        <time>2017-01-20T09:59:52Z</time>
      </trkpt>
      <trkpt lat="45.30924" lon="5.84031">
        <ele>1518.4399414062</ele>
        <time>2017-01-20T10:00:05Z</time>
      </trkpt>
      <trkpt lat="45.30929" lon="5.84023">
        <ele>1524.4399414062</ele>
        <time>2017-01-20T10:00:16Z</time>
      </trkpt>
      <trkpt lat="45.30931" lon="5.84012">
        <ele>1531.4399414062</ele>
        <time>2017-01-20T10:00:30Z</time>
      </trkpt>
      <trkpt lat="45.30928" lon="5.84002">
        <ele>1534.4399414062</ele>
        <time>2017-01-20T10:00:38Z</time>
      </trkpt>
      <trkpt lat="45.30925" lon="5.83992">
        <ele>1535.4399414062</ele>
        <time>2017-01-20T10:00:47Z</time>
      </trkpt>
      <trkpt lat="45.30921" lon="5.83982">
        <ele>1480.4399414062</ele>
        <time>2017-01-20T10:00:54Z</time>
      </trkpt>
      <trkpt lat="45.3092" lon="5.83971">
        <ele>1533.4399414062</ele>
        <time>2017-01-20T10:01:05Z</time>
      </trkpt>
      <trkpt lat="45.30922" lon="5.83961">
        <ele>1534.4399414062</ele>
        <time>2017-01-20T10:01:13Z</time>
      </trkpt>
      <trkpt lat="45.30928" lon="5.83954">
        <ele>1540.4399414062</ele>
        <time>2017-01-20T10:01:30Z</time>
      </trkpt>
      <trkpt lat="45.30935" lon="5.83955">
        <ele>1542.4399414062</ele>
        <time>2017-01-20T10:01:39Z</time>
      </trkpt>
      <trkpt lat="45.30943" lon="5.83956">
        <ele>1546.4399414062</ele>
        <time>2017-01-20T10:01:47Z</time>
      </trkpt>
      <trkpt lat="45.3095" lon="5.83956">
        <ele>1548.4399414062</ele>
        <time>2017-01-20T10:01:56Z</time>
      </trkpt>
      <trkpt lat="45.30958" lon="5.83958">
        <ele>1552.4399414062</ele>
        <time>2017-01-20T10:02:05Z</time>
      </trkpt>
      <trkpt lat="45.30965" lon="5.8396">
        <ele>1556.4399414062</ele>
        <time>2017-01-20T10:02:14Z</time>
      </trkpt>
      <trkpt lat="45.30973" lon="5.83962">
        <ele>1558.4399414062</ele>
        <time>2017-01-20T10:02:23Z</time>
      </trkpt>
      <trkpt lat="45.30981" lon="5.83964">
        <ele>1562.4399414062</ele>
        <time>2017-01-20T10:02:32Z</time>
      </trkpt>
      <trkpt lat="45.30989" lon="5.83963">
        <ele>1562.4399414062</ele>
        <time>2017-01-20T10:02:40Z</time>
      </trkpt>
      <trkpt lat="45.30997" lon="5.83965">
        <ele>1567.4399414062</ele>
        <time>2017-01-20T10:02:52Z</time>
      </trkpt>
      <trkpt lat="45.31006" lon="5.83965">
        <ele>1570.4399414062</ele>
        <time>2017-01-20T10:03:06Z</time>
      </trkpt>
      <trkpt lat="45.31008" lon="5.83954">
        <ele>1572.4399414062</ele>
        <time>2017-01-20T10:03:25Z</time>
      </trkpt>
      <trkpt lat="45.31004" lon="5.83944">
        <ele>1571.4399414062</ele>
        <time>2017-01-20T10:03:31Z</time>
      </trkpt>
      <trkpt lat="45.31" lon="5.83936">
        <ele>1571.4399414062</ele>
        <time>2017-01-20T10:03:39Z</time>
      </trkpt>
      <trkpt lat="45.30996" lon="5.83926">
        <ele>1571.4399414062</ele>
        <time>2017-01-20T10:03:54Z</time>
      </trkpt>
      <trkpt lat="45.30991" lon="5.83919">
        <ele>1573.4399414062</ele>
        <time>2017-01-20T10:04:02Z</time>
      </trkpt>
      <trkpt lat="45.30986" lon="5.83911">
        <ele>1572.4399414062</ele>
        <time>2017-01-20T10:04:10Z</time>
      </trkpt>
      <trkpt lat="45.30981" lon="5.83903">
        <ele>1573.4399414062</ele>
        <time>2017-01-20T10:04:16Z</time>
      </trkpt>
      <trkpt lat="45.30976" lon="5.83895">
        <ele>1578.4399414062</ele>
        <time>2017-01-20T10:04:26Z</time>
      </trkpt>
      <trkpt lat="45.30973" lon="5.83884">
        <ele>1579.4399414062</ele>
        <time>2017-01-20T10:04:36Z</time>
      </trkpt>
      <trkpt lat="45.30969" lon="5.83876">
        <ele>1584.4399414062</ele>
        <time>2017-01-20T10:04:44Z</time>
      </trkpt>
      <trkpt lat="45.30962" lon="5.8387">
        <ele>1589.4399414062</ele>
        <time>2017-01-20T10:04:57Z</time>
      </trkpt>
      <trkpt lat="45.30959" lon="5.8386">
        <ele>1589.4399414062</ele>
        <time>2017-01-20T10:05:04Z</time>
      </trkpt>
      <trkpt lat="45.30955" lon="5.8385">
        <ele>1587.4399414062</ele>
        <time>2017-01-20T10:05:10Z</time>
      </trkpt>
      <trkpt lat="45.3095" lon="5.83842">
        <ele>1590.4399414062</ele>
        <time>2017-01-20T10:05:16Z</time>
      </trkpt>
      <trkpt lat="45.30945" lon="5.83834">
        <ele>1594.4399414062</ele>
        <time>2017-01-20T10:05:22Z</time>
      </trkpt>
      <trkpt lat="45.30947" lon="5.83824">
        <ele>1591.4399414062</ele>
        <time>2017-01-20T10:05:35Z</time>
      </trkpt>
      <trkpt lat="45.30954" lon="5.83823">
        <ele>1591.4399414062</ele>
        <time>2017-01-20T10:05:43Z</time>
      </trkpt>
      <trkpt lat="45.30961" lon="5.83827">
        <ele>1594.4399414062</ele>
        <time>2017-01-20T10:05:52Z</time>
      </trkpt>
      <trkpt lat="45.30958" lon="5.83816">
        <ele>1595.4399414062</ele>
        <time>2017-01-20T10:06:03Z</time>
      </trkpt>
      <trkpt lat="45.30953" lon="5.83807">
        <ele>1598.4399414062</ele>
        <time>2017-01-20T10:06:10Z</time>
      </trkpt>
      <trkpt lat="45.30949" lon="5.83799">
        <ele>1600.4399414062</ele>
        <time>2017-01-20T10:06:17Z</time>
      </trkpt>
      <trkpt lat="45.30944" lon="5.83791">
        <ele>1602.4399414062</ele>
        <time>2017-01-20T10:06:27Z</time>
      </trkpt>
      <trkpt lat="45.30936" lon="5.83785">
        <ele>1607.4399414062</ele>
        <time>2017-01-20T10:06:41Z</time>
      </trkpt>
      <trkpt lat="45.30928" lon="5.83781">
        <ele>1610.4399414062</ele>
        <time>2017-01-20T10:06:47Z</time>
      </trkpt>
      <trkpt lat="45.30929" lon="5.8377">
        <ele>1612.4399414062</ele>
        <time>2017-01-20T10:07:03Z</time>
      </trkpt>
      <trkpt lat="45.30921" lon="5.83767">
        <ele>1615.4399414062</ele>
        <time>2017-01-20T10:07:12Z</time>
      </trkpt>
      <trkpt lat="45.30915" lon="5.83758">
        <ele>1617.4399414062</ele>
        <time>2017-01-20T10:07:20Z</time>
      </trkpt>
      <trkpt lat="45.30924" lon="5.83755">
        <ele>1620.4399414062</ele>
        <time>2017-01-20T10:07:36Z</time>
      </trkpt>
      <trkpt lat="45.3093" lon="5.83759">
        <ele>1627.4399414062</ele>
        <time>2017-01-20T10:07:46Z</time>
      </trkpt>
      <trkpt lat="45.30938" lon="5.8376">
        <ele>1632.4399414062</ele>
        <time>2017-01-20T10:07:56Z</time>
      </trkpt>
      <trkpt lat="45.30946" lon="5.83758">
        <ele>1631.4399414062</ele>
        <time>2017-01-20T10:08:06Z</time>
      </trkpt>
      <trkpt lat="45.30954" lon="5.8376">
        <ele>1634.4399414062</ele>
        <time>2017-01-20T10:08:15Z</time>
      </trkpt>
      <trkpt lat="45.30962" lon="5.83762">
        <ele>1638.4399414062</ele>
        <time>2017-01-20T10:08:22Z</time>
      </trkpt>
      <trkpt lat="45.3097" lon="5.83764">
        <ele>1641.4399414062</ele>
        <time>2017-01-20T10:08:31Z</time>
      </trkpt>
      <trkpt lat="45.30977" lon="5.83763">
        <ele>1639.4399414062</ele>
        <time>2017-01-20T10:08:39Z</time>
      </trkpt>
      <trkpt lat="45.30986" lon="5.83765">
        <ele>1636.4399414062</ele>
        <time>2017-01-20T10:08:44Z</time>
      </trkpt>
      <trkpt lat="45.30984" lon="5.83753">
        <ele>1644.4399414062</ele>
        <time>2017-01-20T10:09:13Z</time>
      </trkpt>
      <trkpt lat="45.3098" lon="5.83745">
        <ele>1646.4399414062</ele>
        <time>2017-01-20T10:09:20Z</time>
      </trkpt>
      <trkpt lat="45.3098" lon="5.83733">
        <ele>1643.4399414062</ele>
        <time>2017-01-20T10:09:33Z</time>
      </trkpt>
      <trkpt lat="45.30973" lon="5.83727">
        <ele>1647.4399414062</ele>
        <time>2017-01-20T10:09:40Z</time>
      </trkpt>
      <trkpt lat="45.30968" lon="5.83716">
        <ele>1644.4399414062</ele>
        <time>2017-01-20T10:09:47Z</time>
      </trkpt>
      <trkpt lat="45.30961" lon="5.83708">
        <ele>1651.4399414062</ele>
        <time>2017-01-20T10:10:08Z</time>
      </trkpt>
      <trkpt lat="45.30949" lon="5.8369">
        <ele>1654.4399414062</ele>
        <time>2017-01-20T10:10:17Z</time>
      </trkpt>
      <trkpt lat="45.30946" lon="5.83681">
        <ele>1653.4399414062</ele>
        <time>2017-01-20T10:10:21Z</time>
      </trkpt>
      <trkpt lat="45.3094" lon="5.83673">
        <ele>1653.4399414062</ele>
        <time>2017-01-20T10:10:28Z</time>
      </trkpt>
      <trkpt lat="45.30935" lon="5.83664">
        <ele>1650.4399414062</ele>
        <time>2017-01-20T10:10:34Z</time>
      </trkpt>
      <trkpt lat="45.30928" lon="5.83659">
        <ele>1654.4399414062</ele>
        <time>2017-01-20T10:10:40Z</time>
      </trkpt>
      <trkpt lat="45.30936" lon="5.83654">
        <ele>1657.4399414062</ele>
        <time>2017-01-20T10:10:55Z</time>
      </trkpt>
      <trkpt lat="45.30943" lon="5.83656">
        <ele>1659.4399414062</ele>
        <time>2017-01-20T10:11:05Z</time>
      </trkpt>
      <trkpt lat="45.3095" lon="5.83657">
        <ele>1662.4399414062</ele>
        <time>2017-01-20T10:11:12Z</time>
      </trkpt>
      <trkpt lat="45.30958" lon="5.83659">
        <ele>1663.4399414062</ele>
        <time>2017-01-20T10:11:20Z</time>
      </trkpt>
      <trkpt lat="45.30965" lon="5.8366">
        <ele>1659.4399414062</ele>
        <time>2017-01-20T10:11:26Z</time>
      </trkpt>
      <trkpt lat="45.30972" lon="5.83665">
        <ele>1661.4399414062</ele>
        <time>2017-01-20T10:11:34Z</time>
      </trkpt>
      <trkpt lat="45.3098" lon="5.83662">
        <ele>1662.4399414062</ele>
        <time>2017-01-20T10:11:41Z</time>
      </trkpt>
      <trkpt lat="45.30982" lon="5.83651">
        <ele>1662.4399414062</ele>
        <time>2017-01-20T10:11:49Z</time>
      </trkpt>
      <trkpt lat="45.30976" lon="5.83645">
        <ele>1666.4399414062</ele>
        <time>2017-01-20T10:11:57Z</time>
      </trkpt>
      <trkpt lat="45.30969" lon="5.83639">
        <ele>1668.4399414062</ele>
        <time>2017-01-20T10:12:03Z</time>
      </trkpt>
      <trkpt lat="45.30964" lon="5.83629">
        <ele>1669.4399414062</ele>
        <time>2017-01-20T10:12:10Z</time>
      </trkpt>
      <trkpt lat="45.30958" lon="5.83621">
        <ele>1671.4399414062</ele>
        <time>2017-01-20T10:12:18Z</time>
      </trkpt>
      <trkpt lat="45.30951" lon="5.83616">
        <ele>1675.4399414062</ele>
        <time>2017-01-20T10:12:27Z</time>
      </trkpt>
      <trkpt lat="45.30944" lon="5.83612">
        <ele>1675.4399414062</ele>
        <time>2017-01-20T10:12:37Z</time>
      </trkpt>
      <trkpt lat="45.30951" lon="5.8361">
        <ele>1689.4399414062</ele>
        <time>2017-01-20T10:12:55Z</time>
      </trkpt>
      <trkpt lat="45.30959" lon="5.83608">
        <ele>1688.4399414062</ele>
        <time>2017-01-20T10:13:03Z</time>
      </trkpt>
      <trkpt lat="45.30968" lon="5.83609">
        <ele>1688.4399414062</ele>
        <time>2017-01-20T10:13:12Z</time>
      </trkpt>
      <trkpt lat="45.30973" lon="5.836">
        <ele>1692.4399414062</ele>
        <time>2017-01-20T10:13:44Z</time>
      </trkpt>
      <trkpt lat="45.30981" lon="5.83601">
        <ele>1698.4399414062</ele>
        <time>2017-01-20T10:13:57Z</time>
      </trkpt>
      <trkpt lat="45.30988" lon="5.83603">
        <ele>1703.4399414062</ele>
        <time>2017-01-20T10:14:07Z</time>
      </trkpt>
      <trkpt lat="45.30995" lon="5.83599">
        <ele>1703.4399414062</ele>
        <time>2017-01-20T10:14:17Z</time>
      </trkpt>
      <trkpt lat="45.31003" lon="5.83598">
        <ele>1705.4399414062</ele>
        <time>2017-01-20T10:14:29Z</time>
      </trkpt>
      <trkpt lat="45.3101" lon="5.83594">
        <ele>1705.4399414062</ele>
        <time>2017-01-20T10:14:37Z</time>
      </trkpt>
      <trkpt lat="45.31017" lon="5.83599">
        <ele>1711.4399414062</ele>
        <time>2017-01-20T10:14:53Z</time>
      </trkpt>
      <trkpt lat="45.31022" lon="5.83591">
        <ele>1716.4399414062</ele>
        <time>2017-01-20T10:15:25Z</time>
      </trkpt>
      <trkpt lat="45.31031" lon="5.8359">
        <ele>1716.4399414062</ele>
        <time>2017-01-20T10:15:36Z</time>
      </trkpt>
      <trkpt lat="45.31039" lon="5.83591">
        <ele>1717.4399414062</ele>
        <time>2017-01-20T10:15:44Z</time>
      </trkpt>
      <trkpt lat="45.31032" lon="5.83584">
        <ele>1722.4399414062</ele>
        <time>2017-01-20T10:16:00Z</time>
      </trkpt>
      <trkpt lat="45.31029" lon="5.83573">
        <ele>1722.4399414062</ele>
        <time>2017-01-20T10:16:09Z</time>
      </trkpt>
      <trkpt lat="45.31023" lon="5.83566">
        <ele>1725.4399414062</ele>
        <time>2017-01-20T10:16:17Z</time>
      </trkpt>
      <trkpt lat="45.31016" lon="5.83565">
        <ele>1735.4399414062</ele>
        <time>2017-01-20T10:16:28Z</time>
      </trkpt>
      <trkpt lat="45.31021" lon="5.83555">
        <ele>1737.4399414062</ele>
        <time>2017-01-20T10:16:45Z</time>
      </trkpt>
      <trkpt lat="45.31027" lon="5.8356">
        <ele>1738.4399414062</ele>
        <time>2017-01-20T10:16:53Z</time>
      </trkpt>
      <trkpt lat="45.31035" lon="5.83561">
        <ele>1740.4399414062</ele>
        <time>2017-01-20T10:17:00Z</time>
      </trkpt>
      <trkpt lat="45.31043" lon="5.83561">
        <ele>1741.4399414062</ele>
        <time>2017-01-20T10:17:07Z</time>
      </trkpt>
      <trkpt lat="45.3105" lon="5.83561">
        <ele>1741.4399414062</ele>
        <time>2017-01-20T10:17:14Z</time>
      </trkpt>
      <trkpt lat="45.31058" lon="5.8356">
        <ele>1745.4399414062</ele>
        <time>2017-01-20T10:17:23Z</time>
      </trkpt>
      <trkpt lat="45.31067" lon="5.83559">
        <ele>1746.4399414062</ele>
        <time>2017-01-20T10:17:31Z</time>
      </trkpt>
      <trkpt lat="45.31074" lon="5.83555">
        <ele>1747.4399414062</ele>
        <time>2017-01-20T10:17:40Z</time>
      </trkpt>
      <trkpt lat="45.31082" lon="5.83555">
        <ele>1750.4399414062</ele>
        <time>2017-01-20T10:17:47Z</time>
      </trkpt>
      <trkpt lat="45.3109" lon="5.83554">
        <ele>1750.4399414062</ele>
        <time>2017-01-20T10:17:56Z</time>
      </trkpt>
      <trkpt lat="45.31097" lon="5.83553">
        <ele>1751.4399414062</ele>
        <time>2017-01-20T10:18:03Z</time>
      </trkpt>
      <trkpt lat="45.31105" lon="5.83556">
        <ele>1753.4399414062</ele>
        <time>2017-01-20T10:18:14Z</time>
      </trkpt>
      <trkpt lat="45.31113" lon="5.83558">
        <ele>1755.4399414062</ele>
        <time>2017-01-20T10:18:23Z</time>
      </trkpt>
      <trkpt lat="45.31121" lon="5.83558">
        <ele>1756.4399414062</ele>
        <time>2017-01-20T10:18:35Z</time>
      </trkpt>
      <trkpt lat="45.31128" lon="5.8356">
        <ele>1757.4399414062</ele>
        <time>2017-01-20T10:18:40Z</time>
      </trkpt>
      <trkpt lat="45.31129" lon="5.83549">
        <ele>1758.4399414062</ele>
        <time>2017-01-20T10:18:58Z</time>
      </trkpt>
      <trkpt lat="45.31137" lon="5.83548">
        <ele>1761.4399414062</ele>
        <time>2017-01-20T10:19:12Z</time>
      </trkpt>
      <trkpt lat="45.31145" lon="5.83546">
        <ele>1760.4399414062</ele>
        <time>2017-01-20T10:20:06Z</time>
      </trkpt>
      <trkpt lat="45.3116" lon="5.83549">
        <ele>1755.4399414062</ele>
        <time>2017-01-20T10:20:13Z</time>
      </trkpt>
      <trkpt lat="45.31177" lon="5.83554">
        <ele>1754.4399414062</ele>
        <time>2017-01-20T10:20:19Z</time>
      </trkpt>
      <trkpt lat="45.31213" lon="5.83568">
        <ele>1746.4399414062</ele>
        <time>2017-01-20T10:20:25Z</time>
      </trkpt>
      <trkpt lat="45.31247" lon="5.83575">
        <ele>1742.4399414062</ele>
        <time>2017-01-20T10:20:31Z</time>
      </trkpt>
      <trkpt lat="45.3128" lon="5.83583">
        <ele>1737.4410400391</ele>
        <time>2017-01-20T10:20:37Z</time>
      </trkpt>
      <trkpt lat="45.31297" lon="5.83586">
        <ele>1734.4410400391</ele>
        <time>2017-01-20T10:20:42Z</time>
      </trkpt>
      <trkpt lat="45.31311" lon="5.83599">
        <ele>1731.4410400391</ele>
        <time>2017-01-20T10:20:53Z</time>
      </trkpt>
      <trkpt lat="45.31319" lon="5.836">
        <ele>1732.4410400391</ele>
        <time>2017-01-20T10:20:58Z</time>
      </trkpt>
      <trkpt lat="45.31326" lon="5.83602">
        <ele>1728.4410400391</ele>
        <time>2017-01-20T10:21:31Z</time>
      </trkpt>
      <trkpt lat="45.31341" lon="5.8361">
        <ele>1725.4410400391</ele>
        <time>2017-01-20T10:21:38Z</time>
      </trkpt>
      <trkpt lat="45.31359" lon="5.8361">
        <ele>1721.4410400391</ele>
        <time>2017-01-20T10:21:43Z</time>
      </trkpt>
      <trkpt lat="45.31385" lon="5.83616">
        <ele>1712.4410400391</ele>
        <time>2017-01-20T10:21:50Z</time>
      </trkpt>
      <trkpt lat="45.314" lon="5.83601">
        <ele>1706.4410400391</ele>
        <time>2017-01-20T10:21:56Z</time>
      </trkpt>
      <trkpt lat="45.31407" lon="5.83599">
        <ele>1706.4410400391</ele>
        <time>2017-01-20T10:21:58Z</time>
      </trkpt>
      <trkpt lat="45.31423" lon="5.83598">
        <ele>1700.4410400391</ele>
        <time>2017-01-20T10:22:02Z</time>
      </trkpt>
      <trkpt lat="45.3143" lon="5.83593">
        <ele>1699.4410400391</ele>
        <time>2017-01-20T10:22:08Z</time>
      </trkpt>
      <trkpt lat="45.31437" lon="5.8359">
        <ele>1697.4410400391</ele>
        <time>2017-01-20T10:22:20Z</time>
      </trkpt>
      <trkpt lat="45.31445" lon="5.83588">
        <ele>1692.4410400391</ele>
        <time>2017-01-20T10:22:28Z</time>
      </trkpt>
      <trkpt lat="45.31452" lon="5.83586">
        <ele>1691.4410400391</ele>
        <time>2017-01-20T10:23:03Z</time>
      </trkpt>
      <trkpt lat="45.31459" lon="5.83582">
        <ele>1690.4410400391</ele>
        <time>2017-01-20T10:23:11Z</time>
      </trkpt>
      <trkpt lat="45.31467" lon="5.83579">
        <ele>1691.4410400391</ele>
        <time>2017-01-20T10:23:20Z</time>
      </trkpt>
      <trkpt lat="45.31466" lon="5.83589">
        <ele>1693.4410400391</ele>
        <time>2017-01-20T10:23:35Z</time>
      </trkpt>
      <trkpt lat="45.31463" lon="5.83599">
        <ele>1695.4410400391</ele>
        <time>2017-01-20T10:23:44Z</time>
      </trkpt>
      <trkpt lat="45.31471" lon="5.83605">
        <ele>1702.4410400391</ele>
        <time>2017-01-20T10:24:11Z</time>
      </trkpt>
      <trkpt lat="45.3147" lon="5.83617">
        <ele>1708.4410400391</ele>
        <time>2017-01-20T10:24:26Z</time>
      </trkpt>
      <trkpt lat="45.31478" lon="5.83618">
        <ele>1707.4410400391</ele>
        <time>2017-01-20T10:24:33Z</time>
      </trkpt>
      <trkpt lat="45.31484" lon="5.83624">
        <ele>1709.4410400391</ele>
        <time>2017-01-20T10:24:54Z</time>
      </trkpt>
      <trkpt lat="45.3149" lon="5.83619">
        <ele>1716.4410400391</ele>
        <time>2017-01-20T10:25:08Z</time>
      </trkpt>
      <trkpt lat="45.31492" lon="5.8363">
        <ele>1721.4410400391</ele>
        <time>2017-01-20T10:25:24Z</time>
      </trkpt>
      <trkpt lat="45.31494" lon="5.83641">
        <ele>1722.4410400391</ele>
        <time>2017-01-20T10:25:36Z</time>
      </trkpt>
      <trkpt lat="45.31498" lon="5.8365">
        <ele>1724.4410400391</ele>
        <time>2017-01-20T10:25:46Z</time>
      </trkpt>
      <trkpt lat="45.31505" lon="5.83648">
        <ele>1725.4410400391</ele>
        <time>2017-01-20T10:26:12Z</time>
      </trkpt>
      <trkpt lat="45.31511" lon="5.8364">
        <ele>1727.4410400391</ele>
        <time>2017-01-20T10:26:22Z</time>
      </trkpt>
      <trkpt lat="45.31517" lon="5.83634">
        <ele>1730.4410400391</ele>
        <time>2017-01-20T10:26:35Z</time>
      </trkpt>
      <trkpt lat="45.31525" lon="5.8363">
        <ele>1730.4410400391</ele>
        <time>2017-01-20T10:26:53Z</time>
      </trkpt>
      <trkpt lat="45.31531" lon="5.83636">
        <ele>1729.4410400391</ele>
        <time>2017-01-20T10:27:00Z</time>
      </trkpt>
      <trkpt lat="45.31538" lon="5.83643">
        <ele>1732.4410400391</ele>
        <time>2017-01-20T10:27:12Z</time>
      </trkpt>
      <trkpt lat="45.31542" lon="5.83651">
        <ele>1734.4410400391</ele>
        <time>2017-01-20T10:27:20Z</time>
      </trkpt>
      <trkpt lat="45.31544" lon="5.83661">
        <ele>1739.4410400391</ele>
        <time>2017-01-20T10:27:33Z</time>
      </trkpt>
      <trkpt lat="45.31548" lon="5.83671">
        <ele>1741.4410400391</ele>
        <time>2017-01-20T10:27:42Z</time>
      </trkpt>
      <trkpt lat="45.31552" lon="5.83679">
        <ele>1745.4410400391</ele>
        <time>2017-01-20T10:28:00Z</time>
      </trkpt>
      <trkpt lat="45.31559" lon="5.8368">
        <ele>1749.4410400391</ele>
        <time>2017-01-20T10:28:12Z</time>
      </trkpt>
      <trkpt lat="45.31566" lon="5.83686">
        <ele>1753.4410400391</ele>
        <time>2017-01-20T10:28:25Z</time>
      </trkpt>
      <trkpt lat="45.31574" lon="5.83689">
        <ele>1757.4410400391</ele>
        <time>2017-01-20T10:28:37Z</time>
      </trkpt>
      <trkpt lat="45.31581" lon="5.83692">
        <ele>1754.4410400391</ele>
        <time>2017-01-20T10:28:44Z</time>
      </trkpt>
      <trkpt lat="45.31587" lon="5.83699">
        <ele>1757.4410400391</ele>
        <time>2017-01-20T10:28:53Z</time>
      </trkpt>
      <trkpt lat="45.31595" lon="5.83701">
        <ele>1755.4410400391</ele>
        <time>2017-01-20T10:28:59Z</time>
      </trkpt>
      <trkpt lat="45.31602" lon="5.83708">
        <ele>1756.4410400391</ele>
        <time>2017-01-20T10:29:08Z</time>
      </trkpt>
      <trkpt lat="45.31609" lon="5.83712">
        <ele>1759.4410400391</ele>
        <time>2017-01-20T10:29:17Z</time>
      </trkpt>
      <trkpt lat="45.31615" lon="5.83717">
        <ele>1758.4410400391</ele>
        <time>2017-01-20T10:29:27Z</time>
      </trkpt>
      <trkpt lat="45.31622" lon="5.83715">
        <ele>1760.4410400391</ele>
        <time>2017-01-20T10:29:40Z</time>
      </trkpt>
      <trkpt lat="45.31631" lon="5.83718">
        <ele>1765.4410400391</ele>
        <time>2017-01-20T10:29:47Z</time>
      </trkpt>
      <trkpt lat="45.31638" lon="5.83722">
        <ele>1764.4410400391</ele>
        <time>2017-01-20T10:29:56Z</time>
      </trkpt>
      <trkpt lat="45.31646" lon="5.83725">
        <ele>1763.4410400391</ele>
        <time>2017-01-20T10:30:03Z</time>
      </trkpt>
      <trkpt lat="45.31654" lon="5.83727">
        <ele>1764.4410400391</ele>
        <time>2017-01-20T10:30:11Z</time>
      </trkpt>
      <trkpt lat="45.31661" lon="5.83731">
        <ele>1763.4410400391</ele>
        <time>2017-01-20T10:30:18Z</time>
      </trkpt>
      <trkpt lat="45.31669" lon="5.83734">
        <ele>1765.4420166016</ele>
        <time>2017-01-20T10:30:25Z</time>
      </trkpt>
      <trkpt lat="45.31675" lon="5.8374">
        <ele>1763.4420166016</ele>
        <time>2017-01-20T10:30:31Z</time>
      </trkpt>
      <trkpt lat="45.31682" lon="5.83743">
        <ele>1761.4420166016</ele>
        <time>2017-01-20T10:30:38Z</time>
      </trkpt>
      <trkpt lat="45.31689" lon="5.83745">
        <ele>1761.4420166016</ele>
        <time>2017-01-20T10:30:45Z</time>
      </trkpt>
      <trkpt lat="45.31696" lon="5.8375">
        <ele>1763.4420166016</ele>
        <time>2017-01-20T10:30:53Z</time>
      </trkpt>
      <trkpt lat="45.31704" lon="5.83753">
        <ele>1763.4420166016</ele>
        <time>2017-01-20T10:30:58Z</time>
      </trkpt>
      <trkpt lat="45.3171" lon="5.83757">
        <ele>1765.4420166016</ele>
        <time>2017-01-20T10:31:04Z</time>
      </trkpt>
      <trkpt lat="45.31718" lon="5.83759">
        <ele>1765.4420166016</ele>
        <time>2017-01-20T10:31:11Z</time>
      </trkpt>
      <trkpt lat="45.31725" lon="5.83761">
        <ele>1766.4420166016</ele>
        <time>2017-01-20T10:31:16Z</time>
      </trkpt>
      <trkpt lat="45.31734" lon="5.83763">
        <ele>1767.4420166016</ele>
        <time>2017-01-20T10:31:21Z</time>
      </trkpt>
      <trkpt lat="45.31741" lon="5.8377">
        <ele>1765.4420166016</ele>
        <time>2017-01-20T10:31:27Z</time>
      </trkpt>
      <trkpt lat="45.31747" lon="5.83779">
        <ele>1767.4420166016</ele>
        <time>2017-01-20T10:31:34Z</time>
      </trkpt>
      <trkpt lat="45.31751" lon="5.83788">
        <ele>1770.4420166016</ele>
        <time>2017-01-20T10:31:42Z</time>
      </trkpt>
      <trkpt lat="45.31755" lon="5.83778">
        <ele>1770.4420166016</ele>
        <time>2017-01-20T10:36:00Z</time>
      </trkpt>
      <trkpt lat="45.31789" lon="5.83762">
        <ele>1765.4420166016</ele>
        <time>2017-01-20T10:36:06Z</time>
      </trkpt>
      <trkpt lat="45.31806" lon="5.83764">
        <ele>1760.4420166016</ele>
        <time>2017-01-20T10:36:16Z</time>
      </trkpt>
      <trkpt lat="45.31813" lon="5.83769">
        <ele>1758.4420166016</ele>
        <time>2017-01-20T10:36:19Z</time>
      </trkpt>
      <trkpt lat="45.31822" lon="5.83769">
        <ele>1756.4420166016</ele>
        <time>2017-01-20T10:36:35Z</time>
      </trkpt>
      <trkpt lat="45.31854" lon="5.83754">
        <ele>1746.4420166016</ele>
        <time>2017-01-20T10:36:40Z</time>
      </trkpt>
      <trkpt lat="45.31873" lon="5.83737">
        <ele>1740.4420166016</ele>
        <time>2017-01-20T10:36:43Z</time>
      </trkpt>
      <trkpt lat="45.31897" lon="5.83699">
        <ele>1735.4420166016</ele>
        <time>2017-01-20T10:36:48Z</time>
      </trkpt>
      <trkpt lat="45.31922" lon="5.83671">
        <ele>1734.4420166016</ele>
        <time>2017-01-20T10:36:54Z</time>
      </trkpt>
      <trkpt lat="45.31936" lon="5.83654">
        <ele>1727.4420166016</ele>
        <time>2017-01-20T10:36:58Z</time>
      </trkpt>
      <trkpt lat="45.3196" lon="5.83626">
        <ele>1720.4420166016</ele>
        <time>2017-01-20T10:37:04Z</time>
      </trkpt>
      <trkpt lat="45.31982" lon="5.83597">
        <ele>1715.4420166016</ele>
        <time>2017-01-20T10:37:09Z</time>
      </trkpt>
      <trkpt lat="45.32006" lon="5.83564">
        <ele>1710.4420166016</ele>
        <time>2017-01-20T10:37:14Z</time>
      </trkpt>
      <trkpt lat="45.32029" lon="5.83528">
        <ele>1701.4420166016</ele>
        <time>2017-01-20T10:37:19Z</time>
      </trkpt>
      <trkpt lat="45.32059" lon="5.83488">
        <ele>1694.4420166016</ele>
        <time>2017-01-20T10:37:25Z</time>
      </trkpt>
      <trkpt lat="45.3208" lon="5.83461">
        <ele>1691.4420166016</ele>
        <time>2017-01-20T10:37:31Z</time>
      </trkpt>
      <trkpt lat="45.32084" lon="5.83452">
        <ele>1687.4420166016</ele>
        <time>2017-01-20T10:38:18Z</time>
      </trkpt>
      <trkpt lat="45.32089" lon="5.83422">
        <ele>1684.4420166016</ele>
        <time>2017-01-20T10:38:23Z</time>
      </trkpt>
      <trkpt lat="45.32111" lon="5.83418">
        <ele>1681.4420166016</ele>
        <time>2017-01-20T10:38:36Z</time>
      </trkpt>
      <trkpt lat="45.32118" lon="5.8341">
        <ele>1680.4420166016</ele>
        <time>2017-01-20T10:38:42Z</time>
      </trkpt>
      <trkpt lat="45.32108" lon="5.83397">
        <ele>1685.4420166016</ele>
        <time>2017-01-20T10:39:01Z</time>
      </trkpt>
      <trkpt lat="45.32099" lon="5.83395">
        <ele>1678.4420166016</ele>
        <time>2017-01-20T10:39:08Z</time>
      </trkpt>
      <trkpt lat="45.32105" lon="5.83389">
        <ele>1674.4420166016</ele>
        <time>2017-01-20T10:39:17Z</time>
      </trkpt>
      <trkpt lat="45.3211" lon="5.83381">
        <ele>1671.4420166016</ele>
        <time>2017-01-20T10:39:27Z</time>
      </trkpt>
      <trkpt lat="45.32111" lon="5.83369">
        <ele>1669.4420166016</ele>
        <time>2017-01-20T10:39:29Z</time>
      </trkpt>
      <trkpt lat="45.32105" lon="5.83346">
        <ele>1660.4420166016</ele>
        <time>2017-01-20T10:39:46Z</time>
      </trkpt>
      <trkpt lat="45.32097" lon="5.83343">
        <ele>1660.4420166016</ele>
        <time>2017-01-20T10:40:16Z</time>
      </trkpt>
      <trkpt lat="45.32097" lon="5.83331">
        <ele>1654.4420166016</ele>
        <time>2017-01-20T10:40:49Z</time>
      </trkpt>
      <trkpt lat="45.32099" lon="5.83318">
        <ele>1648.4420166016</ele>
        <time>2017-01-20T10:41:23Z</time>
      </trkpt>
      <trkpt lat="45.32104" lon="5.8329">
        <ele>1637.4420166016</ele>
        <time>2017-01-20T10:41:42Z</time>
      </trkpt>
      <trkpt lat="45.32104" lon="5.83273">
        <ele>1631.4420166016</ele>
        <time>2017-01-20T10:41:44Z</time>
      </trkpt>
      <trkpt lat="45.32085" lon="5.83247">
        <ele>1620.4420166016</ele>
        <time>2017-01-20T10:41:50Z</time>
      </trkpt>
      <trkpt lat="45.32083" lon="5.83233">
        <ele>1613.4420166016</ele>
        <time>2017-01-20T10:41:56Z</time>
      </trkpt>
      <trkpt lat="45.32079" lon="5.8321">
        <ele>1606.4420166016</ele>
        <time>2017-01-20T10:42:02Z</time>
      </trkpt>
      <trkpt lat="45.32088" lon="5.83169">
        <ele>1600.4420166016</ele>
        <time>2017-01-20T10:42:07Z</time>
      </trkpt>
      <trkpt lat="45.32099" lon="5.83165">
        <ele>1596.4420166016</ele>
        <time>2017-01-20T10:42:09Z</time>
      </trkpt>
      <trkpt lat="45.32114" lon="5.83159">
        <ele>1591.4420166016</ele>
        <time>2017-01-20T10:42:15Z</time>
      </trkpt>
      <trkpt lat="45.32121" lon="5.83163">
        <ele>1590.4420166016</ele>
        <time>2017-01-20T10:42:21Z</time>
      </trkpt>
      <trkpt lat="45.32128" lon="5.8316">
        <ele>1586.4420166016</ele>
        <time>2017-01-20T10:42:27Z</time>
      </trkpt>
      <trkpt lat="45.32145" lon="5.83129">
        <ele>1579.4420166016</ele>
        <time>2017-01-20T10:42:33Z</time>
      </trkpt>
      <trkpt lat="45.3217" lon="5.83095">
        <ele>1574.4420166016</ele>
        <time>2017-01-20T10:42:38Z</time>
      </trkpt>
      <trkpt lat="45.32179" lon="5.83089">
        <ele>1571.4420166016</ele>
        <time>2017-01-20T10:42:39Z</time>
      </trkpt>
      <trkpt lat="45.32206" lon="5.83048">
        <ele>1563.4420166016</ele>
        <time>2017-01-20T10:42:44Z</time>
      </trkpt>
      <trkpt lat="45.32218" lon="5.83024">
        <ele>1582.4420166016</ele>
        <time>2017-01-20T10:42:49Z</time>
      </trkpt>
      <trkpt lat="45.3223" lon="5.8301">
        <ele>1560.4420166016</ele>
        <time>2017-01-20T10:42:53Z</time>
      </trkpt>
      <trkpt lat="45.3224" lon="5.82995">
        <ele>1550.4420166016</ele>
        <time>2017-01-20T10:43:09Z</time>
      </trkpt>
      <trkpt lat="45.32254" lon="5.82986">
        <ele>1546.4420166016</ele>
        <time>2017-01-20T10:43:18Z</time>
      </trkpt>
      <trkpt lat="45.32284" lon="5.82965">
        <ele>1536.4420166016</ele>
        <time>2017-01-20T10:43:24Z</time>
      </trkpt>
      <trkpt lat="45.32292" lon="5.82965">
        <ele>1537.4420166016</ele>
        <time>2017-01-20T10:44:10Z</time>
      </trkpt>
      <trkpt lat="45.32301" lon="5.82968">
        <ele>1534.4420166016</ele>
        <time>2017-01-20T10:44:15Z</time>
      </trkpt>
      <trkpt lat="45.3232" lon="5.82973">
        <ele>1529.4420166016</ele>
        <time>2017-01-20T10:44:21Z</time>
      </trkpt>
      <trkpt lat="45.32332" lon="5.82987">
        <ele>1527.4420166016</ele>
        <time>2017-01-20T10:44:27Z</time>
      </trkpt>
      <trkpt lat="45.32336" lon="5.82996">
        <ele>1526.4420166016</ele>
        <time>2017-01-20T10:44:42Z</time>
      </trkpt>
      <trkpt lat="45.32353" lon="5.8298">
        <ele>1519.4420166016</ele>
        <time>2017-01-20T10:44:49Z</time>
      </trkpt>
      <trkpt lat="45.32375" lon="5.82956">
        <ele>1516.4420166016</ele>
        <time>2017-01-20T10:44:54Z</time>
      </trkpt>
      <trkpt lat="45.32381" lon="5.8295">
        <ele>1518.4420166016</ele>
        <time>2017-01-20T10:45:45Z</time>
      </trkpt>
      <trkpt lat="45.32391" lon="5.82951">
        <ele>1516.4420166016</ele>
        <time>2017-01-20T10:45:58Z</time>
      </trkpt>
      <trkpt lat="45.32412" lon="5.82934">
        <ele>1505.4420166016</ele>
        <time>2017-01-20T10:46:04Z</time>
      </trkpt>
      <trkpt lat="45.32427" lon="5.82933">
        <ele>1504.4420166016</ele>
        <time>2017-01-20T10:46:43Z</time>
      </trkpt>
      <trkpt lat="45.32434" lon="5.82932">
        <ele>1514.4420166016</ele>
        <time>2017-01-20T10:47:40Z</time>
      </trkpt>
      <trkpt lat="45.32442" lon="5.82929">
        <ele>1507.4420166016</ele>
        <time>2017-01-20T10:47:49Z</time>
      </trkpt>
      <trkpt lat="45.32445" lon="5.82919">
        <ele>1506.4420166016</ele>
        <time>2017-01-20T10:47:51Z</time>
      </trkpt>
      <trkpt lat="45.3247" lon="5.82887">
        <ele>1494.4420166016</ele>
        <time>2017-01-20T10:47:57Z</time>
      </trkpt>
      <trkpt lat="45.3249" lon="5.8288">
        <ele>1489.4420166016</ele>
        <time>2017-01-20T10:48:02Z</time>
      </trkpt>
      <trkpt lat="45.32499" lon="5.82878">
        <ele>1487.4420166016</ele>
        <time>2017-01-20T10:48:18Z</time>
      </trkpt>
      <trkpt lat="45.32508" lon="5.82878">
        <ele>1487.4420166016</ele>
        <time>2017-01-20T10:48:20Z</time>
      </trkpt>
      <trkpt lat="45.32517" lon="5.82892">
        <ele>1481.4420166016</ele>
        <time>2017-01-20T10:48:31Z</time>
      </trkpt>
      <trkpt lat="45.32524" lon="5.82889">
        <ele>1480.4420166016</ele>
        <time>2017-01-20T10:48:39Z</time>
      </trkpt>
      <trkpt lat="45.3253" lon="5.82882">
        <ele>1475.4420166016</ele>
        <time>2017-01-20T10:48:56Z</time>
      </trkpt>
      <trkpt lat="45.32537" lon="5.82882">
        <ele>1475.4420166016</ele>
        <time>2017-01-20T10:49:52Z</time>
      </trkpt>
      <trkpt lat="45.3253" lon="5.82884">
        <ele>1474.4420166016</ele>
        <time>2017-01-20T10:53:56Z</time>
      </trkpt>
      <trkpt lat="45.32531" lon="5.82874">
        <ele>1478.4420166016</ele>
        <time>2017-01-20T10:54:27Z</time>
      </trkpt>
      <trkpt lat="45.32529" lon="5.82862">
        <ele>1478.4420166016</ele>
        <time>2017-01-20T10:54:39Z</time>
      </trkpt>
      <trkpt lat="45.32521" lon="5.82858">
        <ele>1477.4420166016</ele>
        <time>2017-01-20T10:54:57Z</time>
      </trkpt>
      <trkpt lat="45.32514" lon="5.8286">
        <ele>1475.4420166016</ele>
        <time>2017-01-20T10:55:08Z</time>
      </trkpt>
      <trkpt lat="45.32506" lon="5.82862">
        <ele>1479.4420166016</ele>
        <time>2017-01-20T10:55:21Z</time>
      </trkpt>
      <trkpt lat="45.32499" lon="5.82868">
        <ele>1480.4420166016</ele>
        <time>2017-01-20T10:55:31Z</time>
      </trkpt>
      <trkpt lat="45.32494" lon="5.82875">
        <ele>1484.4420166016</ele>
        <time>2017-01-20T10:55:38Z</time>
      </trkpt>
      <trkpt lat="45.32487" lon="5.8288">
        <ele>1486.4420166016</ele>
        <time>2017-01-20T10:55:46Z</time>
      </trkpt>
      <trkpt lat="45.3248" lon="5.82874">
        <ele>1485.4420166016</ele>
        <time>2017-01-20T10:55:55Z</time>
      </trkpt>
      <trkpt lat="45.32474" lon="5.82869">
        <ele>1482.4420166016</ele>
        <time>2017-01-20T10:56:02Z</time>
      </trkpt>
      <trkpt lat="45.32466" lon="5.82867">
        <ele>1480.4420166016</ele>
        <time>2017-01-20T10:56:09Z</time>
      </trkpt>
      <trkpt lat="45.32459" lon="5.82865">
        <ele>1483.4420166016</ele>
        <time>2017-01-20T10:56:17Z</time>
      </trkpt>
      <trkpt lat="45.32451" lon="5.82866">
        <ele>1482.4420166016</ele>
        <time>2017-01-20T10:56:22Z</time>
      </trkpt>
      <trkpt lat="45.32443" lon="5.82865">
        <ele>1480.4420166016</ele>
        <time>2017-01-20T10:56:29Z</time>
      </trkpt>
      <trkpt lat="45.32436" lon="5.82865">
        <ele>1481.4420166016</ele>
        <time>2017-01-20T10:56:37Z</time>
      </trkpt>
      <trkpt lat="45.32429" lon="5.82866">
        <ele>1486.4420166016</ele>
        <time>2017-01-20T10:56:51Z</time>
      </trkpt>
      <trkpt lat="45.32421" lon="5.82869">
        <ele>1487.4420166016</ele>
        <time>2017-01-20T10:56:58Z</time>
      </trkpt>
      <trkpt lat="45.32414" lon="5.82876">
        <ele>1496.4420166016</ele>
        <time>2017-01-20T10:57:19Z</time>
      </trkpt>
      <trkpt lat="45.32409" lon="5.82885">
        <ele>1495.4420166016</ele>
        <time>2017-01-20T10:57:28Z</time>
      </trkpt>
      <trkpt lat="45.32405" lon="5.82894">
        <ele>1495.4420166016</ele>
        <time>2017-01-20T10:57:48Z</time>
      </trkpt>
      <trkpt lat="45.32399" lon="5.82903">
        <ele>1497.4420166016</ele>
        <time>2017-01-20T10:57:57Z</time>
      </trkpt>
      <trkpt lat="45.32394" lon="5.82911">
        <ele>1499.4420166016</ele>
        <time>2017-01-20T10:58:07Z</time>
      </trkpt>
      <trkpt lat="45.32387" lon="5.82917">
        <ele>1504.4420166016</ele>
        <time>2017-01-20T10:58:30Z</time>
      </trkpt>
      <trkpt lat="45.32382" lon="5.82923">
        <ele>1505.4420166016</ele>
        <time>2017-01-20T10:58:42Z</time>
      </trkpt>
      <trkpt lat="45.32376" lon="5.82931">
        <ele>1506.4420166016</ele>
        <time>2017-01-20T10:58:52Z</time>
      </trkpt>
      <trkpt lat="45.32369" lon="5.82936">
        <ele>1507.4420166016</ele>
        <time>2017-01-20T10:59:01Z</time>
      </trkpt>
      <trkpt lat="45.32365" lon="5.82945">
        <ele>1506.4420166016</ele>
        <time>2017-01-20T10:59:30Z</time>
      </trkpt>
      <trkpt lat="45.32359" lon="5.8295">
        <ele>1507.4420166016</ele>
        <time>2017-01-20T10:59:42Z</time>
      </trkpt>
      <trkpt lat="45.32352" lon="5.82956">
        <ele>1511.4420166016</ele>
        <time>2017-01-20T10:59:51Z</time>
      </trkpt>
      <trkpt lat="45.32347" lon="5.82966">
        <ele>1517.4420166016</ele>
        <time>2017-01-20T11:00:06Z</time>
      </trkpt>
      <trkpt lat="45.32342" lon="5.82975">
        <ele>1518.4420166016</ele>
        <time>2017-01-20T11:00:17Z</time>
      </trkpt>
      <trkpt lat="45.32335" lon="5.82979">
        <ele>1521.4420166016</ele>
        <time>2017-01-20T11:00:26Z</time>
      </trkpt>
      <trkpt lat="45.32328" lon="5.8298">
        <ele>1521.4420166016</ele>
        <time>2017-01-20T11:00:35Z</time>
      </trkpt>
      <trkpt lat="45.32319" lon="5.82978">
        <ele>1520.4420166016</ele>
        <time>2017-01-20T11:00:42Z</time>
      </trkpt>
      <trkpt lat="45.32309" lon="5.82979">
        <ele>1521.4420166016</ele>
        <time>2017-01-20T11:00:50Z</time>
      </trkpt>
      <trkpt lat="45.32302" lon="5.82977">
        <ele>1524.4420166016</ele>
        <time>2017-01-20T11:01:05Z</time>
      </trkpt>
      <trkpt lat="45.32295" lon="5.82975">
        <ele>1524.4420166016</ele>
        <time>2017-01-20T11:01:11Z</time>
      </trkpt>
      <trkpt lat="45.32287" lon="5.82972">
        <ele>1523.4420166016</ele>
        <time>2017-01-20T11:01:16Z</time>
      </trkpt>
      <trkpt lat="45.32279" lon="5.82971">
        <ele>1523.4420166016</ele>
        <time>2017-01-20T11:01:22Z</time>
      </trkpt>
      <trkpt lat="45.32272" lon="5.82971">
        <ele>1525.4420166016</ele>
        <time>2017-01-20T11:01:35Z</time>
      </trkpt>
      <trkpt lat="45.32265" lon="5.82974">
        <ele>1529.4420166016</ele>
        <time>2017-01-20T11:01:45Z</time>
      </trkpt>
      <trkpt lat="45.32258" lon="5.8298">
        <ele>1529.4420166016</ele>
        <time>2017-01-20T11:01:53Z</time>
      </trkpt>
      <trkpt lat="45.32253" lon="5.82988">
        <ele>1532.4420166016</ele>
        <time>2017-01-20T11:02:04Z</time>
      </trkpt>
      <trkpt lat="45.32246" lon="5.82992">
        <ele>1537.4420166016</ele>
        <time>2017-01-20T11:02:24Z</time>
      </trkpt>
      <trkpt lat="45.32239" lon="5.82995">
        <ele>1535.4420166016</ele>
        <time>2017-01-20T11:02:29Z</time>
      </trkpt>
      <trkpt lat="45.32234" lon="5.83005">
        <ele>1536.4420166016</ele>
        <time>2017-01-20T11:02:37Z</time>
      </trkpt>
      <trkpt lat="45.32228" lon="5.83012">
        <ele>1537.4420166016</ele>
        <time>2017-01-20T11:02:43Z</time>
      </trkpt>
      <trkpt lat="45.3222" lon="5.83014">
        <ele>1540.4420166016</ele>
        <time>2017-01-20T11:02:50Z</time>
      </trkpt>
      <trkpt lat="45.32213" lon="5.83016">
        <ele>1541.4420166016</ele>
        <time>2017-01-20T11:03:59Z</time>
      </trkpt>
      <trkpt lat="45.32206" lon="5.83022">
        <ele>1543.4420166016</ele>
        <time>2017-01-20T11:08:37Z</time>
      </trkpt>
      <trkpt lat="45.32203" lon="5.83031">
        <ele>1543.4420166016</ele>
        <time>2017-01-20T11:08:45Z</time>
      </trkpt>
      <trkpt lat="45.32198" lon="5.8304">
        <ele>1548.4420166016</ele>
        <time>2017-01-20T11:08:54Z</time>
      </trkpt>
      <trkpt lat="45.32194" lon="5.83049">
        <ele>1550.4420166016</ele>
        <time>2017-01-20T11:09:04Z</time>
      </trkpt>
      <trkpt lat="45.32191" lon="5.8306">
        <ele>1548.4420166016</ele>
        <time>2017-01-20T11:09:14Z</time>
      </trkpt>
      <trkpt lat="45.32187" lon="5.83068">
        <ele>1550.4420166016</ele>
        <time>2017-01-20T11:09:22Z</time>
      </trkpt>
      <trkpt lat="45.32182" lon="5.83076">
        <ele>1549.4420166016</ele>
        <time>2017-01-20T11:09:37Z</time>
      </trkpt>
      <trkpt lat="45.32176" lon="5.83083">
        <ele>1551.4420166016</ele>
        <time>2017-01-20T11:09:53Z</time>
      </trkpt>
      <trkpt lat="45.32172" lon="5.83091">
        <ele>1586.4420166016</ele>
        <time>2017-01-20T11:10:10Z</time>
      </trkpt>
      <trkpt lat="45.32167" lon="5.83101">
        <ele>1560.4420166016</ele>
        <time>2017-01-20T11:10:26Z</time>
      </trkpt>
      <trkpt lat="45.32163" lon="5.83111">
        <ele>1568.4420166016</ele>
        <time>2017-01-20T11:10:49Z</time>
      </trkpt>
      <trkpt lat="45.32157" lon="5.83118">
        <ele>1567.4420166016</ele>
        <time>2017-01-20T11:10:56Z</time>
      </trkpt>
      <trkpt lat="45.32153" lon="5.83126">
        <ele>1567.4420166016</ele>
        <time>2017-01-20T11:11:12Z</time>
      </trkpt>
      <trkpt lat="45.32146" lon="5.83129">
        <ele>1571.4420166016</ele>
        <time>2017-01-20T11:11:25Z</time>
      </trkpt>
      <trkpt lat="45.3214" lon="5.83136">
        <ele>1574.4420166016</ele>
        <time>2017-01-20T11:11:45Z</time>
      </trkpt>
      <trkpt lat="45.32135" lon="5.83144">
        <ele>1578.4420166016</ele>
        <time>2017-01-20T11:11:59Z</time>
      </trkpt>
      <trkpt lat="45.32126" lon="5.83147">
        <ele>1577.4420166016</ele>
        <time>2017-01-20T11:12:11Z</time>
      </trkpt>
      <trkpt lat="45.32119" lon="5.83145">
        <ele>1581.4420166016</ele>
        <time>2017-01-20T11:12:21Z</time>
      </trkpt>
      <trkpt lat="45.32113" lon="5.83153">
        <ele>1582.4420166016</ele>
        <time>2017-01-20T11:12:31Z</time>
      </trkpt>
      <trkpt lat="45.32106" lon="5.83158">
        <ele>1580.4420166016</ele>
        <time>2017-01-20T11:12:42Z</time>
      </trkpt>
      <trkpt lat="45.321" lon="5.83166">
        <ele>1580.4420166016</ele>
        <time>2017-01-20T11:12:52Z</time>
      </trkpt>
      <trkpt lat="45.32094" lon="5.83172">
        <ele>1582.4420166016</ele>
        <time>2017-01-20T11:13:03Z</time>
      </trkpt>
      <trkpt lat="45.32087" lon="5.83179">
        <ele>1584.4420166016</ele>
        <time>2017-01-20T11:13:11Z</time>
      </trkpt>
      <trkpt lat="45.32082" lon="5.83185">
        <ele>1590.4420166016</ele>
        <time>2017-01-20T11:13:21Z</time>
      </trkpt>
      <trkpt lat="45.32078" lon="5.83196">
        <ele>1588.4420166016</ele>
        <time>2017-01-20T11:13:31Z</time>
      </trkpt>
      <trkpt lat="45.32073" lon="5.83206">
        <ele>1588.4420166016</ele>
        <time>2017-01-20T11:13:45Z</time>
      </trkpt>
      <trkpt lat="45.32066" lon="5.83211">
        <ele>1587.4420166016</ele>
        <time>2017-01-20T11:13:54Z</time>
      </trkpt>
      <trkpt lat="45.32058" lon="5.83213">
        <ele>1590.4420166016</ele>
        <time>2017-01-20T11:14:03Z</time>
      </trkpt>
      <trkpt lat="45.32051" lon="5.83219">
        <ele>1590.4420166016</ele>
        <time>2017-01-20T11:14:13Z</time>
      </trkpt>
      <trkpt lat="45.32045" lon="5.83226">
        <ele>1593.4420166016</ele>
        <time>2017-01-20T11:14:28Z</time>
      </trkpt>
      <trkpt lat="45.32038" lon="5.83228">
        <ele>1599.4420166016</ele>
        <time>2017-01-20T11:14:40Z</time>
      </trkpt>
      <trkpt lat="45.32031" lon="5.83232">
        <ele>1607.4420166016</ele>
        <time>2017-01-20T11:14:55Z</time>
      </trkpt>
      <trkpt lat="45.32024" lon="5.83237">
        <ele>1606.4420166016</ele>
        <time>2017-01-20T11:15:10Z</time>
      </trkpt>
      <trkpt lat="45.32019" lon="5.83246">
        <ele>1607.4420166016</ele>
        <time>2017-01-20T11:15:32Z</time>
      </trkpt>
      <trkpt lat="45.32014" lon="5.83254">
        <ele>1615.4420166016</ele>
        <time>2017-01-20T11:15:46Z</time>
      </trkpt>
      <trkpt lat="45.32021" lon="5.83257">
        <ele>1620.4420166016</ele>
        <time>2017-01-20T11:16:01Z</time>
      </trkpt>
      <trkpt lat="45.32029" lon="5.8326">
        <ele>1618.4420166016</ele>
        <time>2017-01-20T11:16:08Z</time>
      </trkpt>
      <trkpt lat="45.32034" lon="5.83266">
        <ele>1618.4420166016</ele>
        <time>2017-01-20T11:16:41Z</time>
      </trkpt>
      <trkpt lat="45.32042" lon="5.83267">
        <ele>1625.4420166016</ele>
        <time>2017-01-20T11:17:02Z</time>
      </trkpt>
      <trkpt lat="45.32048" lon="5.83272">
        <ele>1625.4420166016</ele>
        <time>2017-01-20T11:17:11Z</time>
      </trkpt>
      <trkpt lat="45.32048" lon="5.83282">
        <ele>1629.4420166016</ele>
        <time>2017-01-20T11:17:23Z</time>
      </trkpt>
      <trkpt lat="45.32052" lon="5.83292">
        <ele>1632.4420166016</ele>
        <time>2017-01-20T11:17:53Z</time>
      </trkpt>
      <trkpt lat="45.32059" lon="5.83299">
        <ele>1629.4420166016</ele>
        <time>2017-01-20T11:18:05Z</time>
      </trkpt>
      <trkpt lat="45.32066" lon="5.83305">
        <ele>1628.4420166016</ele>
        <time>2017-01-20T11:18:19Z</time>
      </trkpt>
      <trkpt lat="45.32072" lon="5.83311">
        <ele>1631.4420166016</ele>
        <time>2017-01-20T11:18:26Z</time>
      </trkpt>
      <trkpt lat="45.32078" lon="5.83319">
        <ele>1635.4420166016</ele>
        <time>2017-01-20T11:18:39Z</time>
      </trkpt>
      <trkpt lat="45.32082" lon="5.83328">
        <ele>1631.4420166016</ele>
        <time>2017-01-20T11:18:45Z</time>
      </trkpt>
      <trkpt lat="45.32089" lon="5.83331">
        <ele>1635.4420166016</ele>
        <time>2017-01-20T11:19:06Z</time>
      </trkpt>
      <trkpt lat="45.32096" lon="5.83336">
        <ele>1645.4420166016</ele>
        <time>2017-01-20T11:19:57Z</time>
      </trkpt>
      <trkpt lat="45.32098" lon="5.83346">
        <ele>1647.4420166016</ele>
        <time>2017-01-20T11:20:13Z</time>
      </trkpt>
      <trkpt lat="45.32102" lon="5.83355">
        <ele>1654.4420166016</ele>
        <time>2017-01-20T11:20:44Z</time>
      </trkpt>
      <trkpt lat="45.32107" lon="5.83364">
        <ele>1658.4420166016</ele>
        <time>2017-01-20T11:20:53Z</time>
      </trkpt>
      <trkpt lat="45.32108" lon="5.83374">
        <ele>1662.4420166016</ele>
        <time>2017-01-20T11:21:28Z</time>
      </trkpt>
      <trkpt lat="45.32104" lon="5.83382">
        <ele>1664.4420166016</ele>
        <time>2017-01-20T11:22:07Z</time>
      </trkpt>
      <trkpt lat="45.32101" lon="5.83393">
        <ele>1668.4420166016</ele>
        <time>2017-01-20T11:22:40Z</time>
      </trkpt>
      <trkpt lat="45.32096" lon="5.83401">
        <ele>1672.4420166016</ele>
        <time>2017-01-20T11:23:21Z</time>
      </trkpt>
      <trkpt lat="45.3209" lon="5.83407">
        <ele>1674.4420166016</ele>
        <time>2017-01-20T11:23:48Z</time>
      </trkpt>
      <trkpt lat="45.32089" lon="5.83418">
        <ele>1677.4420166016</ele>
        <time>2017-01-20T11:24:04Z</time>
      </trkpt>
      <trkpt lat="45.32083" lon="5.83425">
        <ele>1679.4420166016</ele>
        <time>2017-01-20T11:24:15Z</time>
      </trkpt>
      <trkpt lat="45.3208" lon="5.83435">
        <ele>1679.4420166016</ele>
        <time>2017-01-20T11:24:25Z</time>
      </trkpt>
      <trkpt lat="45.32077" lon="5.83444">
        <ele>1679.4420166016</ele>
        <time>2017-01-20T11:24:34Z</time>
      </trkpt>
      <trkpt lat="45.32074" lon="5.83454">
        <ele>1681.4420166016</ele>
        <time>2017-01-20T11:24:43Z</time>
      </trkpt>
      <trkpt lat="45.3207" lon="5.83463">
        <ele>1684.4420166016</ele>
        <time>2017-01-20T11:24:51Z</time>
      </trkpt>
      <trkpt lat="45.32065" lon="5.8347">
        <ele>1686.4420166016</ele>
        <time>2017-01-20T11:25:01Z</time>
      </trkpt>
      <trkpt lat="45.32059" lon="5.83478">
        <ele>1687.4420166016</ele>
        <time>2017-01-20T11:25:12Z</time>
      </trkpt>
      <trkpt lat="45.32054" lon="5.83486">
        <ele>1690.4420166016</ele>
        <time>2017-01-20T11:25:21Z</time>
      </trkpt>
      <trkpt lat="45.32048" lon="5.83494">
        <ele>1690.4420166016</ele>
        <time>2017-01-20T11:25:27Z</time>
      </trkpt>
      <trkpt lat="45.32045" lon="5.83506">
        <ele>1691.4420166016</ele>
        <time>2017-01-20T11:25:33Z</time>
      </trkpt>
      <trkpt lat="45.32038" lon="5.8351">
        <ele>1693.4420166016</ele>
        <time>2017-01-20T11:25:41Z</time>
      </trkpt>
      <trkpt lat="45.32032" lon="5.83515">
        <ele>1694.4420166016</ele>
        <time>2017-01-20T11:25:47Z</time>
      </trkpt>
      <trkpt lat="45.32025" lon="5.83522">
        <ele>1691.4420166016</ele>
        <time>2017-01-20T11:25:55Z</time>
      </trkpt>
      <trkpt lat="45.32019" lon="5.83529">
        <ele>1692.4420166016</ele>
        <time>2017-01-20T11:26:02Z</time>
      </trkpt>
      <trkpt lat="45.32013" lon="5.83535">
        <ele>1694.4420166016</ele>
        <time>2017-01-20T11:26:10Z</time>
      </trkpt>
      <trkpt lat="45.32007" lon="5.83543">
        <ele>1697.4420166016</ele>
        <time>2017-01-20T11:26:17Z</time>
      </trkpt>
      <trkpt lat="45.32001" lon="5.83551">
        <ele>1697.4420166016</ele>
        <time>2017-01-20T11:26:26Z</time>
      </trkpt>
      <trkpt lat="45.31996" lon="5.8356">
        <ele>1699.4420166016</ele>
        <time>2017-01-20T11:26:34Z</time>
      </trkpt>
      <trkpt lat="45.31991" lon="5.83568">
        <ele>1700.4420166016</ele>
        <time>2017-01-20T11:26:41Z</time>
      </trkpt>
      <trkpt lat="45.31985" lon="5.83575">
        <ele>1701.4420166016</ele>
        <time>2017-01-20T11:26:50Z</time>
      </trkpt>
      <trkpt lat="45.3198" lon="5.83583">
        <ele>1703.4420166016</ele>
        <time>2017-01-20T11:26:57Z</time>
      </trkpt>
      <trkpt lat="45.31974" lon="5.83589">
        <ele>1704.4420166016</ele>
        <time>2017-01-20T11:27:06Z</time>
      </trkpt>
      <trkpt lat="45.31967" lon="5.83597">
        <ele>1703.4420166016</ele>
        <time>2017-01-20T11:27:13Z</time>
      </trkpt>
      <trkpt lat="45.31961" lon="5.83603">
        <ele>1706.4420166016</ele>
        <time>2017-01-20T11:27:22Z</time>
      </trkpt>
      <trkpt lat="45.31955" lon="5.83609">
        <ele>1707.4420166016</ele>
        <time>2017-01-20T11:27:29Z</time>
      </trkpt>
      <trkpt lat="45.31948" lon="5.83616">
        <ele>1709.4420166016</ele>
        <time>2017-01-20T11:27:38Z</time>
      </trkpt>
      <trkpt lat="45.31943" lon="5.83623">
        <ele>1708.4420166016</ele>
        <time>2017-01-20T11:27:45Z</time>
      </trkpt>
      <trkpt lat="45.31938" lon="5.83632">
        <ele>1708.4420166016</ele>
        <time>2017-01-20T11:27:54Z</time>
      </trkpt>
      <trkpt lat="45.31933" lon="5.83641">
        <ele>1711.4420166016</ele>
        <time>2017-01-20T11:28:01Z</time>
      </trkpt>
      <trkpt lat="45.31927" lon="5.83645">
        <ele>1714.4420166016</ele>
        <time>2017-01-20T11:28:09Z</time>
      </trkpt>
      <trkpt lat="45.3192" lon="5.83652">
        <ele>1713.4420166016</ele>
        <time>2017-01-20T11:28:17Z</time>
      </trkpt>
      <trkpt lat="45.31915" lon="5.83659">
        <ele>1715.4420166016</ele>
        <time>2017-01-20T11:28:25Z</time>
      </trkpt>
      <trkpt lat="45.31908" lon="5.83664">
        <ele>1714.4420166016</ele>
        <time>2017-01-20T11:28:31Z</time>
      </trkpt>
      <trkpt lat="45.31903" lon="5.83673">
        <ele>1716.4420166016</ele>
        <time>2017-01-20T11:28:40Z</time>
      </trkpt>
      <trkpt lat="45.31896" lon="5.83681">
        <ele>1719.4420166016</ele>
        <time>2017-01-20T11:28:53Z</time>
      </trkpt>
      <trkpt lat="45.3189" lon="5.83688">
        <ele>1718.4420166016</ele>
        <time>2017-01-20T11:29:01Z</time>
      </trkpt>
      <trkpt lat="45.31886" lon="5.83697">
        <ele>1687.4420166016</ele>
        <time>2017-01-20T11:29:09Z</time>
      </trkpt>
      <trkpt lat="45.31882" lon="5.83706">
        <ele>1718.4420166016</ele>
        <time>2017-01-20T11:29:18Z</time>
      </trkpt>
      <trkpt lat="45.31887" lon="5.83713">
        <ele>1715.4420166016</ele>
        <time>2017-01-20T11:29:27Z</time>
      </trkpt>
      <trkpt lat="45.31886" lon="5.83724">
        <ele>1731.4420166016</ele>
        <time>2017-01-20T11:29:40Z</time>
      </trkpt>
      <trkpt lat="45.31883" lon="5.83735">
        <ele>1733.4420166016</ele>
        <time>2017-01-20T11:29:50Z</time>
      </trkpt>
      <trkpt lat="45.3188" lon="5.83744">
        <ele>1733.4420166016</ele>
        <time>2017-01-20T11:30:00Z</time>
      </trkpt>
      <trkpt lat="45.31873" lon="5.83754">
        <ele>1735.4420166016</ele>
        <time>2017-01-20T11:30:13Z</time>
      </trkpt>
      <trkpt lat="45.31866" lon="5.83761">
        <ele>1736.4420166016</ele>
        <time>2017-01-20T11:30:26Z</time>
      </trkpt>
      <trkpt lat="45.31861" lon="5.83769">
        <ele>1738.4420166016</ele>
        <time>2017-01-20T11:30:36Z</time>
      </trkpt>
      <trkpt lat="45.31855" lon="5.83775">
        <ele>1741.4420166016</ele>
        <time>2017-01-20T11:30:42Z</time>
      </trkpt>
      <trkpt lat="45.31847" lon="5.83776">
        <ele>1741.4420166016</ele>
        <time>2017-01-20T11:30:53Z</time>
      </trkpt>
      <trkpt lat="45.31839" lon="5.83777">
        <ele>1744.4420166016</ele>
        <time>2017-01-20T11:31:00Z</time>
      </trkpt>
      <trkpt lat="45.31831" lon="5.8378">
        <ele>1742.4420166016</ele>
        <time>2017-01-20T11:31:08Z</time>
      </trkpt>
      <trkpt lat="45.31822" lon="5.83782">
        <ele>1745.4420166016</ele>
        <time>2017-01-20T11:31:21Z</time>
      </trkpt>
      <trkpt lat="45.31814" lon="5.83781">
        <ele>1750.4420166016</ele>
        <time>2017-01-20T11:31:32Z</time>
      </trkpt>
      <trkpt lat="45.31806" lon="5.83785">
        <ele>1757.4420166016</ele>
        <time>2017-01-20T11:31:55Z</time>
      </trkpt>
      <trkpt lat="45.31802" lon="5.83793">
        <ele>1761.4420166016</ele>
        <time>2017-01-20T11:32:05Z</time>
      </trkpt>
      <trkpt lat="45.31795" lon="5.83788">
        <ele>1762.4420166016</ele>
        <time>2017-01-20T11:32:18Z</time>
      </trkpt>
      <trkpt lat="45.31787" lon="5.83785">
        <ele>1767.4420166016</ele>
        <time>2017-01-20T11:32:28Z</time>
      </trkpt>
      <trkpt lat="45.31779" lon="5.83785">
        <ele>1765.4420166016</ele>
        <time>2017-01-20T11:32:40Z</time>
      </trkpt>
      <trkpt lat="45.31771" lon="5.83783">
        <ele>1763.4420166016</ele>
        <time>2017-01-20T11:32:48Z</time>
      </trkpt>
      <trkpt lat="45.31764" lon="5.83781">
        <ele>1764.4420166016</ele>
        <time>2017-01-20T11:32:54Z</time>
      </trkpt>
      <trkpt lat="45.31756" lon="5.83777">
        <ele>1763.4420166016</ele>
        <time>2017-01-20T11:33:02Z</time>
      </trkpt>
      <trkpt lat="45.31749" lon="5.83774">
        <ele>1765.4420166016</ele>
        <time>2017-01-20T11:33:11Z</time>
      </trkpt>
      <trkpt lat="45.31742" lon="5.83766">
        <ele>1769.4420166016</ele>
        <time>2017-01-20T11:33:43Z</time>
      </trkpt>
      <trkpt lat="45.31734" lon="5.83763">
        <ele>1770.4420166016</ele>
        <time>2017-01-20T11:33:50Z</time>
      </trkpt>
      <trkpt lat="45.31726" lon="5.83761">
        <ele>1772.4420166016</ele>
        <time>2017-01-20T11:33:55Z</time>
      </trkpt>
      <trkpt lat="45.31718" lon="5.8376">
        <ele>1772.4420166016</ele>
        <time>2017-01-20T11:34:05Z</time>
      </trkpt>
      <trkpt lat="45.31711" lon="5.83757">
        <ele>1771.4420166016</ele>
        <time>2017-01-20T11:34:10Z</time>
      </trkpt>
      <trkpt lat="45.31702" lon="5.83756">
        <ele>1769.4420166016</ele>
        <time>2017-01-20T11:34:16Z</time>
      </trkpt>
      <trkpt lat="45.31694" lon="5.83752">
        <ele>1772.4420166016</ele>
        <time>2017-01-20T11:34:24Z</time>
      </trkpt>
      <trkpt lat="45.31687" lon="5.83751">
        <ele>1771.4420166016</ele>
        <time>2017-01-20T11:34:43Z</time>
      </trkpt>
      <trkpt lat="45.31681" lon="5.83742">
        <ele>1766.4420166016</ele>
        <time>2017-01-20T11:43:13Z</time>
      </trkpt>
      <trkpt lat="45.31663" lon="5.83734">
        <ele>1764.4420166016</ele>
        <time>2017-01-20T11:43:19Z</time>
      </trkpt>
      <trkpt lat="45.31649" lon="5.83724">
        <ele>1764.4410400391</ele>
        <time>2017-01-20T11:43:27Z</time>
      </trkpt>
      <trkpt lat="45.31641" lon="5.83722">
        <ele>1765.4410400391</ele>
        <time>2017-01-20T11:43:32Z</time>
      </trkpt>
      <trkpt lat="45.31624" lon="5.83716">
        <ele>1764.4410400391</ele>
        <time>2017-01-20T11:43:40Z</time>
      </trkpt>
      <trkpt lat="45.31618" lon="5.83721">
        <ele>1761.4410400391</ele>
        <time>2017-01-20T11:43:49Z</time>
      </trkpt>
      <trkpt lat="45.31601" lon="5.83714">
        <ele>1764.4410400391</ele>
        <time>2017-01-20T11:43:54Z</time>
      </trkpt>
      <trkpt lat="45.31584" lon="5.83704">
        <ele>1759.4410400391</ele>
        <time>2017-01-20T11:43:59Z</time>
      </trkpt>
      <trkpt lat="45.3158" lon="5.83686">
        <ele>1755.4410400391</ele>
        <time>2017-01-20T11:44:04Z</time>
      </trkpt>
      <trkpt lat="45.31574" lon="5.83645">
        <ele>1745.4410400391</ele>
        <time>2017-01-20T11:44:10Z</time>
      </trkpt>
      <trkpt lat="45.31551" lon="5.83616">
        <ele>1739.4410400391</ele>
        <time>2017-01-20T11:44:16Z</time>
      </trkpt>
      <trkpt lat="45.31544" lon="5.83619">
        <ele>1736.4410400391</ele>
        <time>2017-01-20T11:44:33Z</time>
      </trkpt>
      <trkpt lat="45.31533" lon="5.83602">
        <ele>1733.4410400391</ele>
        <time>2017-01-20T11:44:40Z</time>
      </trkpt>
      <trkpt lat="45.31532" lon="5.83592">
        <ele>1733.4410400391</ele>
        <time>2017-01-20T11:44:47Z</time>
      </trkpt>
      <trkpt lat="45.31534" lon="5.83582">
        <ele>1726.4410400391</ele>
        <time>2017-01-20T11:44:57Z</time>
      </trkpt>
      <trkpt lat="45.31523" lon="5.83564">
        <ele>1712.4410400391</ele>
        <time>2017-01-20T11:45:25Z</time>
      </trkpt>
      <trkpt lat="45.31478" lon="5.83561">
        <ele>1714.4410400391</ele>
        <time>2017-01-20T11:45:30Z</time>
      </trkpt>
      <trkpt lat="45.31432" lon="5.8354">
        <ele>1704.4410400391</ele>
        <time>2017-01-20T11:45:34Z</time>
      </trkpt>
      <trkpt lat="45.31423" lon="5.83531">
        <ele>1704.4410400391</ele>
        <time>2017-01-20T11:45:36Z</time>
      </trkpt>
      <trkpt lat="45.31416" lon="5.83527">
        <ele>1696.4410400391</ele>
        <time>2017-01-20T11:45:45Z</time>
      </trkpt>
      <trkpt lat="45.31411" lon="5.83519">
        <ele>1695.4410400391</ele>
        <time>2017-01-20T11:46:33Z</time>
      </trkpt>
      <trkpt lat="45.31406" lon="5.83511">
        <ele>1695.4410400391</ele>
        <time>2017-01-20T11:46:47Z</time>
      </trkpt>
      <trkpt lat="45.31401" lon="5.83502">
        <ele>1694.4410400391</ele>
        <time>2017-01-20T11:47:03Z</time>
      </trkpt>
      <trkpt lat="45.31393" lon="5.83505">
        <ele>1696.4410400391</ele>
        <time>2017-01-20T11:47:21Z</time>
      </trkpt>
      <trkpt lat="45.31386" lon="5.83504">
        <ele>1695.4410400391</ele>
        <time>2017-01-20T11:47:41Z</time>
      </trkpt>
      <trkpt lat="45.31379" lon="5.83509">
        <ele>1699.4410400391</ele>
        <time>2017-01-20T11:48:12Z</time>
      </trkpt>
      <trkpt lat="45.31371" lon="5.83506">
        <ele>1698.4410400391</ele>
        <time>2017-01-20T11:48:17Z</time>
      </trkpt>
      <trkpt lat="45.31365" lon="5.83491">
        <ele>1695.4410400391</ele>
        <time>2017-01-20T11:48:41Z</time>
      </trkpt>
      <trkpt lat="45.31373" lon="5.83488">
        <ele>1686.4410400391</ele>
        <time>2017-01-20T11:49:04Z</time>
      </trkpt>
      <trkpt lat="45.3138" lon="5.83444">
        <ele>1674.4410400391</ele>
        <time>2017-01-20T11:49:10Z</time>
      </trkpt>
      <trkpt lat="45.31391" lon="5.83399">
        <ele>1667.4399414062</ele>
        <time>2017-01-20T11:49:16Z</time>
      </trkpt>
      <trkpt lat="45.31401" lon="5.83355">
        <ele>1616.4399414062</ele>
        <time>2017-01-20T11:49:21Z</time>
      </trkpt>
      <trkpt lat="45.31417" lon="5.83317">
        <ele>1639.4399414062</ele>
        <time>2017-01-20T11:49:27Z</time>
      </trkpt>
      <trkpt lat="45.3142" lon="5.83295">
        <ele>1628.4399414062</ele>
        <time>2017-01-20T11:50:13Z</time>
      </trkpt>
      <trkpt lat="45.31425" lon="5.83267">
        <ele>1626.4399414062</ele>
        <time>2017-01-20T11:50:18Z</time>
      </trkpt>
      <trkpt lat="45.31431" lon="5.83262">
        <ele>1626.4399414062</ele>
        <time>2017-01-20T11:50:32Z</time>
      </trkpt>
      <trkpt lat="45.31435" lon="5.83252">
        <ele>1621.4399414062</ele>
        <time>2017-01-20T11:50:44Z</time>
      </trkpt>
      <trkpt lat="45.31438" lon="5.8324">
        <ele>1620.4399414062</ele>
        <time>2017-01-20T11:50:53Z</time>
      </trkpt>
      <trkpt lat="45.31449" lon="5.83216">
        <ele>1620.4399414062</ele>
        <time>2017-01-20T11:50:58Z</time>
      </trkpt>
      <trkpt lat="45.31455" lon="5.8321">
        <ele>1619.4399414062</ele>
        <time>2017-01-20T11:51:05Z</time>
      </trkpt>
      <trkpt lat="45.31459" lon="5.832">
        <ele>1620.4399414062</ele>
        <time>2017-01-20T11:51:15Z</time>
      </trkpt>
      <trkpt lat="45.31461" lon="5.83187">
        <ele>1620.4399414062</ele>
        <time>2017-01-20T11:51:19Z</time>
      </trkpt>
      <trkpt lat="45.31462" lon="5.83177">
        <ele>1619.4399414062</ele>
        <time>2017-01-20T11:51:21Z</time>
      </trkpt>
      <trkpt lat="45.31469" lon="5.83145">
        <ele>1615.4399414062</ele>
        <time>2017-01-20T11:51:27Z</time>
      </trkpt>
      <trkpt lat="45.31476" lon="5.83118">
        <ele>1606.4399414062</ele>
        <time>2017-01-20T11:51:34Z</time>
      </trkpt>
      <trkpt lat="45.31486" lon="5.83072">
        <ele>1601.4399414062</ele>
        <time>2017-01-20T11:51:40Z</time>
      </trkpt>
      <trkpt lat="45.31501" lon="5.83038">
        <ele>1597.4399414062</ele>
        <time>2017-01-20T11:51:49Z</time>
      </trkpt>
      <trkpt lat="45.31501" lon="5.83025">
        <ele>1592.4399414062</ele>
        <time>2017-01-20T11:51:52Z</time>
      </trkpt>
      <trkpt lat="45.31506" lon="5.83017">
        <ele>1589.4399414062</ele>
        <time>2017-01-20T11:51:59Z</time>
      </trkpt>
      <trkpt lat="45.31507" lon="5.82995">
        <ele>1588.4399414062</ele>
        <time>2017-01-20T11:52:06Z</time>
      </trkpt>
      <trkpt lat="45.31514" lon="5.82967">
        <ele>1580.4399414062</ele>
        <time>2017-01-20T11:52:11Z</time>
      </trkpt>
      <trkpt lat="45.31521" lon="5.8294">
        <ele>1562.4399414062</ele>
        <time>2017-01-20T11:52:47Z</time>
      </trkpt>
      <trkpt lat="45.3153" lon="5.8291">
        <ele>1557.4399414062</ele>
        <time>2017-01-20T11:52:52Z</time>
      </trkpt>
      <trkpt lat="45.31531" lon="5.829">
        <ele>1551.4399414062</ele>
        <time>2017-01-20T11:53:04Z</time>
      </trkpt>
      <trkpt lat="45.31527" lon="5.82891">
        <ele>1551.4399414062</ele>
        <time>2017-01-20T11:53:14Z</time>
      </trkpt>
      <trkpt lat="45.31525" lon="5.82881">
        <ele>1545.4399414062</ele>
        <time>2017-01-20T11:53:28Z</time>
      </trkpt>
      <trkpt lat="45.31528" lon="5.8287">
        <ele>1540.4399414062</ele>
        <time>2017-01-20T11:53:37Z</time>
      </trkpt>
      <trkpt lat="45.31525" lon="5.8285">
        <ele>1535.4399414062</ele>
        <time>2017-01-20T11:53:50Z</time>
      </trkpt>
      <trkpt lat="45.31525" lon="5.82838">
        <ele>1536.4399414062</ele>
        <time>2017-01-20T11:53:58Z</time>
      </trkpt>
      <trkpt lat="45.31526" lon="5.82825">
        <ele>1534.4399414062</ele>
        <time>2017-01-20T11:54:06Z</time>
      </trkpt>
      <trkpt lat="45.31526" lon="5.82801">
        <ele>1527.4399414062</ele>
        <time>2017-01-20T11:54:11Z</time>
      </trkpt>
      <trkpt lat="45.31522" lon="5.82779">
        <ele>1551.4399414062</ele>
        <time>2017-01-20T11:54:23Z</time>
      </trkpt>
      <trkpt lat="45.31519" lon="5.82769">
        <ele>1529.4399414062</ele>
        <time>2017-01-20T11:54:28Z</time>
      </trkpt>
      <trkpt lat="45.31512" lon="5.82763">
        <ele>1530.4399414062</ele>
        <time>2017-01-20T11:54:36Z</time>
      </trkpt>
      <trkpt lat="45.31506" lon="5.82755">
        <ele>1516.4399414062</ele>
        <time>2017-01-20T11:54:47Z</time>
      </trkpt>
      <trkpt lat="45.31499" lon="5.82747">
        <ele>1511.4399414062</ele>
        <time>2017-01-20T11:55:05Z</time>
      </trkpt>
      <trkpt lat="45.31495" lon="5.82739">
        <ele>1519.4399414062</ele>
        <time>2017-01-20T11:55:19Z</time>
      </trkpt>
      <trkpt lat="45.31488" lon="5.82736">
        <ele>1513.4399414062</ele>
        <time>2017-01-20T11:55:40Z</time>
      </trkpt>
      <trkpt lat="45.3148" lon="5.82733">
        <ele>1510.4399414062</ele>
        <time>2017-01-20T11:55:54Z</time>
      </trkpt>
      <trkpt lat="45.31474" lon="5.82727">
        <ele>1518.4399414062</ele>
        <time>2017-01-20T11:56:02Z</time>
      </trkpt>
      <trkpt lat="45.31466" lon="5.82726">
        <ele>1510.4399414062</ele>
        <time>2017-01-20T11:56:10Z</time>
      </trkpt>
      <trkpt lat="45.31459" lon="5.82723">
        <ele>1508.4399414062</ele>
        <time>2017-01-20T11:56:14Z</time>
      </trkpt>
      <trkpt lat="45.31442" lon="5.82719">
        <ele>1510.4399414062</ele>
        <time>2017-01-20T11:56:21Z</time>
      </trkpt>
      <trkpt lat="45.31435" lon="5.82716">
        <ele>1507.4399414062</ele>
        <time>2017-01-20T11:56:31Z</time>
      </trkpt>
      <trkpt lat="45.31425" lon="5.82717">
        <ele>1504.4399414062</ele>
        <time>2017-01-20T11:56:39Z</time>
      </trkpt>
      <trkpt lat="45.31418" lon="5.82716">
        <ele>1508.4399414062</ele>
        <time>2017-01-20T11:56:50Z</time>
      </trkpt>
      <trkpt lat="45.3141" lon="5.82708">
        <ele>1502.4399414062</ele>
        <time>2017-01-20T11:57:03Z</time>
      </trkpt>
      <trkpt lat="45.31388" lon="5.82689">
        <ele>1501.4399414062</ele>
        <time>2017-01-20T11:57:10Z</time>
      </trkpt>
      <trkpt lat="45.31371" lon="5.82684">
        <ele>1498.4389648438</ele>
        <time>2017-01-20T11:57:20Z</time>
      </trkpt>
      <trkpt lat="45.31363" lon="5.82679">
        <ele>1496.4389648438</ele>
        <time>2017-01-20T11:57:27Z</time>
      </trkpt>
      <trkpt lat="45.31356" lon="5.82679">
        <ele>1496.4389648438</ele>
        <time>2017-01-20T11:57:35Z</time>
      </trkpt>
      <trkpt lat="45.31348" lon="5.82672">
        <ele>1495.4389648438</ele>
        <time>2017-01-20T11:57:41Z</time>
      </trkpt>
      <trkpt lat="45.31323" lon="5.82648">
        <ele>1494.4389648438</ele>
        <time>2017-01-20T11:57:47Z</time>
      </trkpt>
      <trkpt lat="45.3131" lon="5.82632">
        <ele>1486.4389648438</ele>
        <time>2017-01-20T12:00:33Z</time>
      </trkpt>
      <trkpt lat="45.313" lon="5.8259">
        <ele>1479.4389648438</ele>
        <time>2017-01-20T12:00:39Z</time>
      </trkpt>
      <trkpt lat="45.31269" lon="5.82564">
        <ele>1470.4389648438</ele>
        <time>2017-01-20T12:00:45Z</time>
      </trkpt>
      <trkpt lat="45.31265" lon="5.82549">
        <ele>1467.4389648438</ele>
        <time>2017-01-20T12:01:12Z</time>
      </trkpt>
      <trkpt lat="45.31269" lon="5.82527">
        <ele>1464.4389648438</ele>
        <time>2017-01-20T12:01:17Z</time>
      </trkpt>
      <trkpt lat="45.31267" lon="5.82501">
        <ele>1461.4389648438</ele>
        <time>2017-01-20T12:01:22Z</time>
      </trkpt>
      <trkpt lat="45.31266" lon="5.82459">
        <ele>1451.4389648438</ele>
        <time>2017-01-20T12:01:28Z</time>
      </trkpt>
      <trkpt lat="45.31267" lon="5.8242">
        <ele>1443.4389648438</ele>
        <time>2017-01-20T12:01:34Z</time>
      </trkpt>
      <trkpt lat="45.31255" lon="5.82405">
        <ele>1440.4389648438</ele>
        <time>2017-01-20T12:04:28Z</time>
      </trkpt>
      <trkpt lat="45.31249" lon="5.82398">
        <ele>1439.4389648438</ele>
        <time>2017-01-20T12:04:35Z</time>
      </trkpt>
      <trkpt lat="45.31241" lon="5.82393">
        <ele>1439.4389648438</ele>
        <time>2017-01-20T12:04:41Z</time>
      </trkpt>
      <trkpt lat="45.31234" lon="5.8239">
        <ele>1439.4389648438</ele>
        <time>2017-01-20T12:04:47Z</time>
      </trkpt>
      <trkpt lat="45.31227" lon="5.82386">
        <ele>1443.4389648438</ele>
        <time>2017-01-20T12:04:53Z</time>
      </trkpt>
      <trkpt lat="45.3122" lon="5.82381">
        <ele>1443.4389648438</ele>
        <time>2017-01-20T12:04:59Z</time>
      </trkpt>
      <trkpt lat="45.31211" lon="5.82378">
        <ele>1443.4389648438</ele>
        <time>2017-01-20T12:05:07Z</time>
      </trkpt>
      <trkpt lat="45.31204" lon="5.82379">
        <ele>1443.4389648438</ele>
        <time>2017-01-20T12:05:14Z</time>
      </trkpt>
      <trkpt lat="45.31196" lon="5.82379">
        <ele>1443.4389648438</ele>
        <time>2017-01-20T12:05:20Z</time>
      </trkpt>
      <trkpt lat="45.31188" lon="5.82379">
        <ele>1442.4389648438</ele>
        <time>2017-01-20T12:05:32Z</time>
      </trkpt>
      <trkpt lat="45.31179" lon="5.82379">
        <ele>1443.4389648438</ele>
        <time>2017-01-20T12:05:39Z</time>
      </trkpt>
      <trkpt lat="45.31173" lon="5.82383">
        <ele>1445.4389648438</ele>
        <time>2017-01-20T12:05:56Z</time>
      </trkpt>
      <trkpt lat="45.31159" lon="5.82394">
        <ele>1444.4389648438</ele>
        <time>2017-01-20T12:06:04Z</time>
      </trkpt>
      <trkpt lat="45.31152" lon="5.824">
        <ele>1445.4389648438</ele>
        <time>2017-01-20T12:06:11Z</time>
      </trkpt>
      <trkpt lat="45.31146" lon="5.82408">
        <ele>1448.4389648438</ele>
        <time>2017-01-20T12:06:22Z</time>
      </trkpt>
      <trkpt lat="45.3114" lon="5.82413">
        <ele>1447.4389648438</ele>
        <time>2017-01-20T12:06:27Z</time>
      </trkpt>
      <trkpt lat="45.31134" lon="5.8242">
        <ele>1449.4389648438</ele>
        <time>2017-01-20T12:06:36Z</time>
      </trkpt>
      <trkpt lat="45.31127" lon="5.82428">
        <ele>1450.4389648438</ele>
        <time>2017-01-20T12:06:42Z</time>
      </trkpt>
      <trkpt lat="45.3112" lon="5.82436">
        <ele>1453.4389648438</ele>
        <time>2017-01-20T12:06:49Z</time>
      </trkpt>
      <trkpt lat="45.31113" lon="5.82443">
        <ele>1452.4389648438</ele>
        <time>2017-01-20T12:06:56Z</time>
      </trkpt>
      <trkpt lat="45.31105" lon="5.82445">
        <ele>1456.4389648438</ele>
        <time>2017-01-20T12:07:02Z</time>
      </trkpt>
      <trkpt lat="45.3109" lon="5.82445">
        <ele>1452.4389648438</ele>
        <time>2017-01-20T12:07:10Z</time>
      </trkpt>
      <trkpt lat="45.31075" lon="5.82438">
        <ele>1450.4389648438</ele>
        <time>2017-01-20T12:07:20Z</time>
      </trkpt>
      <trkpt lat="45.31068" lon="5.82434">
        <ele>1451.4389648438</ele>
        <time>2017-01-20T12:07:26Z</time>
      </trkpt>
      <trkpt lat="45.3106" lon="5.82428">
        <ele>1448.4379882812</ele>
        <time>2017-01-20T12:07:32Z</time>
      </trkpt>
      <trkpt lat="45.31054" lon="5.82422">
        <ele>1449.4379882812</ele>
        <time>2017-01-20T12:07:38Z</time>
      </trkpt>
      <trkpt lat="45.31048" lon="5.82417">
        <ele>1450.4379882812</ele>
        <time>2017-01-20T12:07:44Z</time>
      </trkpt>
      <trkpt lat="45.3104" lon="5.82414">
        <ele>1452.4379882812</ele>
        <time>2017-01-20T12:07:51Z</time>
      </trkpt>
      <trkpt lat="45.31032" lon="5.82411">
        <ele>1451.4379882812</ele>
        <time>2017-01-20T12:07:57Z</time>
      </trkpt>
      <trkpt lat="45.31024" lon="5.82407">
        <ele>1451.4379882812</ele>
        <time>2017-01-20T12:08:03Z</time>
      </trkpt>
      <trkpt lat="45.31017" lon="5.82407">
        <ele>1452.4379882812</ele>
        <time>2017-01-20T12:08:13Z</time>
      </trkpt>
      <trkpt lat="45.31009" lon="5.82406">
        <ele>1453.4379882812</ele>
        <time>2017-01-20T12:08:19Z</time>
      </trkpt>
      <trkpt lat="45.31001" lon="5.82407">
        <ele>1452.4379882812</ele>
        <time>2017-01-20T12:08:24Z</time>
      </trkpt>
      <trkpt lat="45.30994" lon="5.8241">
        <ele>1452.4379882812</ele>
        <time>2017-01-20T12:08:30Z</time>
      </trkpt>
      <trkpt lat="45.30987" lon="5.82414">
        <ele>1452.4379882812</ele>
        <time>2017-01-20T12:08:36Z</time>
      </trkpt>
      <trkpt lat="45.3098" lon="5.82421">
        <ele>1455.4379882812</ele>
        <time>2017-01-20T12:08:43Z</time>
      </trkpt>
      <trkpt lat="45.30973" lon="5.82431">
        <ele>1457.4379882812</ele>
        <time>2017-01-20T12:08:54Z</time>
      </trkpt>
      <trkpt lat="45.30968" lon="5.82439">
        <ele>1454.4379882812</ele>
        <time>2017-01-20T12:08:59Z</time>
      </trkpt>
      <trkpt lat="45.30952" lon="5.82445">
        <ele>1452.4379882812</ele>
        <time>2017-01-20T12:09:08Z</time>
      </trkpt>
      <trkpt lat="45.30945" lon="5.82443">
        <ele>1449.4379882812</ele>
        <time>2017-01-20T12:09:13Z</time>
      </trkpt>
      <trkpt lat="45.30938" lon="5.82439">
        <ele>1447.4379882812</ele>
        <time>2017-01-20T12:09:18Z</time>
      </trkpt>
      <trkpt lat="45.30931" lon="5.82434">
        <ele>1451.4379882812</ele>
        <time>2017-01-20T12:09:26Z</time>
      </trkpt>
      <trkpt lat="45.30924" lon="5.82432">
        <ele>1452.4379882812</ele>
        <time>2017-01-20T12:09:31Z</time>
      </trkpt>
      <trkpt lat="45.30915" lon="5.82432">
        <ele>1450.4379882812</ele>
        <time>2017-01-20T12:09:36Z</time>
      </trkpt>
      <trkpt lat="45.30908" lon="5.82429">
        <ele>1454.4379882812</ele>
        <time>2017-01-20T12:09:41Z</time>
      </trkpt>
      <trkpt lat="45.30901" lon="5.82426">
        <ele>1454.4379882812</ele>
        <time>2017-01-20T12:09:47Z</time>
      </trkpt>
      <trkpt lat="45.30893" lon="5.82426">
        <ele>1455.4379882812</ele>
        <time>2017-01-20T12:09:52Z</time>
      </trkpt>
      <trkpt lat="45.30885" lon="5.82427">
        <ele>1455.4379882812</ele>
        <time>2017-01-20T12:09:58Z</time>
      </trkpt>
      <trkpt lat="45.30878" lon="5.82434">
        <ele>1453.4379882812</ele>
        <time>2017-01-20T12:10:04Z</time>
      </trkpt>
      <trkpt lat="45.30872" lon="5.82441">
        <ele>1451.4379882812</ele>
        <time>2017-01-20T12:10:09Z</time>
      </trkpt>
      <trkpt lat="45.30866" lon="5.8245">
        <ele>1452.4379882812</ele>
        <time>2017-01-20T12:10:16Z</time>
      </trkpt>
      <trkpt lat="45.3086" lon="5.8246">
        <ele>1454.4379882812</ele>
        <time>2017-01-20T12:10:21Z</time>
      </trkpt>
      <trkpt lat="45.30858" lon="5.82471">
        <ele>1454.4379882812</ele>
        <time>2017-01-20T12:10:27Z</time>
      </trkpt>
      <trkpt lat="45.30859" lon="5.82496">
        <ele>1454.4379882812</ele>
        <time>2017-01-20T12:10:36Z</time>
      </trkpt>
      <trkpt lat="45.30863" lon="5.82507">
        <ele>1454.4379882812</ele>
        <time>2017-01-20T12:10:42Z</time>
      </trkpt>
      <trkpt lat="45.30862" lon="5.82518">
        <ele>1456.4379882812</ele>
        <time>2017-01-20T12:10:47Z</time>
      </trkpt>
      <trkpt lat="45.30866" lon="5.82528">
        <ele>1459.4379882812</ele>
        <time>2017-01-20T12:10:53Z</time>
      </trkpt>
      <trkpt lat="45.30865" lon="5.8254">
        <ele>1459.4379882812</ele>
        <time>2017-01-20T12:10:59Z</time>
      </trkpt>
      <trkpt lat="45.30863" lon="5.82551">
        <ele>1462.4379882812</ele>
        <time>2017-01-20T12:11:05Z</time>
      </trkpt>
      <trkpt lat="45.30863" lon="5.82562">
        <ele>1463.4379882812</ele>
        <time>2017-01-20T12:11:11Z</time>
      </trkpt>
      <trkpt lat="45.30862" lon="5.82574">
        <ele>1464.4379882812</ele>
        <time>2017-01-20T12:14:42Z</time>
      </trkpt>
      <trkpt lat="45.30863" lon="5.82585">
        <ele>1460.4379882812</ele>
        <time>2017-01-20T12:15:00Z</time>
      </trkpt>
      <trkpt lat="45.30866" lon="5.82595">
        <ele>1459.4379882812</ele>
        <time>2017-01-20T12:15:06Z</time>
      </trkpt>
      <trkpt lat="45.30864" lon="5.82606">
        <ele>1462.4379882812</ele>
        <time>2017-01-20T12:15:13Z</time>
      </trkpt>
      <trkpt lat="45.30864" lon="5.82617">
        <ele>1463.4379882812</ele>
        <time>2017-01-20T12:15:19Z</time>
      </trkpt>
      <trkpt lat="45.30861" lon="5.82626">
        <ele>1463.4379882812</ele>
        <time>2017-01-20T12:15:27Z</time>
      </trkpt>
      <trkpt lat="45.3086" lon="5.82637">
        <ele>1464.4379882812</ele>
        <time>2017-01-20T12:15:34Z</time>
      </trkpt>
      <trkpt lat="45.30869" lon="5.82641">
        <ele>1464.4379882812</ele>
        <time>2017-01-20T12:15:49Z</time>
      </trkpt>
      <trkpt lat="45.30877" lon="5.82642">
        <ele>1465.4379882812</ele>
        <time>2017-01-20T12:15:55Z</time>
      </trkpt>
      <trkpt lat="45.30885" lon="5.82646">
        <ele>1467.4379882812</ele>
        <time>2017-01-20T12:16:08Z</time>
      </trkpt>
      <trkpt lat="45.30893" lon="5.82649">
        <ele>1469.4379882812</ele>
        <time>2017-01-20T12:16:22Z</time>
      </trkpt>
      <trkpt lat="45.309" lon="5.82652">
        <ele>1478.4379882812</ele>
        <time>2017-01-20T12:16:37Z</time>
      </trkpt>
      <trkpt lat="45.30906" lon="5.82659">
        <ele>1482.4379882812</ele>
        <time>2017-01-20T12:16:50Z</time>
      </trkpt>
      <trkpt lat="45.30913" lon="5.82663">
        <ele>1483.4389648438</ele>
        <time>2017-01-20T12:17:02Z</time>
      </trkpt>
      <trkpt lat="45.30919" lon="5.82669">
        <ele>1486.4389648438</ele>
        <time>2017-01-20T12:17:14Z</time>
      </trkpt>
      <trkpt lat="45.30924" lon="5.82678">
        <ele>1488.4389648438</ele>
        <time>2017-01-20T12:17:30Z</time>
      </trkpt>
      <trkpt lat="45.3093" lon="5.82685">
        <ele>1490.4389648438</ele>
        <time>2017-01-20T12:17:41Z</time>
      </trkpt>
      <trkpt lat="45.30936" lon="5.82693">
        <ele>1495.4389648438</ele>
        <time>2017-01-20T12:17:50Z</time>
      </trkpt>
      <trkpt lat="45.3094" lon="5.82702">
        <ele>1498.4389648438</ele>
        <time>2017-01-20T12:18:01Z</time>
      </trkpt>
      <trkpt lat="45.30946" lon="5.82707">
        <ele>1500.4389648438</ele>
        <time>2017-01-20T12:18:09Z</time>
      </trkpt>
      <trkpt lat="45.30951" lon="5.82715">
        <ele>1501.4389648438</ele>
        <time>2017-01-20T12:18:20Z</time>
      </trkpt>
      <trkpt lat="45.30956" lon="5.82724">
        <ele>1504.4389648438</ele>
        <time>2017-01-20T12:18:30Z</time>
      </trkpt>
      <trkpt lat="45.30962" lon="5.82733">
        <ele>1507.4389648438</ele>
        <time>2017-01-20T12:18:44Z</time>
      </trkpt>
      <trkpt lat="45.30967" lon="5.82741">
        <ele>1510.4389648438</ele>
        <time>2017-01-20T12:18:53Z</time>
      </trkpt>
      <trkpt lat="45.30973" lon="5.82749">
        <ele>1511.4389648438</ele>
        <time>2017-01-20T12:19:04Z</time>
      </trkpt>
      <trkpt lat="45.30977" lon="5.82757">
        <ele>1514.4389648438</ele>
        <time>2017-01-20T12:19:12Z</time>
      </trkpt>
      <trkpt lat="45.30981" lon="5.82767">
        <ele>1515.4389648438</ele>
        <time>2017-01-20T12:19:25Z</time>
      </trkpt>
      <trkpt lat="45.30982" lon="5.82778">
        <ele>1519.4389648438</ele>
        <time>2017-01-20T12:19:33Z</time>
      </trkpt>
      <trkpt lat="45.30983" lon="5.8279">
        <ele>1520.4389648438</ele>
        <time>2017-01-20T12:19:45Z</time>
      </trkpt>
      <trkpt lat="45.30986" lon="5.82799">
        <ele>1522.4389648438</ele>
        <time>2017-01-20T12:19:53Z</time>
      </trkpt>
      <trkpt lat="45.30988" lon="5.82809">
        <ele>1524.4389648438</ele>
        <time>2017-01-20T12:20:01Z</time>
      </trkpt>
      <trkpt lat="45.30989" lon="5.82821">
        <ele>1523.4389648438</ele>
        <time>2017-01-20T12:20:09Z</time>
      </trkpt>
      <trkpt lat="45.30991" lon="5.82831">
        <ele>1526.4389648438</ele>
        <time>2017-01-20T12:20:18Z</time>
      </trkpt>
      <trkpt lat="45.30993" lon="5.82842">
        <ele>1529.4389648438</ele>
        <time>2017-01-20T12:20:26Z</time>
      </trkpt>
      <trkpt lat="45.30994" lon="5.82853">
        <ele>1532.4389648438</ele>
        <time>2017-01-20T12:20:34Z</time>
      </trkpt>
      <trkpt lat="45.30994" lon="5.82863">
        <ele>1532.4389648438</ele>
        <time>2017-01-20T12:20:43Z</time>
      </trkpt>
      <trkpt lat="45.30998" lon="5.82872">
        <ele>1534.4389648438</ele>
        <time>2017-01-20T12:20:53Z</time>
      </trkpt>
      <trkpt lat="45.31005" lon="5.82878">
        <ele>1536.4389648438</ele>
        <time>2017-01-20T12:21:04Z</time>
      </trkpt>
      <trkpt lat="45.31011" lon="5.82883">
        <ele>1538.4389648438</ele>
        <time>2017-01-20T12:21:19Z</time>
      </trkpt>
      <trkpt lat="45.31019" lon="5.82891">
        <ele>1541.4389648438</ele>
        <time>2017-01-20T12:21:30Z</time>
      </trkpt>
      <trkpt lat="45.31023" lon="5.82901">
        <ele>1544.4389648438</ele>
        <time>2017-01-20T12:21:42Z</time>
      </trkpt>
      <trkpt lat="45.31031" lon="5.829">
        <ele>1548.4389648438</ele>
        <time>2017-01-20T12:22:05Z</time>
      </trkpt>
      <trkpt lat="45.31038" lon="5.82896">
        <ele>1549.4389648438</ele>
        <time>2017-01-20T12:22:11Z</time>
      </trkpt>
      <trkpt lat="45.31046" lon="5.82896">
        <ele>1548.4389648438</ele>
        <time>2017-01-20T12:22:18Z</time>
      </trkpt>
      <trkpt lat="45.31054" lon="5.82897">
        <ele>1549.4389648438</ele>
        <time>2017-01-20T12:22:27Z</time>
      </trkpt>
      <trkpt lat="45.31063" lon="5.82897">
        <ele>1553.4389648438</ele>
        <time>2017-01-20T12:22:34Z</time>
      </trkpt>
      <trkpt lat="45.31071" lon="5.82899">
        <ele>1554.4389648438</ele>
        <time>2017-01-20T12:22:40Z</time>
      </trkpt>
      <trkpt lat="45.31078" lon="5.82899">
        <ele>1556.4389648438</ele>
        <time>2017-01-20T12:22:47Z</time>
      </trkpt>
      <trkpt lat="45.31085" lon="5.82901">
        <ele>1558.4389648438</ele>
        <time>2017-01-20T12:22:54Z</time>
      </trkpt>
      <trkpt lat="45.31092" lon="5.82903">
        <ele>1558.4389648438</ele>
        <time>2017-01-20T12:23:00Z</time>
      </trkpt>
      <trkpt lat="45.311" lon="5.82904">
        <ele>1561.4389648438</ele>
        <time>2017-01-20T12:23:07Z</time>
      </trkpt>
      <trkpt lat="45.31108" lon="5.82907">
        <ele>1565.4389648438</ele>
        <time>2017-01-20T12:23:18Z</time>
      </trkpt>
      <trkpt lat="45.31115" lon="5.82909">
        <ele>1566.4389648438</ele>
        <time>2017-01-20T12:23:25Z</time>
      </trkpt>
      <trkpt lat="45.31123" lon="5.82912">
        <ele>1568.4389648438</ele>
        <time>2017-01-20T12:23:32Z</time>
      </trkpt>
      <trkpt lat="45.3113" lon="5.82915">
        <ele>1565.4389648438</ele>
        <time>2017-01-20T12:23:38Z</time>
      </trkpt>
      <trkpt lat="45.31138" lon="5.82917">
        <ele>1565.4389648438</ele>
        <time>2017-01-20T12:23:47Z</time>
      </trkpt>
      <trkpt lat="45.31146" lon="5.82919">
        <ele>1566.4389648438</ele>
        <time>2017-01-20T12:23:55Z</time>
      </trkpt>
      <trkpt lat="45.31152" lon="5.82923">
        <ele>1571.4389648438</ele>
        <time>2017-01-20T12:24:04Z</time>
      </trkpt>
      <trkpt lat="45.3116" lon="5.82928">
        <ele>1572.4389648438</ele>
        <time>2017-01-20T12:24:13Z</time>
      </trkpt>
      <trkpt lat="45.31167" lon="5.82931">
        <ele>1574.4389648438</ele>
        <time>2017-01-20T12:24:20Z</time>
      </trkpt>
      <trkpt lat="45.31175" lon="5.82933">
        <ele>1573.4389648438</ele>
        <time>2017-01-20T12:24:25Z</time>
      </trkpt>
      <trkpt lat="45.31183" lon="5.82932">
        <ele>1573.4389648438</ele>
        <time>2017-01-20T12:24:33Z</time>
      </trkpt>
      <trkpt lat="45.31184" lon="5.82943">
        <ele>1577.4389648438</ele>
        <time>2017-01-20T12:24:42Z</time>
      </trkpt>
      <trkpt lat="45.31182" lon="5.82953">
        <ele>1580.4389648438</ele>
        <time>2017-01-20T12:24:53Z</time>
      </trkpt>
      <trkpt lat="45.31178" lon="5.82963">
        <ele>1579.4389648438</ele>
        <time>2017-01-20T12:25:00Z</time>
      </trkpt>
      <trkpt lat="45.31172" lon="5.82971">
        <ele>1583.4389648438</ele>
        <time>2017-01-20T12:25:06Z</time>
      </trkpt>
      <trkpt lat="45.31169" lon="5.82982">
        <ele>1585.4389648438</ele>
        <time>2017-01-20T12:25:13Z</time>
      </trkpt>
      <trkpt lat="45.31165" lon="5.82991">
        <ele>1587.4389648438</ele>
        <time>2017-01-20T12:25:21Z</time>
      </trkpt>
      <trkpt lat="45.31159" lon="5.82997">
        <ele>1590.4389648438</ele>
        <time>2017-01-20T12:25:28Z</time>
      </trkpt>
      <trkpt lat="45.31152" lon="5.83003">
        <ele>1592.4389648438</ele>
        <time>2017-01-20T12:25:35Z</time>
      </trkpt>
      <trkpt lat="45.31146" lon="5.83008">
        <ele>1594.4389648438</ele>
        <time>2017-01-20T12:25:43Z</time>
      </trkpt>
      <trkpt lat="45.31141" lon="5.83016">
        <ele>1592.4389648438</ele>
        <time>2017-01-20T12:25:50Z</time>
      </trkpt>
      <trkpt lat="45.31137" lon="5.83024">
        <ele>1595.4389648438</ele>
        <time>2017-01-20T12:25:59Z</time>
      </trkpt>
      <trkpt lat="45.31134" lon="5.83035">
        <ele>1597.4389648438</ele>
        <time>2017-01-20T12:26:09Z</time>
      </trkpt>
      <trkpt lat="45.31134" lon="5.83046">
        <ele>1599.4389648438</ele>
        <time>2017-01-20T12:26:20Z</time>
      </trkpt>
      <trkpt lat="45.31132" lon="5.83056">
        <ele>1599.4389648438</ele>
        <time>2017-01-20T12:26:29Z</time>
      </trkpt>
      <trkpt lat="45.31133" lon="5.83066">
        <ele>1599.4399414062</ele>
        <time>2017-01-20T12:26:37Z</time>
      </trkpt>
      <trkpt lat="45.31134" lon="5.83077">
        <ele>1600.4399414062</ele>
        <time>2017-01-20T12:26:44Z</time>
      </trkpt>
      <trkpt lat="45.31132" lon="5.83089">
        <ele>1602.4399414062</ele>
        <time>2017-01-20T12:26:51Z</time>
      </trkpt>
      <trkpt lat="45.31131" lon="5.83099">
        <ele>1607.4399414062</ele>
        <time>2017-01-20T12:26:59Z</time>
      </trkpt>
      <trkpt lat="45.31129" lon="5.8311">
        <ele>1611.4399414062</ele>
        <time>2017-01-20T12:27:08Z</time>
      </trkpt>
      <trkpt lat="45.31131" lon="5.83121">
        <ele>1612.4399414062</ele>
        <time>2017-01-20T12:27:16Z</time>
      </trkpt>
      <trkpt lat="45.31132" lon="5.83132">
        <ele>1614.4399414062</ele>
        <time>2017-01-20T12:27:26Z</time>
      </trkpt>
      <trkpt lat="45.31134" lon="5.83143">
        <ele>1616.4399414062</ele>
        <time>2017-01-20T12:27:32Z</time>
      </trkpt>
      <trkpt lat="45.31136" lon="5.83155">
        <ele>1620.4399414062</ele>
        <time>2017-01-20T12:29:16Z</time>
      </trkpt>
      <trkpt lat="45.31139" lon="5.83166">
        <ele>1620.4399414062</ele>
        <time>2017-01-20T12:29:24Z</time>
      </trkpt>
      <trkpt lat="45.31137" lon="5.83176">
        <ele>1619.4399414062</ele>
        <time>2017-01-20T12:29:33Z</time>
      </trkpt>
      <trkpt lat="45.31133" lon="5.83186">
        <ele>1620.4399414062</ele>
        <time>2017-01-20T12:29:40Z</time>
      </trkpt>
      <trkpt lat="45.31127" lon="5.83191">
        <ele>1621.4399414062</ele>
        <time>2017-01-20T12:29:47Z</time>
      </trkpt>
      <trkpt lat="45.31121" lon="5.83196">
        <ele>1623.4399414062</ele>
        <time>2017-01-20T12:29:55Z</time>
      </trkpt>
      <trkpt lat="45.31114" lon="5.83202">
        <ele>1626.4399414062</ele>
        <time>2017-01-20T12:30:07Z</time>
      </trkpt>
      <trkpt lat="45.31106" lon="5.83207">
        <ele>1627.4399414062</ele>
        <time>2017-01-20T12:30:17Z</time>
      </trkpt>
      <trkpt lat="45.31099" lon="5.83207">
        <ele>1629.4399414062</ele>
        <time>2017-01-20T12:30:29Z</time>
      </trkpt>
      <trkpt lat="45.31103" lon="5.83216">
        <ele>1633.4399414062</ele>
        <time>2017-01-20T12:30:45Z</time>
      </trkpt>
      <trkpt lat="45.3111" lon="5.83219">
        <ele>1635.4399414062</ele>
        <time>2017-01-20T12:30:52Z</time>
      </trkpt>
      <trkpt lat="45.31114" lon="5.83228">
        <ele>1637.4399414062</ele>
        <time>2017-01-20T12:31:04Z</time>
      </trkpt>
      <trkpt lat="45.3112" lon="5.83236">
        <ele>1637.4399414062</ele>
        <time>2017-01-20T12:31:14Z</time>
      </trkpt>
      <trkpt lat="45.31125" lon="5.83244">
        <ele>1639.4399414062</ele>
        <time>2017-01-20T12:31:27Z</time>
      </trkpt>
      <trkpt lat="45.31117" lon="5.83244">
        <ele>1647.4399414062</ele>
        <time>2017-01-20T12:31:51Z</time>
      </trkpt>
      <trkpt lat="45.31109" lon="5.83242">
        <ele>1649.4399414062</ele>
        <time>2017-01-20T12:32:08Z</time>
      </trkpt>
      <trkpt lat="45.31102" lon="5.83239">
        <ele>1650.4399414062</ele>
        <time>2017-01-20T12:32:17Z</time>
      </trkpt>
      <trkpt lat="45.31094" lon="5.83243">
        <ele>1650.4399414062</ele>
        <time>2017-01-20T12:32:25Z</time>
      </trkpt>
      <trkpt lat="45.31087" lon="5.83242">
        <ele>1650.4399414062</ele>
        <time>2017-01-20T12:32:34Z</time>
      </trkpt>
      <trkpt lat="45.3108" lon="5.83247">
        <ele>1649.4399414062</ele>
        <time>2017-01-20T12:32:44Z</time>
      </trkpt>
      <trkpt lat="45.31077" lon="5.83256">
        <ele>1652.4399414062</ele>
        <time>2017-01-20T12:32:58Z</time>
      </trkpt>
      <trkpt lat="45.31083" lon="5.83262">
        <ele>1657.4399414062</ele>
        <time>2017-01-20T12:33:07Z</time>
      </trkpt>
      <trkpt lat="45.31091" lon="5.83268">
        <ele>1659.4399414062</ele>
        <time>2017-01-20T12:33:19Z</time>
      </trkpt>
      <trkpt lat="45.31098" lon="5.83272">
        <ele>1657.4399414062</ele>
        <time>2017-01-20T12:33:29Z</time>
      </trkpt>
      <trkpt lat="45.31105" lon="5.83278">
        <ele>1658.4399414062</ele>
        <time>2017-01-20T12:33:37Z</time>
      </trkpt>
      <trkpt lat="45.31113" lon="5.83281">
        <ele>1657.4399414062</ele>
        <time>2017-01-20T12:33:43Z</time>
      </trkpt>
      <trkpt lat="45.31119" lon="5.83287">
        <ele>1657.4399414062</ele>
        <time>2017-01-20T12:33:50Z</time>
      </trkpt>
      <trkpt lat="45.31124" lon="5.83296">
        <ele>1659.4399414062</ele>
        <time>2017-01-20T12:33:59Z</time>
      </trkpt>
      <trkpt lat="45.3113" lon="5.83303">
        <ele>1666.4399414062</ele>
        <time>2017-01-20T12:34:12Z</time>
      </trkpt>
      <trkpt lat="45.31121" lon="5.83306">
        <ele>1674.4399414062</ele>
        <time>2017-01-20T12:34:33Z</time>
      </trkpt>
      <trkpt lat="45.31113" lon="5.83309">
        <ele>1679.4399414062</ele>
        <time>2017-01-20T12:34:45Z</time>
      </trkpt>
      <trkpt lat="45.3112" lon="5.83314">
        <ele>1683.4399414062</ele>
        <time>2017-01-20T12:34:59Z</time>
      </trkpt>
      <trkpt lat="45.31124" lon="5.83323">
        <ele>1679.4399414062</ele>
        <time>2017-01-20T12:35:10Z</time>
      </trkpt>
      <trkpt lat="45.3113" lon="5.83329">
        <ele>1679.4399414062</ele>
        <time>2017-01-20T12:35:20Z</time>
      </trkpt>
      <trkpt lat="45.31135" lon="5.83336">
        <ele>1680.4399414062</ele>
        <time>2017-01-20T12:35:27Z</time>
      </trkpt>
      <trkpt lat="45.31141" lon="5.83343">
        <ele>1682.4399414062</ele>
        <time>2017-01-20T12:35:43Z</time>
      </trkpt>
      <trkpt lat="45.3114" lon="5.83353">
        <ele>1685.4399414062</ele>
        <time>2017-01-20T12:35:58Z</time>
      </trkpt>
      <trkpt lat="45.31133" lon="5.83358">
        <ele>1688.4399414062</ele>
        <time>2017-01-20T12:36:13Z</time>
      </trkpt>
      <trkpt lat="45.31127" lon="5.83365">
        <ele>1694.4399414062</ele>
        <time>2017-01-20T12:36:34Z</time>
      </trkpt>
      <trkpt lat="45.31121" lon="5.83372">
        <ele>1695.4399414062</ele>
        <time>2017-01-20T12:36:41Z</time>
      </trkpt>
      <trkpt lat="45.31115" lon="5.83379">
        <ele>1697.4399414062</ele>
        <time>2017-01-20T12:36:52Z</time>
      </trkpt>
      <trkpt lat="45.31108" lon="5.83385">
        <ele>1699.4399414062</ele>
        <time>2017-01-20T12:37:02Z</time>
      </trkpt>
      <trkpt lat="45.31102" lon="5.83391">
        <ele>1701.4399414062</ele>
        <time>2017-01-20T12:37:12Z</time>
      </trkpt>
      <trkpt lat="45.31097" lon="5.83398">
        <ele>1700.4399414062</ele>
        <time>2017-01-20T12:37:24Z</time>
      </trkpt>
      <trkpt lat="45.31095" lon="5.83409">
        <ele>1705.4399414062</ele>
        <time>2017-01-20T12:37:38Z</time>
      </trkpt>
      <trkpt lat="45.31094" lon="5.83419">
        <ele>1708.4399414062</ele>
        <time>2017-01-20T12:37:52Z</time>
      </trkpt>
      <trkpt lat="45.31101" lon="5.83423">
        <ele>1714.4399414062</ele>
        <time>2017-01-20T12:38:13Z</time>
      </trkpt>
      <trkpt lat="45.31108" lon="5.83427">
        <ele>1717.4399414062</ele>
        <time>2017-01-20T12:38:51Z</time>
      </trkpt>
      <trkpt lat="45.31105" lon="5.83436">
        <ele>1717.4399414062</ele>
        <time>2017-01-20T12:39:19Z</time>
      </trkpt>
      <trkpt lat="45.31102" lon="5.83447">
        <ele>1719.4399414062</ele>
        <time>2017-01-20T12:39:39Z</time>
      </trkpt>
      <trkpt lat="45.31098" lon="5.83456">
        <ele>1719.4399414062</ele>
        <time>2017-01-20T12:39:47Z</time>
      </trkpt>
      <trkpt lat="45.31106" lon="5.83458">
        <ele>1729.4399414062</ele>
        <time>2017-01-20T12:43:53Z</time>
      </trkpt>
      <trkpt lat="45.31112" lon="5.83464">
        <ele>1732.4399414062</ele>
        <time>2017-01-20T12:44:03Z</time>
      </trkpt>
      <trkpt lat="45.31107" lon="5.83473">
        <ele>1734.4399414062</ele>
        <time>2017-01-20T12:44:14Z</time>
      </trkpt>
      <trkpt lat="45.31104" lon="5.83483">
        <ele>1738.4399414062</ele>
        <time>2017-01-20T12:44:26Z</time>
      </trkpt>
      <trkpt lat="45.31101" lon="5.83493">
        <ele>1737.4399414062</ele>
        <time>2017-01-20T12:44:37Z</time>
      </trkpt>
      <trkpt lat="45.31097" lon="5.83502">
        <ele>1742.4399414062</ele>
        <time>2017-01-20T12:44:48Z</time>
      </trkpt>
      <trkpt lat="45.31096" lon="5.83513">
        <ele>1743.4399414062</ele>
        <time>2017-01-20T12:44:58Z</time>
      </trkpt>
      <trkpt lat="45.31095" lon="5.83525">
        <ele>1745.4399414062</ele>
        <time>2017-01-20T12:45:09Z</time>
      </trkpt>
      <trkpt lat="45.31091" lon="5.83534">
        <ele>1747.4399414062</ele>
        <time>2017-01-20T12:45:22Z</time>
      </trkpt>
      <trkpt lat="45.31096" lon="5.83542">
        <ele>1751.4399414062</ele>
        <time>2017-01-20T12:45:39Z</time>
      </trkpt>
      <trkpt lat="45.31104" lon="5.83542">
        <ele>1754.4399414062</ele>
        <time>2017-01-20T12:45:53Z</time>
      </trkpt>
      <trkpt lat="45.31113" lon="5.83539">
        <ele>1758.4399414062</ele>
        <time>2017-01-20T12:46:03Z</time>
      </trkpt>
      <trkpt lat="45.31121" lon="5.83541">
        <ele>1757.4399414062</ele>
        <time>2017-01-20T12:46:17Z</time>
      </trkpt>
      <trkpt lat="45.31129" lon="5.83545">
        <ele>1761.4399414062</ele>
        <time>2017-01-20T12:46:29Z</time>
      </trkpt>
      <trkpt lat="45.31138" lon="5.83545">
        <ele>1761.4399414062</ele>
        <time>2017-01-20T12:46:35Z</time>
      </trkpt>
      <trkpt lat="45.31131" lon="5.83549">
        <ele>1759.4399414062</ele>
        <time>2017-01-20T12:50:40Z</time>
      </trkpt>
      <trkpt lat="45.31123" lon="5.83551">
        <ele>1756.4399414062</ele>
        <time>2017-01-20T12:50:52Z</time>
      </trkpt>
      <trkpt lat="45.31116" lon="5.83544">
        <ele>1755.4399414062</ele>
        <time>2017-01-20T12:51:01Z</time>
      </trkpt>
      <trkpt lat="45.31109" lon="5.83539">
        <ele>1756.4399414062</ele>
        <time>2017-01-20T12:51:07Z</time>
      </trkpt>
      <trkpt lat="45.31104" lon="5.83514">
        <ele>1751.4399414062</ele>
        <time>2017-01-20T12:51:12Z</time>
      </trkpt>
      <trkpt lat="45.31089" lon="5.83493">
        <ele>1738.4399414062</ele>
        <time>2017-01-20T12:51:23Z</time>
      </trkpt>
      <trkpt lat="45.31085" lon="5.8348">
        <ele>1734.4399414062</ele>
        <time>2017-01-20T12:51:36Z</time>
      </trkpt>
      <trkpt lat="45.31078" lon="5.83454">
        <ele>1721.4399414062</ele>
        <time>2017-01-20T12:51:40Z</time>
      </trkpt>
      <trkpt lat="45.31067" lon="5.83424">
        <ele>1713.4399414062</ele>
        <time>2017-01-20T12:51:45Z</time>
      </trkpt>
      <trkpt lat="45.31066" lon="5.83396">
        <ele>1709.4399414062</ele>
        <time>2017-01-20T12:51:50Z</time>
      </trkpt>
      <trkpt lat="45.31053" lon="5.83363">
        <ele>1696.4399414062</ele>
        <time>2017-01-20T12:51:56Z</time>
      </trkpt>
      <trkpt lat="45.31047" lon="5.83326">
        <ele>1691.4399414062</ele>
        <time>2017-01-20T12:52:01Z</time>
      </trkpt>
      <trkpt lat="45.31049" lon="5.83299">
        <ele>1676.4399414062</ele>
        <time>2017-01-20T12:52:05Z</time>
      </trkpt>
      <trkpt lat="45.31039" lon="5.83263">
        <ele>1660.4399414062</ele>
        <time>2017-01-20T12:52:11Z</time>
      </trkpt>
      <trkpt lat="45.31036" lon="5.83247">
        <ele>1654.4399414062</ele>
        <time>2017-01-20T12:52:14Z</time>
      </trkpt>
      <trkpt lat="45.3104" lon="5.83238">
        <ele>1652.4399414062</ele>
        <time>2017-01-20T12:52:16Z</time>
      </trkpt>
      <trkpt lat="45.3105" lon="5.83222">
        <ele>1650.4399414062</ele>
        <time>2017-01-20T12:52:22Z</time>
      </trkpt>
      <trkpt lat="45.3105" lon="5.8321">
        <ele>1645.4399414062</ele>
        <time>2017-01-20T12:52:38Z</time>
      </trkpt>
      <trkpt lat="45.31042" lon="5.8321">
        <ele>1643.4399414062</ele>
        <time>2017-01-20T12:52:45Z</time>
      </trkpt>
      <trkpt lat="45.31034" lon="5.8319">
        <ele>1640.4389648438</ele>
        <time>2017-01-20T12:52:50Z</time>
      </trkpt>
      <trkpt lat="45.31013" lon="5.83165">
        <ele>1631.4389648438</ele>
        <time>2017-01-20T12:52:56Z</time>
      </trkpt>
      <trkpt lat="45.30998" lon="5.83127">
        <ele>1615.4389648438</ele>
        <time>2017-01-20T12:53:02Z</time>
      </trkpt>
      <trkpt lat="45.3099" lon="5.8309">
        <ele>1607.4389648438</ele>
        <time>2017-01-20T12:53:07Z</time>
      </trkpt>
      <trkpt lat="45.30986" lon="5.83073">
        <ele>1602.4389648438</ele>
        <time>2017-01-20T12:53:09Z</time>
      </trkpt>
      <trkpt lat="45.30993" lon="5.83067">
        <ele>1591.4389648438</ele>
        <time>2017-01-20T12:53:34Z</time>
      </trkpt>
      <trkpt lat="45.31011" lon="5.83054">
        <ele>1588.4389648438</ele>
        <time>2017-01-20T12:53:39Z</time>
      </trkpt>
      <trkpt lat="45.31001" lon="5.83032">
        <ele>1579.4389648438</ele>
        <time>2017-01-20T12:53:44Z</time>
      </trkpt>
      <trkpt lat="45.30995" lon="5.83014">
        <ele>1570.4389648438</ele>
        <time>2017-01-20T12:53:52Z</time>
      </trkpt>
      <trkpt lat="45.30999" lon="5.83">
        <ele>1562.4389648438</ele>
        <time>2017-01-20T12:54:03Z</time>
      </trkpt>
      <trkpt lat="45.30983" lon="5.82996">
        <ele>1556.4389648438</ele>
        <time>2017-01-20T12:54:08Z</time>
      </trkpt>
      <trkpt lat="45.30959" lon="5.82974">
        <ele>1550.4389648438</ele>
        <time>2017-01-20T12:54:13Z</time>
      </trkpt>
      <trkpt lat="45.30939" lon="5.82961">
        <ele>1545.4389648438</ele>
        <time>2017-01-20T12:54:19Z</time>
      </trkpt>
      <trkpt lat="45.30924" lon="5.82934">
        <ele>1543.4389648438</ele>
        <time>2017-01-20T12:54:25Z</time>
      </trkpt>
      <trkpt lat="45.30917" lon="5.82924">
        <ele>1540.4389648438</ele>
        <time>2017-01-20T12:54:30Z</time>
      </trkpt>
      <trkpt lat="45.3089" lon="5.82921">
        <ele>1535.4389648438</ele>
        <time>2017-01-20T12:54:35Z</time>
      </trkpt>
      <trkpt lat="45.30854" lon="5.82924">
        <ele>1528.4389648438</ele>
        <time>2017-01-20T12:54:40Z</time>
      </trkpt>
      <trkpt lat="45.30845" lon="5.82932">
        <ele>1528.4389648438</ele>
        <time>2017-01-20T12:54:43Z</time>
      </trkpt>
      <trkpt lat="45.30839" lon="5.82938">
        <ele>1526.4389648438</ele>
        <time>2017-01-20T12:54:45Z</time>
      </trkpt>
      <trkpt lat="45.30825" lon="5.82945">
        <ele>1522.4389648438</ele>
        <time>2017-01-20T12:54:55Z</time>
      </trkpt>
      <trkpt lat="45.3082" lon="5.82955">
        <ele>1518.4389648438</ele>
        <time>2017-01-20T12:55:01Z</time>
      </trkpt>
      <trkpt lat="45.30806" lon="5.82994">
        <ele>1513.4389648438</ele>
        <time>2017-01-20T12:55:06Z</time>
      </trkpt>
      <trkpt lat="45.308" lon="5.83038">
        <ele>1512.4389648438</ele>
        <time>2017-01-20T12:55:10Z</time>
      </trkpt>
      <trkpt lat="45.3079" lon="5.83055">
        <ele>1507.4389648438</ele>
        <time>2017-01-20T12:55:27Z</time>
      </trkpt>
      <trkpt lat="45.30785" lon="5.83099">
        <ele>1501.4389648438</ele>
        <time>2017-01-20T12:55:33Z</time>
      </trkpt>
      <trkpt lat="45.30759" lon="5.83145">
        <ele>1497.4389648438</ele>
        <time>2017-01-20T12:55:38Z</time>
      </trkpt>
      <trkpt lat="45.30731" lon="5.83179">
        <ele>1495.4389648438</ele>
        <time>2017-01-20T12:55:43Z</time>
      </trkpt>
      <trkpt lat="45.30705" lon="5.83206">
        <ele>1493.4389648438</ele>
        <time>2017-01-20T12:55:48Z</time>
      </trkpt>
      <trkpt lat="45.30674" lon="5.83248">
        <ele>1487.4389648438</ele>
        <time>2017-01-20T12:55:54Z</time>
      </trkpt>
      <trkpt lat="45.3064" lon="5.83274">
        <ele>1485.4389648438</ele>
        <time>2017-01-20T12:55:59Z</time>
      </trkpt>
      <trkpt lat="45.30605" lon="5.833">
        <ele>1479.4389648438</ele>
        <time>2017-01-20T12:56:04Z</time>
      </trkpt>
      <trkpt lat="45.30597" lon="5.83308">
        <ele>1478.4389648438</ele>
        <time>2017-01-20T12:56:06Z</time>
      </trkpt>
      <trkpt lat="45.30561" lon="5.83332">
        <ele>1471.4389648438</ele>
        <time>2017-01-20T12:56:11Z</time>
      </trkpt>
      <trkpt lat="45.30544" lon="5.83343">
        <ele>1468.4389648438</ele>
        <time>2017-01-20T12:56:13Z</time>
      </trkpt>
      <trkpt lat="45.30501" lon="5.83361">
        <ele>1462.4389648438</ele>
        <time>2017-01-20T12:56:18Z</time>
      </trkpt>
      <trkpt lat="45.30491" lon="5.83364">
        <ele>1461.4389648438</ele>
        <time>2017-01-20T12:56:19Z</time>
      </trkpt>
      <trkpt lat="45.30459" lon="5.83386">
        <ele>1458.4389648438</ele>
        <time>2017-01-20T12:56:23Z</time>
      </trkpt>
      <trkpt lat="45.3043" lon="5.83407">
        <ele>1456.4379882812</ele>
        <time>2017-01-20T12:56:28Z</time>
      </trkpt>
      <trkpt lat="45.30393" lon="5.83448">
        <ele>1447.4379882812</ele>
        <time>2017-01-20T12:56:34Z</time>
      </trkpt>
      <trkpt lat="45.30355" lon="5.83467">
        <ele>1445.4379882812</ele>
        <time>2017-01-20T12:56:39Z</time>
      </trkpt>
      <trkpt lat="45.30357" lon="5.83479">
        <ele>1445.4379882812</ele>
        <time>2017-01-20T12:56:43Z</time>
      </trkpt>
      <trkpt lat="45.30355" lon="5.8349">
        <ele>1445.4379882812</ele>
        <time>2017-01-20T12:56:53Z</time>
      </trkpt>
      <trkpt lat="45.3035" lon="5.83498">
        <ele>1438.4379882812</ele>
        <time>2017-01-20T12:57:10Z</time>
      </trkpt>
      <trkpt lat="45.3035" lon="5.83509">
        <ele>1431.4379882812</ele>
        <time>2017-01-20T12:59:24Z</time>
      </trkpt>
      <trkpt lat="45.30345" lon="5.83518">
        <ele>1430.4379882812</ele>
        <time>2017-01-20T12:59:30Z</time>
      </trkpt>
      <trkpt lat="45.3034" lon="5.83526">
        <ele>1430.4379882812</ele>
        <time>2017-01-20T12:59:38Z</time>
      </trkpt>
      <trkpt lat="45.30334" lon="5.83533">
        <ele>1431.4379882812</ele>
        <time>2017-01-20T12:59:44Z</time>
      </trkpt>
      <trkpt lat="45.30329" lon="5.83541">
        <ele>1430.4379882812</ele>
        <time>2017-01-20T12:59:53Z</time>
      </trkpt>
      <trkpt lat="45.30322" lon="5.83547">
        <ele>1431.4379882812</ele>
        <time>2017-01-20T13:00:00Z</time>
      </trkpt>
      <trkpt lat="45.30316" lon="5.83555">
        <ele>1432.4379882812</ele>
        <time>2017-01-20T13:00:08Z</time>
      </trkpt>
      <trkpt lat="45.30309" lon="5.83561">
        <ele>1431.4379882812</ele>
        <time>2017-01-20T13:00:15Z</time>
      </trkpt>
      <trkpt lat="45.30303" lon="5.83569">
        <ele>1431.4379882812</ele>
        <time>2017-01-20T13:00:24Z</time>
      </trkpt>
      <trkpt lat="45.30298" lon="5.83578">
        <ele>1432.4379882812</ele>
        <time>2017-01-20T13:00:30Z</time>
      </trkpt>
      <trkpt lat="45.30294" lon="5.83586">
        <ele>1432.4379882812</ele>
        <time>2017-01-20T13:00:39Z</time>
      </trkpt>
      <trkpt lat="45.3029" lon="5.83597">
        <ele>1433.4379882812</ele>
        <time>2017-01-20T13:00:49Z</time>
      </trkpt>
      <trkpt lat="45.30284" lon="5.83605">
        <ele>1435.4379882812</ele>
        <time>2017-01-20T13:01:08Z</time>
      </trkpt>
      <trkpt lat="45.30282" lon="5.83616">
        <ele>1435.4379882812</ele>
        <time>2017-01-20T13:01:17Z</time>
      </trkpt>
      <trkpt lat="45.30276" lon="5.83625">
        <ele>1439.4379882812</ele>
        <time>2017-01-20T13:01:27Z</time>
      </trkpt>
      <trkpt lat="45.30271" lon="5.83633">
        <ele>1443.4379882812</ele>
        <time>2017-01-20T13:01:34Z</time>
      </trkpt>
      <trkpt lat="45.30265" lon="5.83641">
        <ele>1445.4379882812</ele>
        <time>2017-01-20T13:01:41Z</time>
      </trkpt>
      <trkpt lat="45.3026" lon="5.83648">
        <ele>1446.4379882812</ele>
        <time>2017-01-20T13:01:49Z</time>
      </trkpt>
      <trkpt lat="45.30256" lon="5.83656">
        <ele>1446.4379882812</ele>
        <time>2017-01-20T13:01:56Z</time>
      </trkpt>
      <trkpt lat="45.30252" lon="5.83665">
        <ele>1441.4379882812</ele>
        <time>2017-01-20T13:02:03Z</time>
      </trkpt>
      <trkpt lat="45.30249" lon="5.83675">
        <ele>1441.4379882812</ele>
        <time>2017-01-20T13:02:10Z</time>
      </trkpt>
      <trkpt lat="45.30245" lon="5.83684">
        <ele>1441.4379882812</ele>
        <time>2017-01-20T13:02:21Z</time>
      </trkpt>
      <trkpt lat="45.3025" lon="5.83694">
        <ele>1441.4389648438</ele>
        <time>2017-01-20T13:02:51Z</time>
      </trkpt>
      <trkpt lat="45.30255" lon="5.83704">
        <ele>1438.4389648438</ele>
        <time>2017-01-20T13:03:03Z</time>
      </trkpt>
      <trkpt lat="45.30262" lon="5.83706">
        <ele>1436.4389648438</ele>
        <time>2017-01-20T13:03:32Z</time>
      </trkpt>
      <trkpt lat="45.30277" lon="5.83713">
        <ele>1436.4389648438</ele>
        <time>2017-01-20T13:03:39Z</time>
      </trkpt>
      <trkpt lat="45.3029" lon="5.83729">
        <ele>1436.4389648438</ele>
        <time>2017-01-20T13:03:44Z</time>
      </trkpt>
      <trkpt lat="45.3031" lon="5.83752">
        <ele>1436.4389648438</ele>
        <time>2017-01-20T13:03:50Z</time>
      </trkpt>
      <trkpt lat="45.30339" lon="5.83776">
        <ele>1434.4389648438</ele>
        <time>2017-01-20T13:03:56Z</time>
      </trkpt>
      <trkpt lat="45.30374" lon="5.83795">
        <ele>1432.4389648438</ele>
        <time>2017-01-20T13:04:02Z</time>
      </trkpt>
      <trkpt lat="45.30399" lon="5.83825">
        <ele>1428.4389648438</ele>
        <time>2017-01-20T13:04:08Z</time>
      </trkpt>
      <trkpt lat="45.30409" lon="5.83845">
        <ele>1427.4389648438</ele>
        <time>2017-01-20T13:04:12Z</time>
      </trkpt>
      <trkpt lat="45.30419" lon="5.83863">
        <ele>1424.4389648438</ele>
        <time>2017-01-20T13:04:17Z</time>
      </trkpt>
      <trkpt lat="45.3043" lon="5.83882">
        <ele>1421.4389648438</ele>
        <time>2017-01-20T13:04:23Z</time>
      </trkpt>
      <trkpt lat="45.30446" lon="5.83901">
        <ele>1419.4389648438</ele>
        <time>2017-01-20T13:04:29Z</time>
      </trkpt>
      <trkpt lat="45.30462" lon="5.83915">
        <ele>1416.4389648438</ele>
        <time>2017-01-20T13:04:34Z</time>
      </trkpt>
      <trkpt lat="45.30477" lon="5.83939">
        <ele>1411.4389648438</ele>
        <time>2017-01-20T13:04:49Z</time>
      </trkpt>
      <trkpt lat="45.30468" lon="5.83975">
        <ele>1408.4389648438</ele>
        <time>2017-01-20T13:04:54Z</time>
      </trkpt>
      <trkpt lat="45.30455" lon="5.84017">
        <ele>1400.4389648438</ele>
        <time>2017-01-20T13:05:00Z</time>
      </trkpt>
      <trkpt lat="45.30443" lon="5.84026">
        <ele>1398.4389648438</ele>
        <time>2017-01-20T13:05:27Z</time>
      </trkpt>
      <trkpt lat="45.30427" lon="5.84016">
        <ele>1393.4389648438</ele>
        <time>2017-01-20T13:05:32Z</time>
      </trkpt>
      <trkpt lat="45.30417" lon="5.84012">
        <ele>1392.4389648438</ele>
        <time>2017-01-20T13:05:34Z</time>
      </trkpt>
      <trkpt lat="45.30397" lon="5.84004">
        <ele>1388.4389648438</ele>
        <time>2017-01-20T13:05:38Z</time>
      </trkpt>
      <trkpt lat="45.30373" lon="5.83979">
        <ele>1386.4389648438</ele>
        <time>2017-01-20T13:05:45Z</time>
      </trkpt>
      <trkpt lat="45.30358" lon="5.83958">
        <ele>1384.4389648438</ele>
        <time>2017-01-20T13:05:50Z</time>
      </trkpt>
      <trkpt lat="45.30348" lon="5.83964">
        <ele>1380.4389648438</ele>
        <time>2017-01-20T13:05:59Z</time>
      </trkpt>
      <trkpt lat="45.3034" lon="5.8397">
        <ele>1378.4389648438</ele>
        <time>2017-01-20T13:06:01Z</time>
      </trkpt>
      <trkpt lat="45.30338" lon="5.83997">
        <ele>1373.4389648438</ele>
        <time>2017-01-20T13:06:06Z</time>
      </trkpt>
      <trkpt lat="45.30334" lon="5.84039">
        <ele>1366.4389648438</ele>
        <time>2017-01-20T13:06:12Z</time>
      </trkpt>
      <trkpt lat="45.30323" lon="5.84034">
        <ele>1363.4389648438</ele>
        <time>2017-01-20T13:06:14Z</time>
      </trkpt>
      <trkpt lat="45.30295" lon="5.84002">
        <ele>1360.4389648438</ele>
        <time>2017-01-20T13:06:20Z</time>
      </trkpt>
      <trkpt lat="45.30267" lon="5.8398">
        <ele>1358.4389648438</ele>
        <time>2017-01-20T13:06:26Z</time>
      </trkpt>
      <trkpt lat="45.30261" lon="5.83973">
        <ele>1357.4389648438</ele>
        <time>2017-01-20T13:06:28Z</time>
      </trkpt>
      <trkpt lat="45.30238" lon="5.83952">
        <ele>1356.4389648438</ele>
        <time>2017-01-20T13:06:35Z</time>
      </trkpt>
      <trkpt lat="45.30213" lon="5.83944">
        <ele>1354.4389648438</ele>
        <time>2017-01-20T13:06:41Z</time>
      </trkpt>
      <trkpt lat="45.3018" lon="5.83949">
        <ele>1351.4389648438</ele>
        <time>2017-01-20T13:06:47Z</time>
      </trkpt>
      <trkpt lat="45.30169" lon="5.83954">
        <ele>1350.4389648438</ele>
        <time>2017-01-20T13:06:49Z</time>
      </trkpt>
      <trkpt lat="45.30172" lon="5.83971">
        <ele>1347.4389648438</ele>
        <time>2017-01-20T13:06:57Z</time>
      </trkpt>
      <trkpt lat="45.30204" lon="5.83998">
        <ele>1342.4389648438</ele>
        <time>2017-01-20T13:07:02Z</time>
      </trkpt>
      <trkpt lat="45.30209" lon="5.84014">
        <ele>1339.4389648438</ele>
        <time>2017-01-20T13:07:04Z</time>
      </trkpt>
      <trkpt lat="45.30214" lon="5.8404">
        <ele>1334.4389648438</ele>
        <time>2017-01-20T13:07:08Z</time>
      </trkpt>
      <trkpt lat="45.30221" lon="5.84059">
        <ele>1330.4389648438</ele>
        <time>2017-01-20T13:07:12Z</time>
      </trkpt>
      <trkpt lat="45.30214" lon="5.8407">
        <ele>1324.4389648438</ele>
        <time>2017-01-20T13:07:20Z</time>
      </trkpt>
      <trkpt lat="45.30168" lon="5.84053">
        <ele>1318.4389648438</ele>
        <time>2017-01-20T13:07:25Z</time>
      </trkpt>
      <trkpt lat="45.30126" lon="5.84063">
        <ele>1311.4389648438</ele>
        <time>2017-01-20T13:07:30Z</time>
      </trkpt>
      <trkpt lat="45.30085" lon="5.84069">
        <ele>1304.4389648438</ele>
        <time>2017-01-20T13:07:36Z</time>
      </trkpt>
      <trkpt lat="45.30045" lon="5.84074">
        <ele>1299.4389648438</ele>
        <time>2017-01-20T13:07:42Z</time>
      </trkpt>
      <trkpt lat="45.3001" lon="5.84076">
        <ele>1299.4389648438</ele>
        <time>2017-01-20T13:07:47Z</time>
      </trkpt>
      <trkpt lat="45.29971" lon="5.84054">
        <ele>1292.4379882812</ele>
        <time>2017-01-20T13:07:53Z</time>
      </trkpt>
      <trkpt lat="45.29947" lon="5.84051">
        <ele>1285.4379882812</ele>
        <time>2017-01-20T13:07:59Z</time>
      </trkpt>
      <trkpt lat="45.29951" lon="5.84068">
        <ele>1283.4379882812</ele>
        <time>2017-01-20T13:08:08Z</time>
      </trkpt>
      <trkpt lat="45.29966" lon="5.84082">
        <ele>1283.4379882812</ele>
        <time>2017-01-20T13:08:15Z</time>
      </trkpt>
      <trkpt lat="45.29981" lon="5.84096">
        <ele>1282.4379882812</ele>
        <time>2017-01-20T13:08:20Z</time>
      </trkpt>
      <trkpt lat="45.30003" lon="5.84121">
        <ele>1280.4389648438</ele>
        <time>2017-01-20T13:08:26Z</time>
      </trkpt>
      <trkpt lat="45.30029" lon="5.84159">
        <ele>1282.4389648438</ele>
        <time>2017-01-20T13:08:32Z</time>
      </trkpt>
      <trkpt lat="45.30004" lon="5.84195">
        <ele>1280.4389648438</ele>
        <time>2017-01-20T13:08:37Z</time>
      </trkpt>
      <trkpt lat="45.29997" lon="5.84204">
        <ele>1280.4389648438</ele>
        <time>2017-01-20T13:08:38Z</time>
      </trkpt>
      <trkpt lat="45.29982" lon="5.84208">
        <ele>1276.4389648438</ele>
        <time>2017-01-20T13:08:40Z</time>
      </trkpt>
      <trkpt lat="45.29955" lon="5.84223">
        <ele>1270.4389648438</ele>
        <time>2017-01-20T13:08:44Z</time>
      </trkpt>
      <trkpt lat="45.29927" lon="5.84254">
        <ele>1265.4389648438</ele>
        <time>2017-01-20T13:08:49Z</time>
      </trkpt>
      <trkpt lat="45.29894" lon="5.84284">
        <ele>1258.4389648438</ele>
        <time>2017-01-20T13:08:55Z</time>
      </trkpt>
      <trkpt lat="45.29887" lon="5.8429">
        <ele>1258.4389648438</ele>
        <time>2017-01-20T13:08:56Z</time>
      </trkpt>
      <trkpt lat="45.29855" lon="5.84325">
        <ele>1255.4389648438</ele>
        <time>2017-01-20T13:09:02Z</time>
      </trkpt>
      <trkpt lat="45.29818" lon="5.84355">
        <ele>1249.4389648438</ele>
        <time>2017-01-20T13:09:08Z</time>
      </trkpt>
      <trkpt lat="45.29788" lon="5.84383">
        <ele>1245.4379882812</ele>
        <time>2017-01-20T13:09:14Z</time>
      </trkpt>
      <trkpt lat="45.29775" lon="5.84392">
        <ele>1240.4379882812</ele>
        <time>2017-01-20T13:09:20Z</time>
      </trkpt>
      <trkpt lat="45.29762" lon="5.84403">
        <ele>1240.4379882812</ele>
        <time>2017-01-20T13:09:27Z</time>
      </trkpt>
      <trkpt lat="45.29755" lon="5.84409">
        <ele>1239.4379882812</ele>
        <time>2017-01-20T13:09:30Z</time>
      </trkpt>
      <trkpt lat="45.29738" lon="5.84424">
        <ele>1235.4379882812</ele>
        <time>2017-01-20T13:09:36Z</time>
      </trkpt>
      <trkpt lat="45.29717" lon="5.84443">
        <ele>1233.4379882812</ele>
        <time>2017-01-20T13:09:42Z</time>
      </trkpt>
      <trkpt lat="45.29696" lon="5.84465">
        <ele>1232.4379882812</ele>
        <time>2017-01-20T13:09:49Z</time>
      </trkpt>
      <trkpt lat="45.29678" lon="5.84489">
        <ele>1230.4379882812</ele>
        <time>2017-01-20T13:10:09Z</time>
      </trkpt>
      <trkpt lat="45.29674" lon="5.84499">
        <ele>1224.4379882812</ele>
        <time>2017-01-20T13:10:53Z</time>
      </trkpt>
      <trkpt lat="45.29668" lon="5.84504">
        <ele>1225.4379882812</ele>
        <time>2017-01-20T13:10:57Z</time>
      </trkpt>
      <trkpt lat="45.2966" lon="5.84521">
        <ele>1223.4379882812</ele>
        <time>2017-01-20T13:11:07Z</time>
      </trkpt>
      <trkpt lat="45.29653" lon="5.84529">
        <ele>1223.4379882812</ele>
        <time>2017-01-20T13:11:12Z</time>
      </trkpt>
      <trkpt lat="45.29649" lon="5.84539">
        <ele>1223.4379882812</ele>
        <time>2017-01-20T13:11:17Z</time>
      </trkpt>
      <trkpt lat="45.29645" lon="5.8456">
        <ele>1225.4379882812</ele>
        <time>2017-01-20T13:11:27Z</time>
      </trkpt>
      <trkpt lat="45.29648" lon="5.8457">
        <ele>1227.4379882812</ele>
        <time>2017-01-20T13:11:53Z</time>
      </trkpt>
      <trkpt lat="45.29654" lon="5.84576">
        <ele>1219.4379882812</ele>
        <time>2017-01-20T13:12:43Z</time>
      </trkpt>
      <trkpt lat="45.29647" lon="5.84586">
        <ele>1217.4379882812</ele>
        <time>2017-01-20T13:13:01Z</time>
      </trkpt>
      <trkpt lat="45.29653" lon="5.84593">
        <ele>1214.4379882812</ele>
        <time>2017-01-20T13:13:10Z</time>
      </trkpt>
      <trkpt lat="45.29649" lon="5.84602">
        <ele>1212.4379882812</ele>
        <time>2017-01-20T13:13:19Z</time>
      </trkpt>
      <trkpt lat="45.29641" lon="5.84605">
        <ele>1213.4379882812</ele>
        <time>2017-01-20T13:13:42Z</time>
      </trkpt>
      <trkpt lat="45.29642" lon="5.84616">
        <ele>1212.4379882812</ele>
        <time>2017-01-20T13:14:29Z</time>
      </trkpt>
      <trkpt lat="45.29646" lon="5.84626">
        <ele>1208.4389648438</ele>
        <time>2017-01-20T13:14:52Z</time>
      </trkpt>
      <trkpt lat="45.2965" lon="5.84635">
        <ele>1210.4389648438</ele>
        <time>2017-01-20T13:14:58Z</time>
      </trkpt>
      <trkpt lat="45.29644" lon="5.84627">
        <ele>1203.4389648438</ele>
        <time>2017-01-20T13:15:07Z</time>
      </trkpt>
      <trkpt lat="45.29637" lon="5.84628">
        <ele>1203.4379882812</ele>
        <time>2017-01-20T13:15:15Z</time>
      </trkpt>
      <trkpt lat="45.29626" lon="5.84635">
        <ele>1200.4379882812</ele>
        <time>2017-01-20T13:15:31Z</time>
      </trkpt>
      <trkpt lat="45.296" lon="5.84661">
        <ele>1196.4379882812</ele>
        <time>2017-01-20T13:15:36Z</time>
      </trkpt>
      <trkpt lat="45.29572" lon="5.84703">
        <ele>1185.4379882812</ele>
        <time>2017-01-20T13:15:42Z</time>
      </trkpt>
      <trkpt lat="45.29551" lon="5.84754">
        <ele>1177.4379882812</ele>
        <time>2017-01-20T13:15:48Z</time>
      </trkpt>
      <trkpt lat="45.2954" lon="5.84759">
        <ele>1153.4379882812</ele>
        <time>2017-01-20T13:15:58Z</time>
      </trkpt>
      <trkpt lat="45.29534" lon="5.84754">
        <ele>1145.4379882812</ele>
        <time>2017-01-20T13:16:12Z</time>
      </trkpt>
      <trkpt lat="45.29526" lon="5.84753">
        <ele>1142.4379882812</ele>
        <time>2017-01-20T13:17:03Z</time>
      </trkpt>
      <trkpt lat="45.2952" lon="5.8475">
        <ele>1142.4379882812</ele>
        <time>2017-01-20T13:17:15Z</time>
      </trkpt>
      <trkpt lat="45.29504" lon="5.84734">
        <ele>1135.4379882812</ele>
        <time>2017-01-20T13:17:22Z</time>
      </trkpt>
      <trkpt lat="45.2949" lon="5.84719">
        <ele>1135.4379882812</ele>
        <time>2017-01-20T13:17:28Z</time>
      </trkpt>
      <trkpt lat="45.29475" lon="5.84701">
        <ele>1133.4379882812</ele>
        <time>2017-01-20T13:17:34Z</time>
      </trkpt>
      <trkpt lat="45.29469" lon="5.84693">
        <ele>1133.4379882812</ele>
        <time>2017-01-20T13:17:36Z</time>
      </trkpt>
      <trkpt lat="45.29453" lon="5.84681">
        <ele>1130.4379882812</ele>
        <time>2017-01-20T13:17:44Z</time>
      </trkpt>
      <trkpt lat="45.29421" lon="5.84673">
        <ele>1123.4379882812</ele>
        <time>2017-01-20T13:17:50Z</time>
      </trkpt>
      <trkpt lat="45.29403" lon="5.847">
        <ele>1115.4379882812</ele>
        <time>2017-01-20T13:17:57Z</time>
      </trkpt>
      <trkpt lat="45.29397" lon="5.84706">
        <ele>1106.4379882812</ele>
        <time>2017-01-20T13:18:06Z</time>
      </trkpt>
      <trkpt lat="45.2939" lon="5.847">
        <ele>1101.4379882812</ele>
        <time>2017-01-20T13:18:29Z</time>
      </trkpt>
      <trkpt lat="45.29386" lon="5.84708">
        <ele>1093.4379882812</ele>
        <time>2017-01-20T13:19:17Z</time>
      </trkpt>
      <trkpt lat="45.29378" lon="5.84704">
        <ele>1095.4379882812</ele>
        <time>2017-01-20T13:20:18Z</time>
      </trkpt>
      <trkpt lat="45.2937" lon="5.847">
        <ele>1091.4379882812</ele>
        <time>2017-01-20T13:20:21Z</time>
      </trkpt>
      <trkpt lat="45.29361" lon="5.84693">
        <ele>1090.4379882812</ele>
        <time>2017-01-20T13:20:23Z</time>
      </trkpt>
      <trkpt lat="45.29336" lon="5.8467">
        <ele>1086.4379882812</ele>
        <time>2017-01-20T13:20:29Z</time>
      </trkpt>
      <trkpt lat="45.29308" lon="5.84685">
        <ele>1077.4379882812</ele>
        <time>2017-01-20T13:20:35Z</time>
      </trkpt>
      <trkpt lat="45.29288" lon="5.84714">
        <ele>1070.4379882812</ele>
        <time>2017-01-20T13:20:41Z</time>
      </trkpt>
      <trkpt lat="45.29272" lon="5.84715">
        <ele>1063.4379882812</ele>
        <time>2017-01-20T13:20:43Z</time>
      </trkpt>
      <trkpt lat="45.29231" lon="5.84734">
        <ele>1050.4379882812</ele>
        <time>2017-01-20T13:20:49Z</time>
      </trkpt>
      <trkpt lat="45.29206" lon="5.84768">
        <ele>1045.4379882812</ele>
        <time>2017-01-20T13:20:54Z</time>
      </trkpt>
      <trkpt lat="45.29185" lon="5.84773">
        <ele>1033.4379882812</ele>
        <time>2017-01-20T13:21:09Z</time>
      </trkpt>
      <trkpt lat="45.2918" lon="5.84783">
        <ele>1028.4379882812</ele>
        <time>2017-01-20T13:21:23Z</time>
      </trkpt>
      <trkpt lat="45.29167" lon="5.84795">
        <ele>1022.4379882812</ele>
        <time>2017-01-20T13:21:29Z</time>
      </trkpt>
      <trkpt lat="45.29152" lon="5.84806">
        <ele>1019.4379882812</ele>
        <time>2017-01-20T13:21:35Z</time>
      </trkpt>
      <trkpt lat="45.29149" lon="5.84818">
        <ele>1019.4379882812</ele>
        <time>2017-01-20T13:21:40Z</time>
      </trkpt>
      <trkpt lat="45.29142" lon="5.84818">
        <ele>1013.4379882812</ele>
        <time>2017-01-20T13:22:05Z</time>
      </trkpt>
      <trkpt lat="45.29142" lon="5.84807">
        <ele>1011.4379882812</ele>
        <time>2017-01-20T13:22:34Z</time>
      </trkpt>
      <trkpt lat="45.29142" lon="5.84796">
        <ele>1010.4379882812</ele>
        <time>2017-01-20T13:22:41Z</time>
      </trkpt>
      <trkpt lat="45.29142" lon="5.84785">
        <ele>1010.4379882812</ele>
        <time>2017-01-20T13:22:46Z</time>
      </trkpt>
      <trkpt lat="45.29147" lon="5.84773">
        <ele>1010.4379882812</ele>
        <time>2017-01-20T13:22:52Z</time>
      </trkpt>
      <trkpt lat="45.29153" lon="5.84751">
        <ele>1004.4379882812</ele>
        <time>2017-01-20T13:23:02Z</time>
      </trkpt>
      <trkpt lat="45.29148" lon="5.84741">
        <ele>1007.4379882812</ele>
        <time>2017-01-20T13:23:08Z</time>
      </trkpt>
      <trkpt lat="45.2914" lon="5.8474">
        <ele>1008.4379882812</ele>
        <time>2017-01-20T13:23:13Z</time>
      </trkpt>
      <trkpt lat="45.29134" lon="5.84744">
        <ele>1004.4379882812</ele>
        <time>2017-01-20T13:23:20Z</time>
      </trkpt>
      <trkpt lat="45.29125" lon="5.84743">
        <ele>1009.4379882812</ele>
        <time>2017-01-20T13:23:25Z</time>
      </trkpt>
      <trkpt lat="45.29116" lon="5.84741">
        <ele>1006.4379882812</ele>
        <time>2017-01-20T13:23:32Z</time>
      </trkpt>
      <trkpt lat="45.29108" lon="5.84738">
        <ele>1005.4379882812</ele>
        <time>2017-01-20T13:23:37Z</time>
      </trkpt>
      <trkpt lat="45.29105" lon="5.84749">
        <ele>1003.4379882812</ele>
        <time>2017-01-20T13:23:43Z</time>
      </trkpt>
    </trkseg>
  </trk>
</gpx>